Provisional Data: Nanticoke Creek near Maine, NY


Please select a monitoring station.
Please select start date.
Please select start date.

Toggle Unit: C/F Toggle Unit: C/F
Sample Time Temperature (C) Temperature (F) Specific Conductivity (mS/cm) pH   Turbidity (NTU+) DO (mg/L)
12/4/2020 12:00:00 AM 3.36 38.048 0.135 7.11 6.17 12.51
12/4/2020 12:15:00 AM 3.36 38.048 0.136 7.14 5.98 12.5
12/4/2020 12:30:00 AM 3.37 38.066 0.136 7.14 5.97 12.49
12/4/2020 12:45:00 AM 3.37 38.066 0.136 7.14 6.06 12.49
12/4/2020 1:00:00 AM 3.37 38.066 0.136 7.15 6.22 12.48
12/4/2020 1:15:00 AM 3.37 38.066 0.136 7.16 6.04 12.48
12/4/2020 1:30:00 AM 3.38 38.084 0.136 7.15 6.03 12.47
12/4/2020 1:45:00 AM 3.38 38.084 0.136 7.16 6.12 12.47
12/4/2020 2:00:00 AM 3.39 38.102 0.136 7.12 6.02 12.47
12/4/2020 2:15:00 AM 3.39 38.102 0.136 7.12 6.13 12.46
12/4/2020 2:30:00 AM 3.4 38.12 0.136 7.09 5.87 12.46
12/4/2020 2:45:00 AM 3.4 38.12 0.136 7.09 6.02 12.46
12/4/2020 3:00:00 AM 3.41 38.138 0.136 7.13 6.25 12.45
12/4/2020 3:15:00 AM 3.42 38.156 0.136 7.13 6.01 12.44
12/4/2020 3:30:00 AM 3.43 38.174 0.136 7.15 6.1 12.44
12/4/2020 3:45:00 AM 3.44 38.192 0.136 7.09 6.23 12.43
12/4/2020 4:00:00 AM 3.45 38.21 0.137 7.1 6.13 12.42
12/4/2020 4:15:00 AM 3.46 38.228 0.136 7.09 6.27 12.43
12/4/2020 4:30:00 AM 3.47 38.246 0.136 7.09 6.3 12.41
12/4/2020 4:45:00 AM 3.49 38.282 0.136 7.14 6.39 12.4
12/4/2020 5:00:00 AM 3.5 38.3 0.136 7.17 6.28 12.4
12/4/2020 5:15:00 AM 3.52 38.336 0.137 7.12 6.58 12.4
12/4/2020 5:30:00 AM 3.53 38.354 0.137 7.15 6.33 12.39
12/4/2020 5:45:00 AM 3.53 38.354 0.137 7.1 6.46 12.39
12/4/2020 6:00:00 AM 3.55 38.39 0.137 7.16 6.34 12.38
12/4/2020 6:15:00 AM 3.56 38.408 0.137 7.14 6.41 12.38
12/4/2020 6:30:00 AM 3.57 38.426 0.137 7.15 6.62 12.36
12/4/2020 6:45:00 AM 3.58 38.444 0.137 7.15 6.43 12.36
12/4/2020 7:00:00 AM 3.6 38.48 0.137 7.14 6.45 12.36
12/4/2020 7:15:00 AM 3.61 38.498 0.137 7.13 6.27 12.36
12/4/2020 7:30:00 AM 3.63 38.534 0.137 7.16 6.44 12.35
12/4/2020 7:45:00 AM 3.64 38.552 0.137 7.11 6.41 12.35
12/4/2020 8:00:00 AM 3.65 38.57 0.137 7.1 6.17 12.36
12/4/2020 8:15:00 AM 3.67 38.606 0.137 7.1 6.38 12.38
12/4/2020 8:30:00 AM 3.68 38.624 0.137 7.16 6.29 12.4
12/4/2020 8:45:00 AM 3.7 38.66 0.137 7.17 6.24 12.43
12/4/2020 9:00:00 AM 3.72 38.696 0.137 7.18 6.27 12.48
12/4/2020 9:15:00 AM 3.74 38.732 0.137 7.18 6.32 12.53
12/4/2020 9:30:00 AM 3.77 38.786 0.137 7.2 6.29 12.59
12/4/2020 9:45:00 AM 3.8 38.84 0.137 7.15 6.19 12.64
12/4/2020 10:00:00 AM 3.84 38.912 0.137 7.22 6.2 12.73
12/4/2020 10:15:00 AM 3.86 38.948 0.137 7.18 6.17 12.8
12/4/2020 10:30:00 AM 3.89 39.002 0.136 7.2 6.08 12.85
12/4/2020 10:45:00 AM 3.92 39.056 0.136 7.26 6.02 12.89
12/4/2020 11:00:00 AM 3.95 39.11 0.136 7.26 6.14 12.93
12/4/2020 11:15:00 AM 3.99 39.182 0.137 7.22 6.18 12.98
12/4/2020 11:30:00 AM 4.02 39.236 0.136 7.24 6.08 13.04
12/4/2020 11:45:00 AM 4.06 39.308 0.136 7.3 5.98 13.08
12/4/2020 12:00:00 PM 4.09 39.362 0.136 7.3 5.91 13.11
12/4/2020 12:15:00 PM 4.12 39.416 0.136 7.31 5.7 13.15
12/4/2020 12:30:00 PM 4.14 39.452 0.136 7.31 5.9 13.18
12/4/2020 12:45:00 PM 4.18 39.524 0.135 7.3 5.8 13.19
12/4/2020 1:00:00 PM 4.22 39.596 0.136 7.34 5.63 13.21
12/4/2020 1:15:00 PM 4.25 39.65 0.136 7.31 5.58 13.25
12/4/2020 1:30:00 PM 4.28 39.704 0.135 7.36 5.87 13.25
12/4/2020 1:45:00 PM 4.32 39.776 0.136 7.37 5.68 13.24
12/4/2020 2:00:00 PM 4.36 39.848 0.136 7.35 5.62 13.24
12/4/2020 2:15:00 PM 4.4 39.92 0.135 7.4 5.53 13.26
12/4/2020 2:30:00 PM 4.43 39.974 0.135 7.35 5.6 13.25
12/4/2020 2:45:00 PM 4.46 40.028 0.135 7.41 5.7 13.23
12/4/2020 3:00:00 PM 4.49 40.082 0.135 7.37 5.59 13.22
12/4/2020 3:15:00 PM 4.52 40.136 0.135 7.4 5.57 13.2
12/4/2020 3:30:00 PM 4.54 40.172 0.135 7.4 5.65 13.15
12/4/2020 3:45:00 PM 4.56 40.208 0.135 7.39 5.66 13.08
12/4/2020 4:00:00 PM 4.57 40.226 0.134 7.33 5.64 12.99
12/4/2020 4:15:00 PM 4.58 40.244 0.135 7.38 5.44 12.92
12/4/2020 4:30:00 PM 4.59 40.262 0.135 7.3 5.59 12.85
12/4/2020 4:45:00 PM 4.6 40.28 0.135 7.34 5.56 12.77
12/4/2020 5:00:00 PM 4.61 40.298 0.134 7.32 5.47 12.7
12/4/2020 5:15:00 PM 4.62 40.316 0.134 7.29 5.57 12.63
12/4/2020 5:30:00 PM 4.63 40.334 0.134 7.28 5.55 12.57
12/4/2020 5:45:00 PM 4.64 40.352 0.134 7.28 5.57 12.51
12/4/2020 6:00:00 PM 4.65 40.37 0.135 7.22 5.51 12.46
12/4/2020 6:15:00 PM 4.66 40.388 0.134 7.21 5.46 12.41
12/4/2020 6:30:00 PM 4.67 40.406 0.134 7.23 5.63 12.37
12/4/2020 6:45:00 PM 4.68 40.424 0.134 7.2 5.66 12.32
12/4/2020 7:00:00 PM 4.69 40.442 0.134 7.21 5.71 12.29
12/4/2020 7:15:00 PM 4.69 40.442 0.134 7.23 5.69 12.24
12/4/2020 7:30:00 PM 4.7 40.46 0.134 7.17 5.68 12.21
12/4/2020 7:45:00 PM 4.7 40.46 0.134 7.18 5.69 12.18
12/4/2020 8:00:00 PM 4.71 40.478 0.134 7.17 5.66 12.14
12/4/2020 8:15:00 PM 4.72 40.496 0.134 7.21 5.65 12.11
12/4/2020 8:30:00 PM 4.72 40.496 0.134 7.18 5.75 12.1
12/4/2020 8:45:00 PM 4.72 40.496 0.134 7.16 5.5 12.07
12/4/2020 9:00:00 PM 4.73 40.514 0.134 7.14 5.52 12.05
12/4/2020 9:15:00 PM 4.73 40.514 0.134 7.2 5.66 12.04
12/4/2020 9:30:00 PM 4.73 40.514 0.134 7.14 5.77 12.02
12/4/2020 9:45:00 PM 4.73 40.514 0.134 7.17 5.6 12.01
12/4/2020 10:00:00 PM 4.73 40.514 0.134 7.19 5.72 12
12/4/2020 10:15:00 PM 4.73 40.514 0.134 7.14 5.59 11.98
12/4/2020 10:30:00 PM 4.73 40.514 0.134 7.15 5.99 11.98
12/4/2020 10:45:00 PM 4.73 40.514 0.134 7.16 5.75 11.96
12/4/2020 11:00:00 PM 4.72 40.496 0.134 7.17 5.94 11.95
12/4/2020 11:15:00 PM 4.71 40.478 0.134 7.15 5.67 11.95
12/4/2020 11:30:00 PM 4.71 40.478 0.135 7.14 5.9 11.95
12/4/2020 11:45:00 PM 4.7 40.46 0.135 7.09 5.91 11.93
12/5/2020 12:00:00 AM 4.69 40.442 0.135 7.15 5.97 11.93
12/5/2020 12:15:00 AM 4.69 40.442 0.135 7.09 5.96 11.93
12/5/2020 12:30:00 AM 4.68 40.424 0.135 7.16 5.96 11.93
12/5/2020 12:45:00 AM 4.68 40.424 0.135 7.14 6.1 11.91
12/5/2020 1:00:00 AM 4.68 40.424 0.135 7.13 5.93 11.91
12/5/2020 1:15:00 AM 4.67 40.406 0.135 7.14 6.06 11.91
12/5/2020 1:30:00 AM 4.67 40.406 0.135 7.15 6.15 11.91
12/5/2020 1:45:00 AM 4.67 40.406 0.135 7.11 5.71 11.9
12/5/2020 2:00:00 AM 4.67 40.406 0.135 7.13 6.28 11.89
12/5/2020 2:15:00 AM 4.67 40.406 0.135 7.13 6.43 11.9
12/5/2020 2:30:00 AM 4.66 40.388 0.135 7.13 5.98 11.9
12/5/2020 2:45:00 AM 4.66 40.388 0.136 7.14 6.2 11.89
12/5/2020 3:00:00 AM 4.66 40.388 0.136 7.14 6.09 11.88
12/5/2020 3:15:00 AM 4.65 40.37 0.135 7.13 6.06 11.89
12/5/2020 3:30:00 AM 4.64 40.352 0.135 7.08 6.14 11.89
12/5/2020 3:45:00 AM 4.63 40.334 0.135 7.13 6.13 11.89
12/5/2020 4:00:00 AM 4.63 40.334 0.135 7.1 5.99 11.89
12/5/2020 4:15:00 AM 4.63 40.334 0.135 7.13 6.13 11.87
12/5/2020 4:30:00 AM 4.63 40.334 0.136 7.08 5.98 11.88
12/5/2020 4:45:00 AM 4.63 40.334 0.135 7.14 6.09 11.88
12/5/2020 5:00:00 AM 4.63 40.334 0.136 7.1 6.12 11.87
12/5/2020 5:15:00 AM 4.63 40.334 0.135 7.15 6.42 11.87
12/5/2020 5:30:00 AM 4.63 40.334 0.135 7.09 6.2 11.88
12/5/2020 5:45:00 AM 4.63 40.334 0.135 7.1 6.2 11.88
12/5/2020 6:00:00 AM 4.63 40.334 0.136 7.13 6.28 11.87
12/5/2020 6:15:00 AM 4.63 40.334 0.135 7.14 6.07 11.88
12/5/2020 6:30:00 AM 4.63 40.334 0.136 7.08 6.11 11.88
12/5/2020 6:45:00 AM 4.62 40.316 0.135 7.14 6.23 11.88
12/5/2020 7:00:00 AM 4.62 40.316 0.135 7.15 6 11.88
12/5/2020 7:15:00 AM 4.62 40.316 0.136 7.15 6.03 11.87
12/5/2020 7:30:00 AM 4.62 40.316 0.136 7.07 6.15 11.88
12/5/2020 7:45:00 AM 4.62 40.316 0.136 7.15 6.03 11.89
12/5/2020 8:00:00 AM 4.62 40.316 0.136 7.16 5.99 11.91
12/5/2020 8:15:00 AM 4.63 40.334 0.136 7.16 6.36 11.95
12/5/2020 8:30:00 AM 4.63 40.334 0.136 7.17 5.99 11.99
12/5/2020 8:45:00 AM 4.64 40.352 0.136 7.17 5.99 12.03
12/5/2020 9:00:00 AM 4.65 40.37 0.136 7.18 5.95 12.09
12/5/2020 9:15:00 AM 4.66 40.388 0.136 7.19 5.88 12.1
12/5/2020 9:30:00 AM 4.66 40.388 0.136 7.19 5.96 12.1
12/5/2020 9:45:00 AM 4.66 40.388 0.136 7.16 6.01 12.12
12/5/2020 10:00:00 AM 4.66 40.388 0.136 7.19 5.95 12.12
12/5/2020 10:15:00 AM 4.67 40.406 0.136 7.21 6.01 12.16
12/5/2020 10:30:00 AM 4.68 40.424 0.136 7.18 5.93 12.23
12/5/2020 10:45:00 AM 4.71 40.478 0.137 7.21 5.87 12.32
12/5/2020 11:00:00 AM 4.73 40.514 0.136 7.24 5.92 12.41
12/5/2020 11:15:00 AM 4.74 40.532 0.136 7.21 5.7 12.46
12/5/2020 11:30:00 AM 4.76 40.568 0.136 7.27 5.81 12.52
12/5/2020 11:45:00 AM 4.8 40.64 0.136 7.25 5.66 12.62
12/5/2020 12:00:00 PM 4.89 40.802 0.136 7.29 5.65 12.73
12/5/2020 12:15:00 PM 4.95 40.91 0.136 7.33 5.68 12.77
12/5/2020 12:30:00 PM 4.96 40.928 0.136 7.3 5.74 12.84
12/5/2020 12:45:00 PM 4.96 40.928 0.136 7.32 5.41 12.86
12/5/2020 1:00:00 PM 4.99 40.982 0.136 7.33 5.67 12.93
12/5/2020 1:15:00 PM 5.04 41.072 0.136 7.41 5.5 13
12/5/2020 1:30:00 PM 5.06 41.108 0.136 7.41 5.55 13.03
12/5/2020 1:45:00 PM 5.06 41.108 0.136 7.4 5.57 13.03
12/5/2020 2:00:00 PM 5.09 41.162 0.136 7.42 5.56 13.09
12/5/2020 2:15:00 PM 5.11 41.198 0.136 7.46 5.49 13.1
12/5/2020 2:30:00 PM 5.12 41.216 0.136 7.45 5.43 13.09
12/5/2020 2:45:00 PM 5.11 41.198 0.136 7.45 5.54 13.09
12/5/2020 3:00:00 PM 5.11 41.198 0.136 7.43 5.53 13.07
12/5/2020 3:15:00 PM 5.1 41.18 0.136 7.41 5.56 13.04
12/5/2020 3:30:00 PM 5.09 41.162 0.136 7.41 5.81 12.97
12/5/2020 3:45:00 PM 5.07 41.126 0.136 7.44 5.68 12.93
12/5/2020 4:00:00 PM 5.05 41.09 0.136 7.4 5.58 12.86
12/5/2020 4:15:00 PM 5.04 41.072 0.136 7.39 5.75 12.79
12/5/2020 4:30:00 PM 5.02 41.036 0.137 7.4 5.78 12.71
12/5/2020 4:45:00 PM 5.01 41.018 0.137 7.37 5.66 12.63
12/5/2020 5:00:00 PM 5 41 0.137 7.36 5.67 12.56
12/5/2020 5:15:00 PM 4.98 40.964 0.137 7.35 5.8 12.49
12/5/2020 5:30:00 PM 4.96 40.928 0.137 7.34 5.67 12.43
12/5/2020 5:45:00 PM 4.94 40.892 0.137 7.33 5.96 12.37
12/5/2020 6:00:00 PM 4.92 40.856 0.137 7.27 5.85 12.33
12/5/2020 6:15:00 PM 4.9 40.82 0.137 7.27 6 12.28
12/5/2020 6:30:00 PM 4.87 40.766 0.137 7.25 5.88 12.24
12/5/2020 6:45:00 PM 4.84 40.712 0.137 7.25 5.7 12.21
12/5/2020 7:00:00 PM 4.81 40.658 0.137 7.24 5.69 12.18
12/5/2020 7:15:00 PM 4.78 40.604 0.137 7.22 5.89 12.15
12/5/2020 7:30:00 PM 4.76 40.568 0.137 7.23 5.76 12.13
12/5/2020 7:45:00 PM 4.73 40.514 0.138 7.22 5.62 12.1
12/5/2020 8:00:00 PM 4.71 40.478 0.137 7.21 5.65 12.08
12/5/2020 8:15:00 PM 4.68 40.424 0.138 7.25 5.71 12.07
12/5/2020 8:30:00 PM 4.65 40.37 0.138 7.2 5.81 12.05
12/5/2020 8:45:00 PM 4.63 40.334 0.137 7.23 5.72 12.03
12/5/2020 9:00:00 PM 4.61 40.298 0.138 7.24 5.87 12.03
12/5/2020 9:15:00 PM 4.59 40.262 0.138 7.18 5.79 12.02
12/5/2020 9:30:00 PM 4.56 40.208 0.138 7.19 5.55 12.01
12/5/2020 9:45:00 PM 4.54 40.172 0.138 7.16 5.58 12.01
12/5/2020 10:00:00 PM 4.51 40.118 0.138 7.17 5.65 12
12/5/2020 10:15:00 PM 4.49 40.082 0.138 7.2 5.58 11.99
12/5/2020 10:30:00 PM 4.46 40.028 0.138 7.15 5.58 12
12/5/2020 10:45:00 PM 4.43 39.974 0.138 7.19 5.42 11.99
12/5/2020 11:00:00 PM 4.4 39.92 0.138 7.19 5.71 11.98
12/5/2020 11:15:00 PM 4.37 39.866 0.138 7.17 5.82 12
12/5/2020 11:30:00 PM 4.34 39.812 0.139 7.15 5.71 11.98
12/5/2020 11:45:00 PM 4.31 39.758 0.138 7.14 5.82 11.99
12/6/2020 12:00:00 AM 4.28 39.704 0.138 7.14 5.73 12
12/6/2020 12:15:00 AM 4.25 39.65 0.138 7.17 6.21 12.01
12/6/2020 12:30:00 AM 4.22 39.596 0.138 7.17 6.03 12.01
12/6/2020 12:45:00 AM 4.19 39.542 0.138 7.17 5.96 12
12/6/2020 1:00:00 AM 4.16 39.488 0.138 7.18 5.95 12.02
12/6/2020 1:15:00 AM 4.13 39.434 0.138 7.16 5.92 12.02
12/6/2020 1:30:00 AM 4.1 39.38 0.138 7.18 5.99 12.03
12/6/2020 1:45:00 AM 4.07 39.326 0.138 7.13 6.01 12.03
12/6/2020 2:00:00 AM 4.04 39.272 0.138 7.17 5.92 12.04
12/6/2020 2:15:00 AM 4 39.2 0.138 7.14 5.88 12.05
12/6/2020 2:30:00 AM 3.97 39.146 0.138 7.18 6.04 12.06
12/6/2020 2:45:00 AM 3.94 39.092 0.138 7.18 6.3 12.06
12/6/2020 3:00:00 AM 3.91 39.038 0.138 7.14 6.3 12.08
12/6/2020 3:15:00 AM 3.88 38.984 0.138 7.16 6.41 12.09
12/6/2020 3:30:00 AM 3.85 38.93 0.138 7.17 6.27 12.09
12/6/2020 3:45:00 AM 3.82 38.876 0.138 7.16 6.39 12.1
12/6/2020 4:00:00 AM 3.79 38.822 0.138 7.13 6.07 12.1
12/6/2020 4:15:00 AM 3.76 38.768 0.139 7.18 6.69 12.12
12/6/2020 4:30:00 AM 3.73 38.714 0.139 7.16 6.03 12.13
12/6/2020 4:45:00 AM 3.7 38.66 0.138 7.16 6.18 12.14
12/6/2020 5:00:00 AM 3.67 38.606 0.139 7.16 6.04 12.15
12/6/2020 5:15:00 AM 3.63 38.534 0.138 7.12 6.27 12.17
12/6/2020 5:30:00 AM 3.59 38.462 0.139 7.15 6.33 12.17
12/6/2020 5:45:00 AM 3.57 38.426 0.139 7.16 6.24 12.18
12/6/2020 6:00:00 AM 3.53 38.354 0.139 7.15 6.32 12.2
12/6/2020 6:15:00 AM 3.5 38.3 0.139 7.15 6.28 12.21
12/6/2020 6:30:00 AM 3.46 38.228 0.139 7.11 6.22 12.23
12/6/2020 6:45:00 AM 3.43 38.174 0.139 7.16 6.26 12.23
12/6/2020 7:00:00 AM 3.4 38.12 0.139 7.1 6.05 12.24
12/6/2020 7:15:00 AM 3.38 38.084 0.139 7.11 6 12.25
12/6/2020 7:30:00 AM 3.36 38.048 0.138 7.14 6.11 12.27
12/6/2020 7:45:00 AM 3.33 37.994 0.139 7.1 5.95 12.29
12/6/2020 8:00:00 AM 3.31 37.958 0.138 7.11 6.08 12.32
12/6/2020 8:15:00 AM 3.29 37.922 0.139 7.13 6.01 12.36
12/6/2020 8:30:00 AM 3.27 37.886 0.139 7.14 6.12 12.42
12/6/2020 8:45:00 AM 3.26 37.868 0.139 7.19 6.04 12.5
12/6/2020 9:00:00 AM 3.26 37.868 0.139 7.2 5.85 12.6
12/6/2020 9:15:00 AM 3.25 37.85 0.138 7.21 5.92 12.72
12/6/2020 9:30:00 AM 3.25 37.85 0.139 7.19 5.93 12.79
12/6/2020 9:45:00 AM 3.25 37.85 0.138 7.26 5.92 12.89
12/6/2020 10:00:00 AM 3.26 37.868 0.138 7.27 6.01 12.97
12/6/2020 10:15:00 AM 3.25 37.85 0.139 7.28 5.74 13.03
12/6/2020 10:30:00 AM 3.24 37.832 0.138 7.3 5.82 13.1
12/6/2020 10:45:00 AM 3.25 37.85 0.138 7.31 5.71 13.16
12/6/2020 11:00:00 AM 3.25 37.85 0.139 7.3 5.75 13.23
12/6/2020 11:15:00 AM 3.25 37.85 0.138 7.33 5.69 13.3
12/6/2020 11:30:00 AM 3.26 37.868 0.138 7.35 5.88 13.35
12/6/2020 11:45:00 AM 3.25 37.85 0.138 7.36 5.73 13.4
12/6/2020 12:00:00 PM 3.25 37.85 0.138 7.34 5.68 13.44
12/6/2020 12:15:00 PM 3.26 37.868 0.138 7.35 5.72 13.49
12/6/2020 12:30:00 PM 3.27 37.886 0.139 7.38 5.79 13.53
12/6/2020 12:45:00 PM 3.26 37.868 0.138 7.41 5.78 13.58
12/6/2020 1:00:00 PM 3.26 37.868 0.138 7.37 5.8 13.6
12/6/2020 1:15:00 PM 3.25 37.85 0.138 7.42 5.74 13.62
12/6/2020 1:30:00 PM 3.25 37.85 0.139 7.44 5.88 13.62
12/6/2020 1:45:00 PM 3.24 37.832 0.138 7.45 5.66 13.64
12/6/2020 2:00:00 PM 3.24 37.832 0.138 7.43 5.72 13.64
12/6/2020 2:15:00 PM 3.23 37.814 0.138 7.46 5.68 13.65
12/6/2020 2:30:00 PM 3.23 37.814 0.138 7.42 5.62 13.64
12/6/2020 2:45:00 PM 3.23 37.814 0.138 7.45 5.63 13.64
12/6/2020 3:00:00 PM 3.21 37.778 0.138 7.46 5.46 13.63
12/6/2020 3:15:00 PM 3.22 37.796 0.139 7.42 5.48 13.63
12/6/2020 3:30:00 PM 3.21 37.778 0.139 7.41 5.4 13.63
12/6/2020 3:45:00 PM 3.21 37.778 0.139 7.46 5.52 13.6
12/6/2020 4:00:00 PM 3.19 37.742 0.139 7.44 5.41 13.57
12/6/2020 4:15:00 PM 3.18 37.724 0.139 7.41 5.46 13.52
12/6/2020 4:30:00 PM 3.17 37.706 0.139 7.44 5.46 13.45
12/6/2020 4:45:00 PM 3.15 37.67 0.139 7.38 5.75 13.38
12/6/2020 5:00:00 PM 3.13 37.634 0.139 7.38 5.7 13.31
12/6/2020 5:15:00 PM 3.11 37.598 0.139 7.35 5.32 13.23
12/6/2020 5:30:00 PM 3.09 37.562 0.139 7.37 5.48 13.17
12/6/2020 5:45:00 PM 3.06 37.508 0.139 7.33 5.76 13.12
12/6/2020 6:00:00 PM 3.04 37.472 0.139 7.35 5.56 13.07
12/6/2020 6:15:00 PM 3.03 37.454 0.139 7.34 5.53 13.02
12/6/2020 6:30:00 PM 3.02 37.436 0.139 7.34 6.07 12.99
12/6/2020 6:45:00 PM 3 37.4 0.139 7.3 6.37 12.95
12/6/2020 7:00:00 PM 2.99 37.382 0.139 7.28 5.45 12.92
12/6/2020 7:15:00 PM 2.97 37.346 0.139 7.31 5.53 12.89
12/6/2020 7:30:00 PM 2.96 37.328 0.139 7.3 6.07 12.86
12/6/2020 7:45:00 PM 2.94 37.292 0.139 7.29 5.88 12.83
12/6/2020 8:00:00 PM 2.92 37.256 0.139 7.29 6.34 12.81
12/6/2020 8:15:00 PM 2.89 37.202 0.139 7.28 5.78 12.78
12/6/2020 8:30:00 PM 2.87 37.166 0.139 7.22 5.65 12.75
12/6/2020 8:45:00 PM 2.85 37.13 0.14 7.28 5.64 12.74
12/6/2020 9:00:00 PM 2.84 37.112 0.139 7.27 6.01 12.73
12/6/2020 9:15:00 PM 2.82 37.076 0.14 7.26 5.5 12.72
12/6/2020 9:30:00 PM 2.8 37.04 0.139 7.22 5.59 12.7
12/6/2020 9:45:00 PM 2.79 37.022 0.14 7.25 5.9 12.67
12/6/2020 10:00:00 PM 2.77 36.986 0.139 7.25 5.8 12.68
12/6/2020 10:15:00 PM 2.75 36.95 0.139 7.26 5.41 12.67
12/6/2020 10:30:00 PM 2.73 36.914 0.139 7.24 5.47 12.66
12/6/2020 10:45:00 PM 2.72 36.896 0.14 7.24 5.46 12.66
12/6/2020 11:00:00 PM 2.7 36.86 0.14 7.18 6 12.64
12/6/2020 11:15:00 PM 2.69 36.842 0.14 7.18 6.27 12.64
12/6/2020 11:30:00 PM 2.68 36.824 0.14 7.22 5.83 12.64
12/6/2020 11:45:00 PM 2.66 36.788 0.14 7.18 5.79 12.64
12/7/2020 12:00:00 AM 2.65 36.77 0.139 7.18 5.79 12.64
12/7/2020 12:15:00 AM 2.63 36.734 0.14 7.17 5.91 12.63
12/7/2020 12:30:00 AM 2.62 36.716 0.139 7.17 5.75 12.63
12/7/2020 12:45:00 AM 2.6 36.68 0.139 7.17 5.9 12.64
12/7/2020 1:00:00 AM 2.59 36.662 0.139 7.18 5.95 12.64
12/7/2020 1:15:00 AM 2.58 36.644 0.139 7.2 5.87 12.63
12/7/2020 1:30:00 AM 2.57 36.626 0.14 7.22 5.54 12.62
12/7/2020 1:45:00 AM 2.56 36.608 0.14 7.23 5.65 12.62
12/7/2020 2:00:00 AM 2.54 36.572 0.14 7.22 5.94 12.62
12/7/2020 2:15:00 AM 2.53 36.554 0.14 7.23 5.69 12.63
12/7/2020 2:30:00 AM 2.51 36.518 0.14 7.23 5.79 12.63
12/7/2020 2:45:00 AM 2.49 36.482 0.14 7.22 5.83 12.63
12/7/2020 3:00:00 AM 2.47 36.446 0.14 7.16 5.83 12.64
12/7/2020 3:15:00 AM 2.45 36.41 0.14 7.2 5.6 12.63
12/7/2020 3:30:00 AM 2.43 36.374 0.14 7.21 5.77 12.63
12/7/2020 3:45:00 AM 2.42 36.356 0.14 7.16 5.72 12.64
12/7/2020 4:00:00 AM 2.41 36.338 0.14 7.17 5.78 12.64
12/7/2020 4:15:00 AM 2.4 36.32 0.14 7.2 5.64 12.64
12/7/2020 4:30:00 AM 2.38 36.284 0.14 7.21 5.81 12.64
12/7/2020 4:45:00 AM 2.37 36.266 0.14 7.19 6.9 12.66
12/7/2020 5:00:00 AM 2.36 36.248 0.141 7.17 6 12.65
12/7/2020 5:15:00 AM 2.35 36.23 0.141 7.16 5.67 12.66
12/7/2020 5:30:00 AM 2.33 36.194 0.141 7.2 5.89 12.66
12/7/2020 5:45:00 AM 2.32 36.176 0.141 7.21 5.88 12.66
12/7/2020 6:00:00 AM 2.3 36.14 0.141 7.16 5.97 12.68
12/7/2020 6:15:00 AM 2.29 36.122 0.141 7.17 5.93 12.67
12/7/2020 6:30:00 AM 2.27 36.086 0.141 7.17 5.91 12.68
12/7/2020 6:45:00 AM 2.26 36.068 0.141 7.17 5.97 12.68
12/7/2020 7:00:00 AM 2.24 36.032 0.141 7.21 6.25 12.69
12/7/2020 7:15:00 AM 2.24 36.032 0.141 7.21 5.63 12.68
12/7/2020 7:30:00 AM 2.22 35.996 0.141 7.19 5.45 12.7
12/7/2020 7:45:00 AM 2.2 35.96 0.141 7.22 5.78 12.72
12/7/2020 8:00:00 AM 2.2 35.96 0.141 7.17 5.62 12.75
12/7/2020 8:15:00 AM 2.2 35.96 0.141 7.22 5.55 12.81
12/7/2020 8:30:00 AM 2.2 35.96 0.141 7.19 5.48 12.9
12/7/2020 8:45:00 AM 2.2 35.96 0.141 7.25 5.71 12.99
12/7/2020 9:00:00 AM 2.22 35.996 0.141 7.26 5.57 13.08
12/7/2020 9:15:00 AM 2.24 36.032 0.141 7.27 5.64 13.17
12/7/2020 9:30:00 AM 2.26 36.068 0.141 7.27 5.88 13.27
12/7/2020 9:45:00 AM 2.28 36.104 0.141 7.31 5.68 13.35
12/7/2020 10:00:00 AM 2.3 36.14 0.141 7.3 5.6 13.43
12/7/2020 10:15:00 AM 2.32 36.176 0.141 7.34 5.58 13.49
12/7/2020 10:30:00 AM 2.36 36.248 0.141 7.3 5.77 13.55
12/7/2020 10:45:00 AM 2.42 36.356 0.141 7.33 5.49 13.63
12/7/2020 11:00:00 AM 2.47 36.446 0.141 7.38 5.47 13.69
12/7/2020 11:15:00 AM 2.52 36.536 0.141 7.36 5.66 13.76
12/7/2020 11:30:00 AM 2.58 36.644 0.141 7.4 5.73 13.8
12/7/2020 11:45:00 AM 2.65 36.77 0.141 7.39 5.67 13.84
12/7/2020 12:00:00 PM 2.71 36.878 0.14 7.44 5.65 13.89
12/7/2020 12:15:00 PM 2.75 36.95 0.14 7.47 5.63 13.93
12/7/2020 12:30:00 PM 2.78 37.004 0.14 7.43 5.4 13.94
12/7/2020 12:45:00 PM 2.82 37.076 0.14 7.49 5.6 13.99
12/7/2020 1:00:00 PM 2.84 37.112 0.14 7.5 5.61 14
12/7/2020 1:15:00 PM 2.87 37.166 0.14 7.5 5.41 14.01
12/7/2020 1:30:00 PM 2.9 37.22 0.14 7.52 5.48 14.04
12/7/2020 1:45:00 PM 2.93 37.274 0.14 7.49 5.43 14.06
12/7/2020 2:00:00 PM 2.97 37.346 0.14 7.54 5.29 14.06
12/7/2020 2:15:00 PM 3.01 37.418 0.14 7.57 5.2 14.08
12/7/2020 2:30:00 PM 3.03 37.454 0.14 7.54 5.22 14.08
12/7/2020 2:45:00 PM 3.04 37.472 0.14 7.57 5.39 14.06
12/7/2020 3:00:00 PM 3.04 37.472 0.14 7.58 5.39 14.04
12/7/2020 3:15:00 PM 3.04 37.472 0.14 7.55 5.3 14.01
12/7/2020 3:30:00 PM 3.05 37.49 0.14 7.52 5.27 13.96
12/7/2020 3:45:00 PM 3.05 37.49 0.14 7.53 5.29 13.92
12/7/2020 4:00:00 PM 3.05 37.49 0.14 7.55 5.23 13.84
12/7/2020 4:15:00 PM 3.04 37.472 0.14 7.54 5.04 13.76
12/7/2020 4:30:00 PM 3.02 37.436 0.14 7.51 5.2 13.67
12/7/2020 4:45:00 PM 3 37.4 0.14 7.46 5.32 13.55
12/7/2020 5:00:00 PM 2.98 37.364 0.141 7.5 5.17 13.47
12/7/2020 5:15:00 PM 2.96 37.328 0.141 7.48 5.12 13.39
12/7/2020 5:30:00 PM 2.93 37.274 0.141 7.45 5.06 13.31
12/7/2020 5:45:00 PM 2.9 37.22 0.141 7.39 5.1 13.24
12/7/2020 6:00:00 PM 2.88 37.184 0.141 7.41 5.12 13.18
12/7/2020 6:15:00 PM 2.85 37.13 0.141 7.37 5.07 13.14
12/7/2020 6:30:00 PM 2.83 37.094 0.141 7.38 5.14 13.09
12/7/2020 6:45:00 PM 2.81 37.058 0.141 7.35 6.05 13.05
12/7/2020 7:00:00 PM 2.78 37.004 0.142 7.32 7.19 13
12/7/2020 7:15:00 PM 2.75 36.95 0.142 7.32 5.05 12.97
12/7/2020 7:30:00 PM 2.73 36.914 0.142 7.3 4.74 12.94
12/7/2020 7:45:00 PM 2.7 36.86 0.141 7.33 4.72 12.92
12/7/2020 8:00:00 PM 2.68 36.824 0.142 7.34 4.69 12.88
12/7/2020 8:15:00 PM 2.65 36.77 0.142 7.31 4.75 12.85
12/7/2020 8:30:00 PM 2.63 36.734 0.142 7.28 4.72 12.83
12/7/2020 8:45:00 PM 2.6 36.68 0.142 7.3 4.84 12.81
12/7/2020 9:00:00 PM 2.58 36.644 0.142 7.31 4.85 12.8
12/7/2020 9:15:00 PM 2.55 36.59 0.142 7.3 5.81 12.79
12/7/2020 9:30:00 PM 2.53 36.554 0.142 7.31 4.45 12.77
12/7/2020 9:45:00 PM 2.51 36.518 0.142 7.25 4.61 12.76
12/7/2020 10:00:00 PM 2.48 36.464 0.142 7.27 4.75 12.76
12/7/2020 10:15:00 PM 2.47 36.446 0.142 7.24 4.83 12.74
12/7/2020 10:30:00 PM 2.45 36.41 0.142 7.23 4.83 12.73
12/7/2020 10:45:00 PM 2.42 36.356 0.142 7.23 4.91 12.73
12/7/2020 11:00:00 PM 2.38 36.284 0.142 7.26 4.85 12.73
12/7/2020 11:15:00 PM 2.34 36.212 0.142 7.26 4.94 12.73
12/7/2020 11:30:00 PM 2.3 36.14 0.141 7.27 4.76 12.73
12/7/2020 11:45:00 PM 2.28 36.104 0.142 7.23 4.87 12.73
12/8/2020 12:00:00 AM 2.26 36.068 0.142 7.26 5 12.73
12/8/2020 12:15:00 AM 2.23 36.014 0.142 7.21 4.98 12.73
12/8/2020 12:30:00 AM 2.2 35.96 0.142 7.2 4.99 12.74
12/8/2020 12:45:00 AM 2.18 35.924 0.142 7.24 5.02 12.74
12/8/2020 1:00:00 AM 2.16 35.888 0.143 7.21 4.78 12.74
12/8/2020 1:15:00 AM 2.15 35.87 0.142 7.25 5.1 12.75
12/8/2020 1:30:00 AM 2.13 35.834 0.143 7.24 5.16 12.75
12/8/2020 1:45:00 AM 2.12 35.816 0.142 7.27 5.08 12.74
12/8/2020 2:00:00 AM 2.1 35.78 0.142 7.24 5.01 12.75
12/8/2020 2:15:00 AM 2.08 35.744 0.142 7.21 5.19 12.76
12/8/2020 2:30:00 AM 2.06 35.708 0.142 7.2 4.87 12.76
12/8/2020 2:45:00 AM 2.04 35.672 0.141 7.2 5.21 12.76
12/8/2020 3:00:00 AM 2.02 35.636 0.141 7.23 5.11 12.77
12/8/2020 3:15:00 AM 1.99 35.582 0.141 7.2 5.05 12.78
12/8/2020 3:30:00 AM 1.97 35.546 0.141 7.23 5.2 12.78
12/8/2020 3:45:00 AM 1.95 35.51 0.141 7.23 5.16 12.8
12/8/2020 4:00:00 AM 1.93 35.474 0.141 7.23 5.24 12.8
12/8/2020 4:15:00 AM 1.9 35.42 0.141 7.19 5.06 12.81
12/8/2020 4:30:00 AM 1.88 35.384 0.14 7.19 5.13 12.82
12/8/2020 4:45:00 AM 1.87 35.366 0.14 7.21 5.1 12.82
12/8/2020 5:00:00 AM 1.85 35.33 0.14 7.22 5.22 12.84
12/8/2020 5:15:00 AM 1.83 35.294 0.14 7.23 5.09 12.84
12/8/2020 5:30:00 AM 1.82 35.276 0.14 7.17 5.52 12.84
12/8/2020 5:45:00 AM 1.81 35.258 0.14 7.18 5.28 12.85
12/8/2020 6:00:00 AM 1.79 35.222 0.14 7.22 5.19 12.84
12/8/2020 6:15:00 AM 1.76 35.168 0.14 7.23 5.2 12.86
12/8/2020 6:30:00 AM 1.74 35.132 0.14 7.24 5.07 12.87
12/8/2020 6:45:00 AM 1.71 35.078 0.139 7.19 4.99 12.88
12/8/2020 7:00:00 AM 1.68 35.024 0.139 7.21 5.45 12.89
12/8/2020 7:15:00 AM 1.66 34.988 0.139 7.22 5.28 12.89
12/8/2020 7:30:00 AM 1.65 34.97 0.14 7.21 5.17 12.89
12/8/2020 7:45:00 AM 1.63 34.934 0.139 7.18 4.99 12.92
12/8/2020 8:00:00 AM 1.62 34.916 0.139 7.23 4.97 12.94
12/8/2020 8:15:00 AM 1.6 34.88 0.139 7.18 5.35 12.96
12/8/2020 8:30:00 AM 1.59 34.862 0.139 7.19 5.34 13.02
12/8/2020 8:45:00 AM 1.58 34.844 0.139 7.2 5.22 13.07
12/8/2020 9:00:00 AM 1.58 34.844 0.139 7.26 5.46 13.14
12/8/2020 9:15:00 AM 1.59 34.862 0.138 7.28 5.38 13.25
12/8/2020 9:30:00 AM 1.6 34.88 0.138 7.29 5.29 13.36
12/8/2020 9:45:00 AM 1.62 34.916 0.138 7.26 5.88 13.45
12/8/2020 10:00:00 AM 1.63 34.934 0.138 7.3 5.46 13.51
12/8/2020 10:15:00 AM 1.65 34.97 0.137 7.34 5.3 13.6
12/8/2020 10:30:00 AM 1.68 35.024 0.137 7.29 5.54 13.66
12/8/2020 10:45:00 AM 1.71 35.078 0.137 7.33 5.72 13.76
12/8/2020 11:00:00 AM 1.74 35.132 0.137 7.32 5.7 13.83
12/8/2020 11:15:00 AM 1.78 35.204 0.137 7.38 5.67 13.88
12/8/2020 11:30:00 AM 1.8 35.24 0.137 7.4 5.68 13.92
12/8/2020 11:45:00 AM 1.83 35.294 0.137 7.36 5.64 13.98
12/8/2020 12:00:00 PM 1.85 35.33 0.137 7.39 5.17 14.03
12/8/2020 12:15:00 PM 1.88 35.384 0.137 7.43 5.41 14.07
12/8/2020 12:30:00 PM 1.93 35.474 0.137 7.45 5.28 14.11
12/8/2020 12:45:00 PM 1.98 35.564 0.137 7.45 5.39 14.15
12/8/2020 1:00:00 PM 2.02 35.636 0.137 7.47 5.13 14.2
12/8/2020 1:15:00 PM 2.06 35.708 0.137 7.48 5.42 14.23
12/8/2020 1:30:00 PM 2.07 35.726 0.137 7.51 5.22 14.23
12/8/2020 1:45:00 PM 2.12 35.816 0.136 7.52 5.15 14.26
12/8/2020 2:00:00 PM 2.16 35.888 0.136 7.48 5.08 14.26
12/8/2020 2:15:00 PM 2.19 35.942 0.136 7.53 5.04 14.28
12/8/2020 2:30:00 PM 2.21 35.978 0.136 7.53 4.98 14.28
12/8/2020 2:45:00 PM 2.22 35.996 0.136 7.53 5.25 14.27
12/8/2020 3:00:00 PM 2.23 36.014 0.136 7.51 5.18 14.25
12/8/2020 3:15:00 PM 2.22 35.996 0.136 7.51 5.22 14.24
12/8/2020 3:30:00 PM 2.2 35.96 0.135 7.49 5.21 14.22
12/8/2020 3:45:00 PM 2.18 35.924 0.135 7.51 5.2 14.2
12/8/2020 4:00:00 PM 2.15 35.87 0.135 7.53 5.41 14.15
12/8/2020 4:15:00 PM 2.11 35.798 0.135 7.48 5.23 14.08
12/8/2020 4:30:00 PM 2.08 35.744 0.135 7.5 5.1 13.99
12/8/2020 4:45:00 PM 2.04 35.672 0.135 7.47 5.21 13.9
12/8/2020 5:00:00 PM 2 35.6 0.135 7.47 5.28 13.82
12/8/2020 5:15:00 PM 1.97 35.546 0.135 7.41 5.22 13.74
12/8/2020 5:30:00 PM 1.95 35.51 0.135 7.42 4.71 13.67
12/8/2020 5:45:00 PM 1.92 35.456 0.135 7.4 4.96 13.61
12/8/2020 6:00:00 PM 1.88 35.384 0.135 7.4 4.95 13.55
12/8/2020 6:15:00 PM 1.85 35.33 0.135 7.38 4.89 13.5
12/8/2020 6:30:00 PM 1.81 35.258 0.134 7.41 4.89 13.46
12/8/2020 6:45:00 PM 1.78 35.204 0.135 7.35 4.96 13.42
12/8/2020 7:00:00 PM 1.75 35.15 0.134 7.33 4.77 13.37
12/8/2020 7:15:00 PM 1.71 35.078 0.135 7.37 4.96 13.35
12/8/2020 7:30:00 PM 1.67 35.006 0.135 7.36 4.94 13.32
12/8/2020 7:45:00 PM 1.62 34.916 0.135 7.33 4.78 13.3
12/8/2020 8:00:00 PM 1.57 34.826 0.135 7.34 4.81 13.29
12/8/2020 8:15:00 PM 1.52 34.736 0.135 7.33 5.07 13.27
12/8/2020 8:30:00 PM 1.47 34.646 0.135 7.29 4.81 13.26
12/8/2020 8:45:00 PM 1.42 34.556 0.135 7.32 4.85 13.25
12/8/2020 9:00:00 PM 1.37 34.466 0.135 7.32 4.82 13.24
12/8/2020 9:15:00 PM 1.34 34.412 0.134 7.29 4.78 13.24
12/8/2020 9:30:00 PM 1.32 34.376 0.135 7.32 4.96 13.23
12/8/2020 9:45:00 PM 1.29 34.322 0.134 7.29 4.83 13.22
12/8/2020 10:00:00 PM 1.27 34.286 0.134 7.3 4.97 13.22
12/8/2020 10:15:00 PM 1.25 34.25 0.134 7.3 4.8 13.22
12/8/2020 10:30:00 PM 1.24 34.232 0.134 7.26 4.9 13.22
12/8/2020 10:45:00 PM 1.22 34.196 0.134 7.27 4.98 13.22
12/8/2020 11:00:00 PM 1.2 34.16 0.134 7.27 5.16 13.22
12/8/2020 11:15:00 PM 1.18 34.124 0.134 7.3 4.96 13.22
12/8/2020 11:30:00 PM 1.16 34.088 0.134 7.25 5.12 13.22
12/8/2020 11:45:00 PM 1.15 34.07 0.134 7.26 5.01 13.22
12/9/2020 12:00:00 AM 1.13 34.034 0.134 7.27 4.95 13.22
12/9/2020 12:15:00 AM 1.11 33.998 0.134 7.25 5.19 13.22
12/9/2020 12:30:00 AM 1.1 33.98 0.134 7.28 5.09 13.23
12/9/2020 12:45:00 AM 1.08 33.944 0.134 7.24 5.19 13.24
12/9/2020 1:00:00 AM 1.07 33.926 0.134 7.25 5.55 13.24
12/9/2020 1:15:00 AM 1.06 33.908 0.134 7.29 5.19 13.24
12/9/2020 1:30:00 AM 1.04 33.872 0.134 7.24 5.11 13.24
12/9/2020 1:45:00 AM 1.03 33.854 0.134 7.28 5.45 13.25
12/9/2020 2:00:00 AM 1.03 33.854 0.134 7.26 5.21 13.24
12/9/2020 2:15:00 AM 1.02 33.836 0.134 7.24 5.28 13.24
12/9/2020 2:30:00 AM 1.02 33.836 0.134 7.23 5.35 13.24
12/9/2020 2:45:00 AM 1.02 33.836 0.134 7.26 5.32 13.23
12/9/2020 3:00:00 AM 1.02 33.836 0.133 7.24 5.27 13.24
12/9/2020 3:15:00 AM 1.02 33.836 0.134 7.23 5.35 13.23
12/9/2020 3:30:00 AM 1.03 33.854 0.134 7.25 5.4 13.23
12/9/2020 3:45:00 AM 1.03 33.854 0.133 7.27 5.35 13.22
12/9/2020 4:00:00 AM 1.03 33.854 0.133 7.27 5.39 13.23
12/9/2020 4:15:00 AM 1.04 33.872 0.133 7.28 5.37 13.23
12/9/2020 4:30:00 AM 1.04 33.872 0.133 7.27 5.4 13.22
12/9/2020 4:45:00 AM 1.05 33.89 0.133 7.23 5.41 13.22
12/9/2020 5:00:00 AM 1.06 33.908 0.134 7.21 5.24 13.21
12/9/2020 5:15:00 AM 1.06 33.908 0.133 7.21 5.34 13.21
12/9/2020 5:30:00 AM 1.07 33.926 0.133 7.27 5.17 13.2
12/9/2020 5:45:00 AM 1.07 33.926 0.133 7.24 5.07 13.21
12/9/2020 6:00:00 AM 1.08 33.944 0.133 7.27 5.54 13.2
12/9/2020 6:15:00 AM 1.09 33.962 0.133 7.27 5.09 13.2
12/9/2020 6:30:00 AM 1.08 33.944 0.133 7.24 5.45 13.19
12/9/2020 6:45:00 AM 1.09 33.962 0.133 7.25 5.33 13.19
12/9/2020 7:00:00 AM 1.09 33.962 0.133 7.23 5.38 13.19
12/9/2020 7:15:00 AM 1.1 33.98 0.133 7.26 5.28 13.18
12/9/2020 7:30:00 AM 1.11 33.998 0.133 7.26 5.55 13.18
12/9/2020 7:45:00 AM 1.09 33.962 0.133 7.21 5.52 13.19
12/9/2020 8:00:00 AM 1.06 33.908 0.133 7.21 5.33 13.2
12/9/2020 8:15:00 AM 1.01 33.818 0.133 7.23 5.24 13.22
12/9/2020 8:30:00 AM 0.94 33.692 0.133 7.25 5.52 13.24
12/9/2020 8:45:00 AM 0.9 33.62 0.133 7.28 5.43 13.28
12/9/2020 9:00:00 AM 0.87 33.566 0.132 7.23 5.66 13.34
12/9/2020 9:15:00 AM 0.87 33.566 0.132 7.26 5.49 13.4
12/9/2020 9:30:00 AM 0.86 33.548 0.132 7.28 5.41 13.47
12/9/2020 9:45:00 AM 0.87 33.566 0.132 7.3 5.52 13.53
12/9/2020 10:00:00 AM 0.88 33.584 0.131 7.32 5.41 13.62
12/9/2020 10:15:00 AM 0.91 33.638 0.132 7.32 5.53 13.7
12/9/2020 10:30:00 AM 0.93 33.674 0.131 7.32 5.3 13.77
12/9/2020 10:45:00 AM 0.96 33.728 0.131 7.34 5.4 13.84
12/9/2020 11:00:00 AM 1.01 33.818 0.132 7.33 5.53 13.9
12/9/2020 11:15:00 AM 1.03 33.854 0.131 7.36 5.72 13.96
12/9/2020 11:30:00 AM 1.04 33.872 0.134 7.39 5.8 14.01
12/9/2020 11:45:00 AM 1.06 33.908 0.131 7.4 5.53 14.06
12/9/2020 12:00:00 PM 1.08 33.944 0.131 7.37 5.75 14.11
12/9/2020 12:15:00 PM 1.1 33.98 0.13 7.41 5.7 14.14
12/9/2020 12:30:00 PM 1.12 34.016 0.131 7.44 5.79 14.18
12/9/2020 12:45:00 PM 1.14 34.052 0.131 7.4 5.85 14.19
12/9/2020 1:00:00 PM 1.16 34.088 0.131 7.44 5.46 14.21
12/9/2020 1:15:00 PM 1.19 34.142 0.131 7.46 6.51 14.24
12/9/2020 1:30:00 PM 1.2 34.16 0.132 7.43 5.39 14.27
12/9/2020 1:45:00 PM 1.2 34.16 0.132 7.44 5.23 14.27
12/9/2020 2:00:00 PM 1.21 34.178 0.131 7.48 5.27 14.27
12/9/2020 2:15:00 PM 1.23 34.214 0.132 7.44 5.03 14.27
12/9/2020 2:30:00 PM 1.27 34.286 0.132 7.43 5.22 14.22
12/9/2020 2:45:00 PM 1.29 34.322 0.131 7.47 4.99 14.19
12/9/2020 3:00:00 PM 1.32 34.376 0.132 7.48 5.12 14.17
12/9/2020 3:15:00 PM 1.35 34.43 0.133 7.44 5.14 14.13
12/9/2020 3:30:00 PM 1.37 34.466 0.133 7.42 4.94 14.07
12/9/2020 3:45:00 PM 1.39 34.502 0.133 7.44 5.03 14.03
12/9/2020 4:00:00 PM 1.42 34.556 0.133 7.44 5.09 13.97
12/9/2020 4:15:00 PM 1.44 34.592 0.133 7.43 5.18 13.91
12/9/2020 4:30:00 PM 1.45 34.61 0.132 7.4 5 13.84
12/9/2020 4:45:00 PM 1.47 34.646 0.132 7.42 5.07 13.78
12/9/2020 5:00:00 PM 1.49 34.682 0.134 7.41 5.05 13.7
12/9/2020 5:15:00 PM 1.5 34.7 0.132 7.39 4.93 13.66
12/9/2020 5:30:00 PM 1.52 34.736 0.132 7.39 5.24 13.6
12/9/2020 5:45:00 PM 1.54 34.772 0.133 7.39 5.07 13.54
12/9/2020 6:00:00 PM 1.55 34.79 0.132 7.38 4.91 13.51
12/9/2020 6:15:00 PM 1.56 34.808 0.132 7.37 5.07 13.46
12/9/2020 6:30:00 PM 1.57 34.826 0.131 7.36 4.99 13.43
12/9/2020 6:45:00 PM 1.59 34.862 0.131 7.35 4.79 13.38
12/9/2020 7:00:00 PM 1.6 34.88 0.131 7.34 4.95 13.35
12/9/2020 7:15:00 PM 1.61 34.898 0.131 7.29 5 13.32
12/9/2020 7:30:00 PM 1.63 34.934 0.131 7.3 5.02 13.28
12/9/2020 7:45:00 PM 1.64 34.952 0.131 7.29 4.95 13.25
12/9/2020 8:00:00 PM 1.65 34.97 0.131 7.29 5.02 13.23
12/9/2020 8:15:00 PM 1.66 34.988 0.131 7.33 4.83 13.21
12/9/2020 8:30:00 PM 1.67 35.006 0.13 7.27 4.95 13.19
12/9/2020 8:45:00 PM 1.68 35.024 0.131 7.27 4.89 13.16
12/9/2020 9:00:00 PM 1.68 35.024 0.132 7.26 5.11 13.15
12/9/2020 9:15:00 PM 1.69 35.042 0.132 7.31 5.12 13.13
12/9/2020 9:30:00 PM 1.7 35.06 0.132 7.29 5.09 13.11
12/9/2020 9:45:00 PM 1.71 35.078 0.131 7.3 5.09 13.1
12/9/2020 10:00:00 PM 1.72 35.096 0.131 7.28 5.11 13.08
12/9/2020 10:15:00 PM 1.74 35.132 0.131 7.29 5.08 13.07
12/9/2020 10:30:00 PM 1.75 35.15 0.131 7.29 5.06 13.06
12/9/2020 10:45:00 PM 1.76 35.168 0.132 7.29 5.15 13.05
12/9/2020 11:00:00 PM 1.78 35.204 0.133 7.28 5.27 13.04
12/9/2020 11:15:00 PM 1.79 35.222 0.133 7.29 5.31 13.03
12/9/2020 11:30:00 PM 1.8 35.24 0.133 7.25 5.12 13.02
12/9/2020 11:45:00 PM 1.81 35.258 0.133 7.24 5.27 13.01
12/10/2020 12:00:00 AM 1.82 35.276 0.132 7.23 5.36 13.01
12/10/2020 12:15:00 AM 1.83 35.294 0.132 7.22 5.52 13.01
12/10/2020 12:30:00 AM 1.84 35.312 0.133 7.21 5.48 12.98
12/10/2020 12:45:00 AM 1.84 35.312 0.133 7.23 5.49 12.98
12/10/2020 1:00:00 AM 1.85 35.33 0.134 7.22 5.65 12.98
12/10/2020 1:15:00 AM 1.86 35.348 0.134 7.27 5.46 12.97
12/10/2020 1:30:00 AM 1.86 35.348 0.137 7.26 5.6 12.96
12/10/2020 1:45:00 AM 1.87 35.366 0.136 7.22 5.47 12.96
12/10/2020 2:00:00 AM 1.88 35.384 0.136 7.22 5.34 12.95
12/10/2020 2:15:00 AM 1.89 35.402 0.135 7.24 5.32 12.95
12/10/2020 2:30:00 AM 1.9 35.42 0.134 7.21 5.76 12.96
12/10/2020 2:45:00 AM 1.91 35.438 0.134 7.26 5.68 12.94
12/10/2020 3:00:00 AM 1.92 35.456 0.134 7.27 5.53 12.93
12/10/2020 3:15:00 AM 1.93 35.474 0.133 7.22 5.34 12.94
12/10/2020 3:30:00 AM 1.95 35.51 0.134 7.26 5.49 12.92
12/10/2020 3:45:00 AM 1.96 35.528 0.132 7.26 5.42 12.92
12/10/2020 4:00:00 AM 1.98 35.564 0.132 7.24 5.22 12.92
12/10/2020 4:15:00 AM 1.98 35.564 0.132 7.2 5.5 12.92
12/10/2020 4:30:00 AM 1.99 35.582 0.132 7.26 5.49 12.91
12/10/2020 4:45:00 AM 2.01 35.618 0.131 7.27 5.43 12.91
12/10/2020 5:00:00 AM 2.02 35.636 0.132 7.2 5.55 12.9
12/10/2020 5:15:00 AM 2.02 35.636 0.132 7.27 5.41 12.9
12/10/2020 5:30:00 AM 2.04 35.672 0.132 7.21 5.42 12.9
12/10/2020 5:45:00 AM 2.04 35.672 0.132 7.23 5.33 12.9
12/10/2020 6:00:00 AM 2.05 35.69 0.133 7.22 5.31 12.89
12/10/2020 6:15:00 AM 2.06 35.708 0.135 7.23 5.33 12.89
12/10/2020 6:30:00 AM 2.07 35.726 0.133 7.24 5.25 12.89
12/10/2020 6:45:00 AM 2.08 35.744 0.137 7.26 5.48 12.88
12/10/2020 7:00:00 AM 2.1 35.78 0.138 7.24 5.38 12.88
12/10/2020 7:15:00 AM 2.11 35.798 0.136 7.2 5.52 12.88
12/10/2020 7:30:00 AM 2.12 35.816 0.137 7.25 5.52 12.87
12/10/2020 7:45:00 AM 2.13 35.834 0.136 7.22 5.59 12.88
12/10/2020 8:00:00 AM 2.15 35.87 0.133 7.25 5.43 12.91
12/10/2020 8:15:00 AM 2.16 35.888 0.133 7.25 5.51 12.93
12/10/2020 8:30:00 AM 2.18 35.924 0.133 7.21 5.51 12.97
12/10/2020 8:45:00 AM 2.21 35.978 0.132 7.27 5.42 13.07
12/10/2020 9:00:00 AM 2.25 36.05 0.131 7.24 5.42 13.18
12/10/2020 9:15:00 AM 2.29 36.122 0.131 7.3 5.22 13.25
12/10/2020 9:30:00 AM 2.33 36.194 0.131 7.32 5.34 13.36
12/10/2020 9:45:00 AM 2.37 36.266 0.131 7.28 5.29 13.44
12/10/2020 10:00:00 AM 2.42 36.356 0.131 7.35 5.41 13.52
12/10/2020 10:15:00 AM 2.48 36.464 0.13 7.38 5.35 13.61
12/10/2020 10:30:00 AM 2.53 36.554 0.13 7.37 5.23 13.68
12/10/2020 10:45:00 AM 2.6 36.68 0.13 7.35 5.53 13.76
12/10/2020 11:00:00 AM 2.65 36.77 0.13 7.41 5.53 13.81
12/10/2020 11:15:00 AM 2.73 36.914 0.13 7.38 5.28 13.85
12/10/2020 11:30:00 AM 2.78 37.004 0.129 7.39 5.21 13.92
12/10/2020 11:45:00 AM 2.82 37.076 0.13 7.45 5.4 13.95
12/10/2020 12:00:00 PM 2.86 37.148 0.13 7.42 5.38 13.99
12/10/2020 12:15:00 PM 2.9 37.22 0.13 7.48 5.51 14
12/10/2020 12:30:00 PM 2.95 37.31 0.13 7.44 5.37 14.04
12/10/2020 12:45:00 PM 2.99 37.382 0.13 7.5 5.33 14.06
12/10/2020 1:00:00 PM 3.05 37.49 0.13 7.52 5.39 14.08
12/10/2020 1:15:00 PM 3.1 37.58 0.13 7.49 5.46 14.11
12/10/2020 1:30:00 PM 3.15 37.67 0.13 7.5 5.41 14.12
12/10/2020 1:45:00 PM 3.21 37.778 0.13 7.55 5.46 14.14
12/10/2020 2:00:00 PM 3.26 37.868 0.131 7.56 5.57 14.15
12/10/2020 2:15:00 PM 3.32 37.976 0.13 7.55 5.77 14.17
12/10/2020 2:30:00 PM 3.37 38.066 0.131 7.59 5.61 14.16
12/10/2020 2:45:00 PM 3.41 38.138 0.13 7.54 5.47 14.15
12/10/2020 3:00:00 PM 3.45 38.21 0.13 7.55 5.31 14.12
12/10/2020 3:15:00 PM 3.48 38.264 0.13 7.56 5.13 14.1
12/10/2020 3:30:00 PM 3.52 38.336 0.131 7.61 5.46 14.07
12/10/2020 3:45:00 PM 3.54 38.372 0.131 7.61 5.32 14.01
12/10/2020 4:00:00 PM 3.56 38.408 0.13 7.59 5.4 13.94
12/10/2020 4:15:00 PM 3.57 38.426 0.131 7.6 5.24 13.86
12/10/2020 4:30:00 PM 3.57 38.426 0.131 7.56 5.24 13.77
12/10/2020 4:45:00 PM 3.57 38.426 0.13 7.49 5.46 13.66
12/10/2020 5:00:00 PM 3.55 38.39 0.13 7.51 5.62 13.55
12/10/2020 5:15:00 PM 3.54 38.372 0.131 7.49 5.4 13.47
12/10/2020 5:30:00 PM 3.5 38.3 0.13 7.44 5.29 13.39
12/10/2020 5:45:00 PM 3.47 38.246 0.13 7.44 5.41 13.3
12/10/2020 6:00:00 PM 3.44 38.192 0.13 7.37 5.25 13.24
12/10/2020 6:15:00 PM 3.41 38.138 0.13 7.41 5.29 13.18
12/10/2020 6:30:00 PM 3.38 38.084 0.131 7.39 5.7 13.12
12/10/2020 6:45:00 PM 3.35 38.03 0.131 7.33 6.06 13.07
12/10/2020 7:00:00 PM 3.32 37.976 0.13 7.33 5.45 13.02
12/10/2020 7:15:00 PM 3.3 37.94 0.131 7.35 5.31 12.98
12/10/2020 7:30:00 PM 3.28 37.904 0.131 7.32 5.62 12.94
12/10/2020 7:45:00 PM 3.25 37.85 0.131 7.28 5.59 12.91
12/10/2020 8:00:00 PM 3.22 37.796 0.131 7.28 5.34 12.88
12/10/2020 8:15:00 PM 3.2 37.76 0.131 7.32 5.37 12.86
12/10/2020 8:30:00 PM 3.17 37.706 0.131 7.26 5.51 12.84
12/10/2020 8:45:00 PM 3.13 37.634 0.131 7.29 5.55 12.81
12/10/2020 9:00:00 PM 3.09 37.562 0.131 7.3 5.56 12.79
12/10/2020 9:15:00 PM 3.05 37.49 0.131 7.29 5.64 12.78
12/10/2020 9:30:00 PM 3.01 37.418 0.131 7.28 5.68 12.78
12/10/2020 9:45:00 PM 2.97 37.346 0.131 7.27 5.58 12.77
12/10/2020 10:00:00 PM 2.93 37.274 0.131 7.27 5.7 12.76
12/10/2020 10:15:00 PM 2.88 37.184 0.132 7.21 5.44 12.76
12/10/2020 10:30:00 PM 2.83 37.094 0.132 7.2 5.55 12.76
12/10/2020 10:45:00 PM 2.79 37.022 0.132 7.21 5.6 12.76
12/10/2020 11:00:00 PM 2.75 36.95 0.132 7.23 5.85 12.76
12/10/2020 11:15:00 PM 2.71 36.878 0.132 7.22 5.86 12.77
12/10/2020 11:30:00 PM 2.67 36.806 0.132 7.23 5.81 12.78
12/10/2020 11:45:00 PM 2.65 36.77 0.132 7.22 5.93 12.77
12/11/2020 12:00:00 AM 2.61 36.698 0.133 7.22 5.84 12.78
12/11/2020 12:15:00 AM 2.59 36.662 0.133 7.23 6.01 12.78
12/11/2020 12:30:00 AM 2.56 36.608 0.133 7.19 5.88 12.79
12/11/2020 12:45:00 AM 2.53 36.554 0.133 7.19 6.19 12.79
12/11/2020 1:00:00 AM 2.49 36.482 0.133 7.23 5.7 12.8
12/11/2020 1:15:00 AM 2.46 36.428 0.133 7.19 5.93 12.81
12/11/2020 1:30:00 AM 2.42 36.356 0.133 7.24 6.04 12.81
12/11/2020 1:45:00 AM 2.39 36.302 0.134 7.24 6.32 12.82
12/11/2020 2:00:00 AM 2.34 36.212 0.134 7.19 6.28 12.83
12/11/2020 2:15:00 AM 2.3 36.14 0.134 7.18 6.02 12.83
12/11/2020 2:30:00 AM 2.26 36.068 0.134 7.21 6.25 12.85
12/11/2020 2:45:00 AM 2.22 35.996 0.135 7.24 6.06 12.86
12/11/2020 3:00:00 AM 2.17 35.906 0.135 7.17 6.3 12.87
12/11/2020 3:15:00 AM 2.12 35.816 0.136 7.18 6.08 12.87
12/11/2020 3:30:00 AM 2.08 35.744 0.136 7.23 6.54 12.89
12/11/2020 3:45:00 AM 2.03 35.654 0.136 7.23 6.19 12.9
12/11/2020 4:00:00 AM 1.99 35.582 0.137 7.2 5.78 12.92
12/11/2020 4:15:00 AM 1.94 35.492 0.137 7.17 6.17 12.93
12/11/2020 4:30:00 AM 1.9 35.42 0.137 7.23 6.41 12.94
12/11/2020 4:45:00 AM 1.86 35.348 0.138 7.2 6.39 12.95
12/11/2020 5:00:00 AM 1.81 35.258 0.138 7.22 6.28 12.97
12/11/2020 5:15:00 AM 1.77 35.186 0.138 7.2 6.39 12.98
12/11/2020 5:30:00 AM 1.73 35.114 0.138 7.2 6.28 13
12/11/2020 5:45:00 AM 1.69 35.042 0.139 7.22 6.2 13
12/11/2020 6:00:00 AM 1.64 34.952 0.139 7.18 5.89 13.02
12/11/2020 6:15:00 AM 1.61 34.898 0.139 7.17 6.29 13.04
12/11/2020 6:30:00 AM 1.57 34.826 0.139 7.17 6.44 13.05
12/11/2020 6:45:00 AM 1.53 34.754 0.14 7.22 6.35 13.07
12/11/2020 7:00:00 AM 1.49 34.682 0.139 7.17 6.19 13.09
12/11/2020 7:15:00 AM 1.46 34.628 0.14 7.18 6.52 13.09
12/11/2020 7:30:00 AM 1.43 34.574 0.14 7.22 6.14 13.1
12/11/2020 7:45:00 AM 1.39 34.502 0.14 7.18 6.14 13.14
12/11/2020 8:00:00 AM 1.36 34.448 0.14 7.23 6.07 13.2
12/11/2020 8:15:00 AM 1.33 34.394 0.139 7.21 6.19 13.27
12/11/2020 8:30:00 AM 1.33 34.394 0.139 7.23 6.05 13.36
12/11/2020 8:45:00 AM 1.33 34.394 0.139 7.26 6.27 13.47
12/11/2020 9:00:00 AM 1.34 34.412 0.138 7.24 8.49 13.56
12/11/2020 9:15:00 AM 1.36 34.448 0.138 7.25 7.17 13.66
12/11/2020 9:30:00 AM 1.4 34.52 0.138 7.26 6.52 13.74
12/11/2020 9:45:00 AM 1.44 34.592 0.138 7.28 7.4 13.84
12/11/2020 10:00:00 AM 1.5 34.7 0.138 7.34 6.46 13.9
12/11/2020 10:15:00 AM 1.55 34.79 0.137 7.35 6.28 13.99
12/11/2020 10:30:00 AM 1.63 34.934 0.137 7.37 6.62 14.05
12/11/2020 10:45:00 AM 1.7 35.06 0.137 7.39 6.06 14.11
12/11/2020 11:00:00 AM 1.75 35.15 0.137 7.4 6.18 14.17
12/11/2020 11:15:00 AM 1.82 35.276 0.136 7.42 6.22 14.21
12/11/2020 11:30:00 AM 1.91 35.438 0.136 7.42 6.37 14.25
12/11/2020 11:45:00 AM 2 35.6 0.135 7.44 6.17 14.3
12/11/2020 12:00:00 PM 2.1 35.78 0.135 7.46 5.87 14.34
12/11/2020 12:15:00 PM 2.21 35.978 0.135 7.47 6.17 14.36
12/11/2020 12:30:00 PM 2.3 36.14 0.135 7.45 6.24 14.39
12/11/2020 12:45:00 PM 2.38 36.284 0.135 7.51 6.15 14.4
12/11/2020 1:00:00 PM 2.47 36.446 0.134 7.47 6.02 14.41
12/11/2020 1:15:00 PM 2.56 36.608 0.134 7.49 5.96 14.42
12/11/2020 1:30:00 PM 2.66 36.788 0.134 7.54 5.82 14.42
12/11/2020 1:45:00 PM 2.75 36.95 0.134 7.55 5.77 14.43
12/11/2020 2:00:00 PM 2.82 37.076 0.133 7.56 5.82 14.41
12/11/2020 2:15:00 PM 2.88 37.184 0.133 7.57 5.85 14.39
12/11/2020 2:30:00 PM 2.95 37.31 0.133 7.57 5.81 14.37
12/11/2020 2:45:00 PM 3 37.4 0.133 7.57 5.76 14.33
12/11/2020 3:00:00 PM 3.04 37.472 0.133 7.58 5.43 14.29
12/11/2020 3:15:00 PM 3.08 37.544 0.133 7.53 6.07 14.25
12/11/2020 3:30:00 PM 3.13 37.634 0.133 7.58 6.09 14.22
12/11/2020 3:45:00 PM 3.18 37.724 0.133 7.57 5.39 14.18
12/11/2020 4:00:00 PM 3.23 37.814 0.133 7.56 6.33 14.1
12/11/2020 4:15:00 PM 3.27 37.886 0.133 7.56 5.25 14.01
12/11/2020 4:30:00 PM 3.3 37.94 0.133 7.54 5.8 13.89
12/11/2020 4:45:00 PM 3.33 37.994 0.133 7.5 5.29 13.77
12/11/2020 5:00:00 PM 3.35 38.03 0.133 7.44 5.17 13.66
12/11/2020 5:15:00 PM 3.37 38.066 0.133 7.42 5.57 13.54
12/11/2020 5:30:00 PM 3.38 38.084 0.133 7.44 6.82 13.45
12/11/2020 5:45:00 PM 3.39 38.102 0.134 7.4 6.67 13.36
12/11/2020 6:00:00 PM 3.4 38.12 0.133 7.36 7.05 13.27
12/11/2020 6:15:00 PM 3.39 38.102 0.134 7.35 5.36 13.2
12/11/2020 6:30:00 PM 3.38 38.084 0.133 7.34 5.63 13.13
12/11/2020 6:45:00 PM 3.36 38.048 0.133 7.36 5.66 13.08
12/11/2020 7:00:00 PM 3.34 38.012 0.134 7.35 5.45 13.03
12/11/2020 7:15:00 PM 3.32 37.976 0.133 7.35 5.94 12.99
12/11/2020 7:30:00 PM 3.3 37.94 0.133 7.33 5.58 12.94
12/11/2020 7:45:00 PM 3.27 37.886 0.134 7.26 5.38 12.9
12/11/2020 8:00:00 PM 3.26 37.868 0.133 7.25 6.31 12.87
12/11/2020 8:15:00 PM 3.24 37.832 0.133 7.3 5.78 12.83
12/11/2020 8:30:00 PM 3.23 37.814 0.133 7.25 6.09 12.8
12/11/2020 8:45:00 PM 3.22 37.796 0.133 7.27 6.74 12.77
12/11/2020 9:00:00 PM 3.2 37.76 0.133 7.26 5.93 12.74
12/11/2020 9:15:00 PM 3.18 37.724 0.133 7.27 5.88 12.73
12/11/2020 9:30:00 PM 3.16 37.688 0.132 7.25 5.44 12.72
12/11/2020 9:45:00 PM 3.14 37.652 0.133 7.24 5.55 12.69
12/11/2020 10:00:00 PM 3.12 37.616 0.133 7.23 5.35 12.68
12/11/2020 10:15:00 PM 3.1 37.58 0.133 7.22 5.71 12.68
12/11/2020 10:30:00 PM 3.08 37.544 0.133 7.21 5.59 12.68
12/11/2020 10:45:00 PM 3.06 37.508 0.133 7.21 6.07 12.68
12/11/2020 11:00:00 PM 3.03 37.454 0.133 7.21 6.71 12.67
12/11/2020 11:15:00 PM 3 37.4 0.133 7.22 5.62 12.67
12/11/2020 11:30:00 PM 2.98 37.364 0.133 7.17 5.73 12.67
12/11/2020 11:45:00 PM 2.95 37.31 0.133 7.16 5.45 12.67
12/12/2020 12:00:00 AM 2.93 37.274 0.133 7.16 6.18 12.66
12/12/2020 12:15:00 AM 2.91 37.238 0.134 7.18 7.24 12.67
12/12/2020 12:30:00 AM 2.89 37.202 0.134 7.15 7.35 12.67
12/12/2020 12:45:00 AM 2.86 37.148 0.134 7.21 7.3 12.67
12/12/2020 1:00:00 AM 2.84 37.112 0.134 7.19 5.69 12.68
12/12/2020 1:15:00 AM 2.81 37.058 0.134 7.16 7.36 12.67
12/12/2020 1:30:00 AM 2.78 37.004 0.134 7.2 6.6 12.68
12/12/2020 1:45:00 AM 2.76 36.968 0.134 7.17 6.51 12.68
12/12/2020 2:00:00 AM 2.74 36.932 0.135 7.18 5.53 12.69
12/12/2020 2:15:00 AM 2.71 36.878 0.135 7.18 5.5 12.69
12/12/2020 2:30:00 AM 2.69 36.842 0.135 7.14 7.37 12.69
12/12/2020 2:45:00 AM 2.67 36.806 0.135 7.15 7.7 12.7
12/12/2020 3:00:00 AM 2.65 36.77 0.135 7.21 7.62 12.7
12/12/2020 3:15:00 AM 2.63 36.734 0.135 7.16 5.72 12.7
12/12/2020 3:30:00 AM 2.61 36.698 0.135 7.17 5.68 12.72
12/12/2020 3:45:00 AM 2.58 36.644 0.135 7.2 6.81 12.72
12/12/2020 4:00:00 AM 2.54 36.572 0.135 7.15 6.81 12.72
12/12/2020 4:15:00 AM 2.51 36.518 0.135 7.2 6.84 12.74
12/12/2020 4:30:00 AM 2.49 36.482 0.135 7.14 5.58 12.74
12/12/2020 4:45:00 AM 2.47 36.446 0.135 7.16 5.78 12.74
12/12/2020 5:00:00 AM 2.45 36.41 0.135 7.18 6.33 12.76
12/12/2020 5:15:00 AM 2.42 36.356 0.135 7.17 5.77 12.78
12/12/2020 5:30:00 AM 2.38 36.284 0.135 7.19 7.35 12.79
12/12/2020 5:45:00 AM 2.37 36.266 0.135 7.17 6.71 12.78
12/12/2020 6:00:00 AM 2.34 36.212 0.135 7.18 7.15 12.8
12/12/2020 6:15:00 AM 2.31 36.158 0.135 7.13 7.52 12.8
12/12/2020 6:30:00 AM 2.29 36.122 0.135 7.18 7.48 12.83
12/12/2020 6:45:00 AM 2.28 36.104 0.134 7.16 6.97 12.83
12/12/2020 7:00:00 AM 2.26 36.068 0.134 7.18 6.88 12.84
12/12/2020 7:15:00 AM 2.25 36.05 0.134 7.21 6.29 12.84
12/12/2020 7:30:00 AM 2.24 36.032 0.134 7.2 5.93 12.85
12/12/2020 7:45:00 AM 2.23 36.014 0.134 7.22 5.66 12.86
12/12/2020 8:00:00 AM 2.22 35.996 0.134 7.22 6.01 12.87
12/12/2020 8:15:00 AM 2.22 35.996 0.134 7.19 6.04 12.91
12/12/2020 8:30:00 AM 2.22 35.996 0.134 7.2 5.95 12.95
12/12/2020 8:45:00 AM 2.23 36.014 0.133 7.22 5.84 13
12/12/2020 9:00:00 AM 2.23 36.014 0.133 7.19 5.94 13.07
12/12/2020 9:15:00 AM 2.25 36.05 0.133 7.23 5.93 13.15
12/12/2020 9:30:00 AM 2.27 36.086 0.133 7.2 6.01 13.23
12/12/2020 9:45:00 AM 2.32 36.176 0.133 7.22 5.89 13.34
12/12/2020 10:00:00 AM 2.36 36.248 0.132 7.24 6.02 13.43
12/12/2020 10:15:00 AM 2.4 36.32 0.132 7.3 6.03 13.53
12/12/2020 10:30:00 AM 2.43 36.374 0.132 7.3 5.69 13.59
12/12/2020 10:45:00 AM 2.48 36.464 0.132 7.27 5.89 13.66
12/12/2020 11:00:00 AM 2.53 36.554 0.132 7.28 5.8 13.72
12/12/2020 11:15:00 AM 2.56 36.608 0.131 7.35 5.99 13.78
12/12/2020 11:30:00 AM 2.61 36.698 0.131 7.37 5.81 13.83
12/12/2020 11:45:00 AM 2.66 36.788 0.131 7.37 5.85 13.88
12/12/2020 12:00:00 PM 2.72 36.896 0.131 7.4 5.71 13.92
12/12/2020 12:15:00 PM 2.78 37.004 0.131 7.41 5.84 13.97
12/12/2020 12:30:00 PM 2.84 37.112 0.13 7.39 6.03 14
12/12/2020 12:45:00 PM 2.89 37.202 0.13 7.42 5.86 14.02
12/12/2020 1:00:00 PM 2.94 37.292 0.13 7.41 5.74 14.04
12/12/2020 1:15:00 PM 2.99 37.382 0.13 7.44 5.85 14.05
12/12/2020 1:30:00 PM 3.05 37.49 0.13 7.43 5.74 14.06
12/12/2020 1:45:00 PM 3.11 37.598 0.13 7.5 5.77 14.08
12/12/2020 2:00:00 PM 3.16 37.688 0.129 7.46 5.66 14.07
12/12/2020 2:15:00 PM 3.22 37.796 0.129 7.51 5.67 14.07
12/12/2020 2:30:00 PM 3.28 37.904 0.129 7.53 5.36 14.07
12/12/2020 2:45:00 PM 3.35 38.03 0.129 7.53 5.57 14.06
12/12/2020 3:00:00 PM 3.41 38.138 0.128 7.54 5.47 14.03
12/12/2020 3:15:00 PM 3.47 38.246 0.128 7.51 5.34 14
12/12/2020 3:30:00 PM 3.52 38.336 0.128 7.54 5.14 13.95
12/12/2020 3:45:00 PM 3.56 38.408 0.128 7.54 5.19 13.89
12/12/2020 4:00:00 PM 3.6 38.48 0.128 7.52 5.1 13.82
12/12/2020 4:15:00 PM 3.63 38.534 0.128 7.52 5.38 13.72
12/12/2020 4:30:00 PM 3.67 38.606 0.128 7.5 5.18 13.64
12/12/2020 4:45:00 PM 3.72 38.696 0.128 7.43 5.37 13.52
12/12/2020 5:00:00 PM 3.75 38.75 0.128 7.43 5.43 13.41
12/12/2020 5:15:00 PM 3.78 38.804 0.128 7.38 5.24 13.32
12/12/2020 5:30:00 PM 3.81 38.858 0.128 7.41 5.82 13.21
12/12/2020 5:45:00 PM 3.84 38.912 0.128 7.41 5.95 13.13
12/12/2020 6:00:00 PM 3.87 38.966 0.128 7.4 5.08 13.06
12/12/2020 6:15:00 PM 3.89 39.002 0.128 7.37 5.12 12.98
12/12/2020 6:30:00 PM 3.91 39.038 0.128 7.36 5.7 12.91
12/12/2020 6:45:00 PM 3.93 39.074 0.128 7.36 6.07 12.85
12/12/2020 7:00:00 PM 3.95 39.11 0.128 7.32 5.06 12.8
12/12/2020 7:15:00 PM 3.98 39.164 0.128 7.34 5 12.74
12/12/2020 7:30:00 PM 4.01 39.218 0.128 7.34 5.05 12.69
12/12/2020 7:45:00 PM 4.04 39.272 0.128 7.32 5.03 12.64
12/12/2020 8:00:00 PM 4.06 39.308 0.128 7.29 5.22 12.59
12/12/2020 8:15:00 PM 4.09 39.362 0.128 7.25 5.25 12.54
12/12/2020 8:30:00 PM 4.1 39.38 0.129 7.23 5.24 12.5
12/12/2020 8:45:00 PM 4.11 39.398 0.129 7.28 5.19 12.46
12/12/2020 9:00:00 PM 4.12 39.416 0.129 7.28 4.89 12.43
12/12/2020 9:15:00 PM 4.14 39.452 0.129 7.21 5.13 12.39
12/12/2020 9:30:00 PM 4.16 39.488 0.129 7.2 5.23 12.36
12/12/2020 9:45:00 PM 4.17 39.506 0.129 7.25 5.46 12.34
12/12/2020 10:00:00 PM 4.18 39.524 0.129 7.25 5.09 12.32
12/12/2020 10:15:00 PM 4.19 39.542 0.129 7.23 5.34 12.29
12/12/2020 10:30:00 PM 4.21 39.578 0.129 7.18 6.92 12.27
12/12/2020 10:45:00 PM 4.22 39.596 0.129 7.23 5.42 12.26
12/12/2020 11:00:00 PM 4.23 39.614 0.129 7.23 5.43 12.24
12/12/2020 11:15:00 PM 4.24 39.632 0.129 7.19 5.04 12.21
12/12/2020 11:30:00 PM 4.23 39.614 0.129 7.2 5.01 12.21
12/12/2020 11:45:00 PM 4.23 39.614 0.129 7.22 4.94 12.19
12/13/2020 12:00:00 AM 4.22 39.596 0.129 7.22 5.26 12.18
12/13/2020 12:15:00 AM 4.21 39.578 0.129 7.17 5.5 12.17
12/13/2020 12:30:00 AM 4.2 39.56 0.129 7.21 5.59 12.16
12/13/2020 12:45:00 AM 4.19 39.542 0.13 7.21 5.32 12.14
12/13/2020 1:00:00 AM 4.19 39.542 0.13 7.22 5.56 12.13
12/13/2020 1:15:00 AM 4.18 39.524 0.129 7.15 4.94 12.13
12/13/2020 1:30:00 AM 4.18 39.524 0.129 7.19 5.75 12.12
12/13/2020 1:45:00 AM 4.17 39.506 0.13 7.19 5.55 12.11
12/13/2020 2:00:00 AM 4.16 39.488 0.13 7.19 6.18 12.1
12/13/2020 2:15:00 AM 4.14 39.452 0.129 7.14 5.6 12.11
12/13/2020 2:30:00 AM 4.13 39.434 0.13 7.14 5.56 12.11
12/13/2020 2:45:00 AM 4.13 39.434 0.13 7.19 5.48 12.1
12/13/2020 3:00:00 AM 4.14 39.452 0.13 7.2 6.09 12.1
12/13/2020 3:15:00 AM 4.15 39.47 0.13 7.19 5.19 12.09
12/13/2020 3:30:00 AM 4.15 39.47 0.13 7.2 5.19 12.09
12/13/2020 3:45:00 AM 4.17 39.506 0.13 7.13 5.12 12.09
12/13/2020 4:00:00 AM 4.18 39.524 0.13 7.14 5.25 12.08
12/13/2020 4:15:00 AM 4.2 39.56 0.13 7.19 5.23 12.08
12/13/2020 4:30:00 AM 4.21 39.578 0.13 7.17 5.13 12.07
12/13/2020 4:45:00 AM 4.21 39.578 0.13 7.18 5.23 12.07
12/13/2020 5:00:00 AM 4.2 39.56 0.13 7.17 4.97 12.07
12/13/2020 5:15:00 AM 4.18 39.524 0.13 7.15 5.01 12.08
12/13/2020 5:30:00 AM 4.16 39.488 0.13 7.12 5.76 12.07
12/13/2020 5:45:00 AM 4.15 39.47 0.13 7.13 5.11 12.07
12/13/2020 6:00:00 AM 4.13 39.434 0.13 7.14 5.04 12.08
12/13/2020 6:15:00 AM 4.11 39.398 0.13 7.18 5.07 12.09
12/13/2020 6:30:00 AM 4.1 39.38 0.13 7.12 5.25 12.08
12/13/2020 6:45:00 AM 4.07 39.326 0.13 7.16 5.13 12.08
12/13/2020 7:00:00 AM 4.05 39.29 0.13 7.16 5.04 12.09
12/13/2020 7:15:00 AM 4.04 39.272 0.13 7.1 5.05 12.09
12/13/2020 7:30:00 AM 4.02 39.236 0.13 7.11 5.14 12.1
12/13/2020 7:45:00 AM 4.02 39.236 0.13 7.13 5.14 12.13
12/13/2020 8:00:00 AM 4.02 39.236 0.13 7.15 5.25 12.15
12/13/2020 8:15:00 AM 4.05 39.29 0.13 7.22 5.2 12.2
12/13/2020 8:30:00 AM 4.07 39.326 0.13 7.19 5.27 12.26
12/13/2020 8:45:00 AM 4.08 39.344 0.13 7.22 5.22 12.31
12/13/2020 9:00:00 AM 4.1 39.38 0.13 7.22 5.31 12.35
12/13/2020 9:15:00 AM 4.12 39.416 0.13 7.23 5.28 12.41
12/13/2020 9:30:00 AM 4.14 39.452 0.13 7.25 5.29 12.48
12/13/2020 9:45:00 AM 4.17 39.506 0.13 7.23 5.25 12.57
12/13/2020 10:00:00 AM 4.21 39.578 0.129 7.25 5.26 12.71
12/13/2020 10:15:00 AM 4.25 39.65 0.129 7.24 5.17 12.81
12/13/2020 10:30:00 AM 4.28 39.704 0.13 7.25 5.45 12.85
12/13/2020 10:45:00 AM 4.3 39.74 0.129 7.31 5.29 12.94
12/13/2020 11:00:00 AM 4.31 39.758 0.129 7.29 5.19 12.94
12/13/2020 11:15:00 AM 4.34 39.812 0.129 7.35 5.3 12.98
12/13/2020 11:30:00 AM 4.37 39.866 0.129 7.37 5.04 13.05
12/13/2020 11:45:00 AM 4.4 39.92 0.129 7.37 5.26 13.07
12/13/2020 12:00:00 PM 4.42 39.956 0.129 7.36 5.2 13.07
12/13/2020 12:15:00 PM 4.45 40.01 0.128 7.33 5.36 13.1
12/13/2020 12:30:00 PM 4.48 40.064 0.129 7.38 5.26 13.11
12/13/2020 12:45:00 PM 4.52 40.136 0.128 7.36 5.04 13.14
12/13/2020 1:00:00 PM 4.56 40.208 0.128 7.39 5.3 13.19
12/13/2020 1:15:00 PM 4.6 40.28 0.128 7.43 5.58 13.26
12/13/2020 1:30:00 PM 4.64 40.352 0.128 7.4 6.92 13.27
12/13/2020 1:45:00 PM 4.68 40.424 0.128 7.47 6.81 13.31
12/13/2020 2:00:00 PM 4.71 40.478 0.128 7.46 7.65 13.34
12/13/2020 2:15:00 PM 4.73 40.514 0.128 7.45 7.71 13.34
12/13/2020 2:30:00 PM 4.75 40.55 0.128 7.5 7.38 13.33
12/13/2020 2:45:00 PM 4.77 40.586 0.128 7.46 7.29 13.38
12/13/2020 3:00:00 PM 4.79 40.622 0.128 7.48 7.56 13.38
12/13/2020 3:15:00 PM 4.8 40.64 0.128 7.53 6.18 13.38
12/13/2020 3:30:00 PM 4.81 40.658 0.128 7.51 6.66 13.33
12/13/2020 3:45:00 PM 4.81 40.658 0.128 7.53 7.16 13.28
12/13/2020 4:00:00 PM 4.81 40.658 0.128 7.5 5.16 13.25
12/13/2020 4:15:00 PM 4.81 40.658 0.128 7.47 4.9 13.2
12/13/2020 4:30:00 PM 4.8 40.64 0.128 7.44 4.98 13.13
12/13/2020 4:45:00 PM 4.78 40.604 0.128 7.45 5.02 13.05
12/13/2020 5:00:00 PM 4.76 40.568 0.128 7.44 5.06 12.96
12/13/2020 5:15:00 PM 4.73 40.514 0.128 7.41 4.98 12.87
12/13/2020 5:30:00 PM 4.69 40.442 0.128 7.4 4.91 12.8
12/13/2020 5:45:00 PM 4.66 40.388 0.129 7.4 4.89 12.73
12/13/2020 6:00:00 PM 4.63 40.334 0.128 7.37 5.04 12.67
12/13/2020 6:15:00 PM 4.59 40.262 0.129 7.31 5.02 12.61
12/13/2020 6:30:00 PM 4.57 40.226 0.128 7.3 4.92 12.57
12/13/2020 6:45:00 PM 4.57 40.226 0.129 7.33 5.19 12.51
12/13/2020 7:00:00 PM 4.56 40.208 0.129 7.29 4.95 12.47
12/13/2020 7:15:00 PM 4.55 40.19 0.129 7.26 5.06 12.43
12/13/2020 7:30:00 PM 4.54 40.172 0.129 7.3 5 12.39
12/13/2020 7:45:00 PM 4.54 40.172 0.129 7.25 4.92 12.36
12/13/2020 8:00:00 PM 4.52 40.136 0.129 7.29 5.09 12.33
12/13/2020 8:15:00 PM 4.51 40.118 0.129 7.28 4.9 12.3
12/13/2020 8:30:00 PM 4.5 40.1 0.129 7.27 5.01 12.27
12/13/2020 8:45:00 PM 4.48 40.064 0.129 7.24 5.17 12.25
12/13/2020 9:00:00 PM 4.47 40.046 0.129 7.25 4.99 12.23
12/13/2020 9:15:00 PM 4.45 40.01 0.129 7.25 5.21 12.22
12/13/2020 9:30:00 PM 4.43 39.974 0.129 7.21 5.01 12.19
12/13/2020 9:45:00 PM 4.41 39.938 0.129 7.23 5.05 12.2
12/13/2020 10:00:00 PM 4.39 39.902 0.129 7.22 4.99 12.19
12/13/2020 10:15:00 PM 4.37 39.866 0.129 7.21 4.98 12.17
12/13/2020 10:30:00 PM 4.35 39.83 0.129 7.22 5.07 12.17
12/13/2020 10:45:00 PM 4.34 39.812 0.129 7.22 4.95 12.17
12/13/2020 11:00:00 PM 4.33 39.794 0.129 7.23 5 12.17
12/13/2020 11:15:00 PM 4.31 39.758 0.129 7.18 5.01 12.16
12/13/2020 11:30:00 PM 4.3 39.74 0.129 7.16 5.11 12.16
12/13/2020 11:45:00 PM 4.29 39.722 0.129 7.18 5.16 12.16
12/14/2020 12:00:00 AM 4.27 39.686 0.129 7.22 5.12 12.16
12/14/2020 12:15:00 AM 4.26 39.668 0.129 7.21 5.14 12.15
12/14/2020 12:30:00 AM 4.25 39.65 0.129 7.21 5.03 12.14
12/14/2020 12:45:00 AM 4.23 39.614 0.129 7.22 5.4 12.14
12/14/2020 1:00:00 AM 4.22 39.596 0.129 7.17 5.31 12.14
12/14/2020 1:15:00 AM 4.2 39.56 0.129 7.16 5.19 12.16
12/14/2020 1:30:00 AM 4.19 39.542 0.129 7.15 5.43 12.15
12/14/2020 1:45:00 AM 4.17 39.506 0.129 7.16 5.15 12.15
12/14/2020 2:00:00 AM 4.15 39.47 0.129 7.18 5.21 12.14
12/14/2020 2:15:00 AM 4.13 39.434 0.13 7.2 5.34 12.16
12/14/2020 2:30:00 AM 4.11 39.398 0.129 7.19 5.2 12.14
12/14/2020 2:45:00 AM 4.08 39.344 0.129 7.2 5.21 12.16
12/14/2020 3:00:00 AM 4.07 39.326 0.129 7.19 5.06 12.15
12/14/2020 3:15:00 AM 4.05 39.29 0.129 7.14 5.29 12.15
12/14/2020 3:30:00 AM 4.03 39.254 0.129 7.18 5.2 12.16
12/14/2020 3:45:00 AM 4.02 39.236 0.129 7.19 5.43 12.16
12/14/2020 4:00:00 AM 4 39.2 0.129 7.15 5.4 12.16
12/14/2020 4:15:00 AM 3.99 39.182 0.13 7.17 5.29 12.16
12/14/2020 4:30:00 AM 3.97 39.146 0.13 7.12 5.17 12.17
12/14/2020 4:45:00 AM 3.96 39.128 0.13 7.14 5.37 12.17
12/14/2020 5:00:00 AM 3.95 39.11 0.13 7.2 5.5 12.16
12/14/2020 5:15:00 AM 3.93 39.074 0.13 7.18 5.37 12.17
12/14/2020 5:30:00 AM 3.91 39.038 0.13 7.19 5.31 12.18
12/14/2020 5:45:00 AM 3.89 39.002 0.129 7.17 5.53 12.18
12/14/2020 6:00:00 AM 3.88 38.984 0.13 7.18 5.47 12.18
12/14/2020 6:15:00 AM 3.87 38.966 0.13 7.18 5.39 12.18
12/14/2020 6:30:00 AM 3.85 38.93 0.13 7.17 5.34 12.2
12/14/2020 6:45:00 AM 3.84 38.912 0.13 7.16 5.5 12.19
12/14/2020 7:00:00 AM 3.82 38.876 0.129 7.16 5.64 12.2
12/14/2020 7:15:00 AM 3.79 38.822 0.13 7.18 5.52 12.21
12/14/2020 7:30:00 AM 3.76 38.768 0.129 7.11 5.73 12.21
12/14/2020 7:45:00 AM 3.74 38.732 0.129 7.19 5.22 12.21
12/14/2020 8:00:00 AM 3.72 38.696 0.13 7.2 5.34 12.24
12/14/2020 8:15:00 AM 3.71 38.678 0.13 7.2 5.37 12.26
12/14/2020 8:30:00 AM 3.69 38.642 0.13 7.2 5.44 12.3
12/14/2020 8:45:00 AM 3.67 38.606 0.13 7.15 5.47 12.34
12/14/2020 9:00:00 AM 3.64 38.552 0.13 7.2 5.26 12.41
12/14/2020 9:15:00 AM 3.61 38.498 0.129 7.2 5.39 12.51
12/14/2020 9:30:00 AM 3.61 38.498 0.13 7.19 5.36 12.63
12/14/2020 9:45:00 AM 3.62 38.516 0.13 7.18 5.16 12.7
12/14/2020 10:00:00 AM 3.62 38.516 0.129 7.26 5.35 12.81
12/14/2020 10:15:00 AM 3.62 38.516 0.129 7.25 5.34 12.89
12/14/2020 10:30:00 AM 3.63 38.534 0.129 7.3 5.4 12.99
12/14/2020 10:45:00 AM 3.65 38.57 0.129 7.27 5.31 13.09
12/14/2020 11:00:00 AM 3.67 38.606 0.129 7.35 5.38 13.17
12/14/2020 11:15:00 AM 3.68 38.624 0.129 7.31 5.48 13.23
12/14/2020 11:30:00 AM 3.69 38.642 0.13 7.37 5.35 13.26
12/14/2020 11:45:00 AM 3.69 38.642 0.129 7.4 5.34 13.31
12/14/2020 12:00:00 PM 3.7 38.66 0.129 7.41 5.4 13.34
12/14/2020 12:15:00 PM 3.71 38.678 0.129 7.37 5.49 13.38
12/14/2020 12:30:00 PM 3.71 38.678 0.129 7.37 5.32 13.41
12/14/2020 12:45:00 PM 3.72 38.696 0.129 7.39 5.39 13.4
12/14/2020 1:00:00 PM 3.73 38.714 0.129 7.4 5.3 13.43
12/14/2020 1:15:00 PM 3.75 38.75 0.129 7.42 5.48 13.49
12/14/2020 1:30:00 PM 3.77 38.786 0.129 7.45 5.37 13.54
12/14/2020 1:45:00 PM 3.78 38.804 0.128 7.44 5.56 13.58
12/14/2020 2:00:00 PM 3.8 38.84 0.129 7.49 5.63 13.6
12/14/2020 2:15:00 PM 3.83 38.894 0.128 7.51 5.58 13.63
12/14/2020 2:30:00 PM 3.86 38.948 0.128 7.5 5.28 13.65
12/14/2020 2:45:00 PM 3.87 38.966 0.128 7.5 5.17 13.67
12/14/2020 3:00:00 PM 3.88 38.984 0.129 7.52 5.12 13.66
12/14/2020 3:15:00 PM 3.89 39.002 0.128 7.53 5.69 13.63
12/14/2020 3:30:00 PM 3.89 39.002 0.128 7.55 5.09 13.61
12/14/2020 3:45:00 PM 3.89 39.002 0.128 7.52 5.14 13.56
12/14/2020 4:00:00 PM 3.89 39.002 0.129 7.51 5.22 13.48
12/14/2020 4:15:00 PM 3.89 39.002 0.129 7.51 5.18 13.41
12/14/2020 4:30:00 PM 3.88 38.984 0.129 7.49 5.19 13.35
12/14/2020 4:45:00 PM 3.87 38.966 0.129 7.48 4.89 13.25
12/14/2020 5:00:00 PM 3.85 38.93 0.129 7.43 4.95 13.16
12/14/2020 5:15:00 PM 3.84 38.912 0.129 7.41 6.09 13.08
12/14/2020 5:30:00 PM 3.81 38.858 0.129 7.41 5.03 13.02
12/14/2020 5:45:00 PM 3.79 38.822 0.129 7.39 4.93 12.95
12/14/2020 6:00:00 PM 3.77 38.786 0.129 7.37 5.04 12.89
12/14/2020 6:15:00 PM 3.75 38.75 0.129 7.36 4.95 12.84
12/14/2020 6:30:00 PM 3.73 38.714 0.129 7.35 5.19 12.79
12/14/2020 6:45:00 PM 3.71 38.678 0.13 7.31 5.04 12.75
12/14/2020 7:00:00 PM 3.68 38.624 0.13 7.31 4.99 12.72
12/14/2020 7:15:00 PM 3.64 38.552 0.13 7.32 5 12.69
12/14/2020 7:30:00 PM 3.6 38.48 0.13 7.32 4.94 12.65
12/14/2020 7:45:00 PM 3.56 38.408 0.13 7.3 4.99 12.63
12/14/2020 8:00:00 PM 3.52 38.336 0.13 7.26 4.87 12.61
12/14/2020 8:15:00 PM 3.48 38.264 0.13 7.31 5.05 12.59
12/14/2020 8:30:00 PM 3.43 38.174 0.13 7.29 4.99 12.57
12/14/2020 8:45:00 PM 3.38 38.084 0.13 7.24 5 12.56
12/14/2020 9:00:00 PM 3.32 37.976 0.13 7.24 4.92 12.54
12/14/2020 9:15:00 PM 3.26 37.868 0.13 7.23 4.94 12.53
12/14/2020 9:30:00 PM 3.21 37.778 0.131 7.23 4.97 12.54
12/14/2020 9:45:00 PM 3.16 37.688 0.13 7.26 4.89 12.53
12/14/2020 10:00:00 PM 3.1 37.58 0.131 7.2 4.97 12.53
12/14/2020 10:15:00 PM 3.04 37.472 0.131 7.2 4.98 12.55
12/14/2020 10:30:00 PM 2.99 37.382 0.131 7.23 4.94 12.55
12/14/2020 10:45:00 PM 2.94 37.292 0.131 7.24 4.88 12.56
12/14/2020 11:00:00 PM 2.89 37.202 0.131 7.24 4.91 12.56
12/14/2020 11:15:00 PM 2.84 37.112 0.131 7.24 5 12.57
12/14/2020 11:30:00 PM 2.78 37.004 0.131 7.26 5.01 12.59
12/14/2020 11:45:00 PM 2.73 36.914 0.131 7.24 5.13 12.59
12/15/2020 12:00:00 AM 2.67 36.806 0.131 7.24 4.9 12.61
12/15/2020 12:15:00 AM 2.62 36.716 0.131 7.2 5.07 12.62
12/15/2020 12:30:00 AM 2.56 36.608 0.131 7.24 5.11 12.65
12/15/2020 12:45:00 AM 2.51 36.518 0.132 7.24 5.02 12.67
12/15/2020 1:00:00 AM 2.45 36.41 0.131 7.2 5.01 12.67
12/15/2020 1:15:00 AM 2.4 36.32 0.132 7.24 5.25 12.69
12/15/2020 1:30:00 AM 2.35 36.23 0.132 7.23 5.29 12.7
12/15/2020 1:45:00 AM 2.29 36.122 0.132 7.2 5.28 12.74
12/15/2020 2:00:00 AM 2.24 36.032 0.132 7.18 5.52 12.74
12/15/2020 2:15:00 AM 2.19 35.942 0.132 7.23 5.29 12.76
12/15/2020 2:30:00 AM 2.14 35.852 0.132 7.19 5.36 12.79
12/15/2020 2:45:00 AM 2.1 35.78 0.132 7.18 5.46 12.8
12/15/2020 3:00:00 AM 2.07 35.726 0.132 7.24 5.56 12.82
12/15/2020 3:15:00 AM 2.05 35.69 0.132 7.23 5.54 12.82
12/15/2020 3:30:00 AM 2.03 35.654 0.132 7.23 5.6 12.85
12/15/2020 3:45:00 AM 2 35.6 0.132 7.2 5.75 12.87
12/15/2020 4:00:00 AM 1.97 35.546 0.132 7.25 5.82 12.89
12/15/2020 4:15:00 AM 1.94 35.492 0.132 7.21 5.82 12.89
12/15/2020 4:30:00 AM 1.92 35.456 0.132 7.25 6.38 12.91
12/15/2020 4:45:00 AM 1.89 35.402 0.132 7.19 6.42 12.92
12/15/2020 5:00:00 AM 1.85 35.33 0.133 7.24 6.57 12.94
12/15/2020 5:15:00 AM 1.83 35.294 0.133 7.19 6.93 12.94
12/15/2020 5:30:00 AM 1.8 35.24 0.132 7.19 6.93 12.97
12/15/2020 5:45:00 AM 1.78 35.204 0.133 7.2 7.19 12.96
12/15/2020 6:00:00 AM 1.76 35.168 0.133 7.18 6.58 12.99
12/15/2020 6:15:00 AM 1.74 35.132 0.133 7.19 6.73 13
12/15/2020 6:30:00 AM 1.72 35.096 0.133 7.19 6.83 13.01
12/15/2020 6:45:00 AM 1.71 35.078 0.133 7.22 6.91 13.01
12/15/2020 7:00:00 AM 1.69 35.042 0.133 7.25 7.05 13.02
12/15/2020 7:15:00 AM 1.68 35.024 0.133 7.21 7.13 13.04
12/15/2020 7:30:00 AM 1.66 34.988 0.133 7.2 7.43 13.05
12/15/2020 7:45:00 AM 1.65 34.97 0.133 7.23 7.51 13.06
12/15/2020 8:00:00 AM 1.65 34.97 0.133 7.22 7.73 13.08
12/15/2020 8:15:00 AM 1.63 34.934 0.133 7.24 7.38 13.15
12/15/2020 8:30:00 AM 1.63 34.934 0.133 7.26 7.59 13.22
12/15/2020 8:45:00 AM 1.63 34.934 0.133 7.26 7.32 13.3
12/15/2020 9:00:00 AM 1.64 34.952 0.133 7.24 7.63 13.41
12/15/2020 9:15:00 AM 1.64 34.952 0.133 7.27 7.63 13.52
12/15/2020 9:30:00 AM 1.63 34.934 0.133 7.3 7.31 13.58
12/15/2020 9:45:00 AM 1.63 34.934 0.134 7.28 7.13 13.66
12/15/2020 10:00:00 AM 1.65 34.97 0.134 7.3 7.58 13.77
12/15/2020 10:15:00 AM 1.69 35.042 0.134 7.37 7.49 13.88
12/15/2020 10:30:00 AM 1.73 35.114 0.134 7.34 7.21 13.97
12/15/2020 10:45:00 AM 1.79 35.222 0.135 7.39 7.28 14.05
12/15/2020 11:00:00 AM 1.84 35.312 0.134 7.43 7.05 14.13
12/15/2020 11:15:00 AM 1.87 35.366 0.134 7.41 7.05 14.21
12/15/2020 11:30:00 AM 1.9 35.42 0.133 7.45 6.71 14.28
12/15/2020 11:45:00 AM 1.92 35.456 0.133 7.48 6.79 14.34
12/15/2020 12:00:00 PM 1.96 35.528 0.132 7.51 7.07 14.4
12/15/2020 12:15:00 PM 2 35.6 0.133 7.52 7.08 14.44
12/15/2020 12:30:00 PM 2.01 35.618 0.132 7.54 6.77 14.48
12/15/2020 12:45:00 PM 2.06 35.708 0.132 7.54 6.61 14.52
12/15/2020 1:00:00 PM 2.09 35.762 0.132 7.58 6.32 14.57
12/15/2020 1:15:00 PM 2.12 35.816 0.132 7.56 6.27 14.61
12/15/2020 1:30:00 PM 2.13 35.834 0.132 7.56 6.43 14.62
12/15/2020 1:45:00 PM 2.14 35.852 0.132 7.62 6.57 14.64
12/15/2020 2:00:00 PM 2.14 35.852 0.132 7.61 6.29 14.66
12/15/2020 2:15:00 PM 2.14 35.852 0.132 7.65 6.2 14.68
12/15/2020 2:30:00 PM 2.14 35.852 0.132 7.66 6.34 14.67
12/15/2020 2:45:00 PM 2.14 35.852 0.132 7.65 6.03 14.67
12/15/2020 3:00:00 PM 2.15 35.87 0.132 7.62 6.12 14.69
12/15/2020 3:15:00 PM 2.13 35.834 0.132 7.63 6.1 14.69
12/15/2020 3:30:00 PM 2.12 35.816 0.132 7.66 6.22 14.67
12/15/2020 3:45:00 PM 2.1 35.78 0.132 7.67 6.16 14.66
12/15/2020 4:00:00 PM 2.09 35.762 0.132 7.63 6.1 14.64
12/15/2020 4:15:00 PM 2.08 35.744 0.132 7.64 6.13 14.55
12/15/2020 4:30:00 PM 2.04 35.672 0.132 7.64 5.9 14.45
12/15/2020 4:45:00 PM 2.02 35.636 0.132 7.57 6.15 14.36
12/15/2020 5:00:00 PM 2 35.6 0.132 7.56 5.97 14.26
12/15/2020 5:15:00 PM 1.97 35.546 0.133 7.56 5.94 14.17
12/15/2020 5:30:00 PM 1.94 35.492 0.133 7.55 5.66 14.09
12/15/2020 5:45:00 PM 1.89 35.402 0.133 7.49 5.74 14.01
12/15/2020 6:00:00 PM 1.86 35.348 0.133 7.51 5.61 13.93
12/15/2020 6:15:00 PM 1.83 35.294 0.133 7.44 5.64 13.88
12/15/2020 6:30:00 PM 1.79 35.222 0.133 7.44 5.62 13.82
12/15/2020 6:45:00 PM 1.75 35.15 0.134 7.44 5.44 13.77
12/15/2020 7:00:00 PM 1.71 35.078 0.134 7.39 5.41 13.73
12/15/2020 7:15:00 PM 1.67 35.006 0.134 7.43 5.41 13.69
12/15/2020 7:30:00 PM 1.63 34.934 0.134 7.41 5.38 13.66
12/15/2020 7:45:00 PM 1.59 34.862 0.134 7.36 5.3 13.63
12/15/2020 8:00:00 PM 1.55 34.79 0.134 7.4 5.25 13.6
12/15/2020 8:15:00 PM 1.51 34.718 0.135 7.34 5.21 13.58
12/15/2020 8:30:00 PM 1.47 34.646 0.135 7.34 5.35 13.56
12/15/2020 8:45:00 PM 1.42 34.556 0.135 7.34 5.26 13.54
12/15/2020 9:00:00 PM 1.38 34.484 0.135 7.33 5.14 13.52
12/15/2020 9:15:00 PM 1.33 34.394 0.135 7.37 5.06 13.5
12/15/2020 9:30:00 PM 1.29 34.322 0.135 7.34 5.28 13.49
12/15/2020 9:45:00 PM 1.25 34.25 0.135 7.35 5.16 13.48
12/15/2020 10:00:00 PM 1.2 34.16 0.135 7.32 5.12 13.47
12/15/2020 10:15:00 PM 1.15 34.07 0.136 7.3 5.12 13.47
12/15/2020 10:30:00 PM 1.11 33.998 0.136 7.29 5.33 13.46
12/15/2020 10:45:00 PM 1.08 33.944 0.136 7.33 5.11 13.46
12/15/2020 11:00:00 PM 1.03 33.854 0.136 7.3 5.23 13.46
12/15/2020 11:15:00 PM 1 33.8 0.136 7.29 5.25 13.46
12/15/2020 11:30:00 PM 0.96 33.728 0.136 7.32 5.22 13.46
12/15/2020 11:45:00 PM 0.93 33.674 0.137 7.27 5.18 13.47
12/16/2020 12:00:00 AM 0.89 33.602 0.137 7.33 5.32 13.48
12/16/2020 12:15:00 AM 0.86 33.548 0.137 7.33 5.58 13.48
12/16/2020 12:30:00 AM 0.81 33.458 0.137 7.28 5.35 13.5
12/16/2020 12:45:00 AM 0.77 33.386 0.137 7.3 5.39 13.49
12/16/2020 1:00:00 AM 0.74 33.332 0.137 7.32 5.52 13.51
12/16/2020 1:15:00 AM 0.7 33.26 0.137 7.3 5.47 13.51
12/16/2020 1:30:00 AM 0.66 33.188 0.137 7.31 5.57 13.52
12/16/2020 1:45:00 AM 0.63 33.134 0.138 7.26 5.58 13.53
12/16/2020 2:00:00 AM 0.59 33.062 0.138 7.31 5.37 13.55
12/16/2020 2:15:00 AM 0.55 32.99 0.138 7.32 5.54 13.56
12/16/2020 2:30:00 AM 0.51 32.918 0.138 7.27 5.38 13.57
12/16/2020 2:45:00 AM 0.46 32.828 0.138 7.31 5.54 13.57
12/16/2020 3:00:00 AM 0.42 32.756 0.138 7.31 5.46 13.58
12/16/2020 3:15:00 AM 0.37 32.666 0.139 7.31 5.81 13.61
12/16/2020 3:30:00 AM 0.34 32.612 0.139 7.27 6.4 13.6
12/16/2020 3:45:00 AM 0.3 32.54 0.139 7.25 6.15 13.63
12/16/2020 4:00:00 AM 0.27 32.486 0.139 7.26 6.64 13.64
12/16/2020 4:15:00 AM 0.24 32.432 0.139 7.26 5.97 13.66
12/16/2020 4:30:00 AM 0.21 32.378 0.139 7.26 5.87 13.68
12/16/2020 4:45:00 AM 0.18 32.324 0.139 7.31 5.88 13.68
12/16/2020 5:00:00 AM 0.15 32.27 0.14 7.31 6.43 13.68
12/16/2020 5:15:00 AM 0.11 32.198 0.14 7.31 6.25 13.7
12/16/2020 5:30:00 AM 0.07 32.126 0.14 7.31 6.76 13.72
12/16/2020 5:45:00 AM 0.04 32.072 0.14 7.27 6.43 13.73
12/16/2020 6:00:00 AM 0.02 32.036 0.14 7.3 6.11 13.73
12/16/2020 6:15:00 AM 0 32 0.14 7.26 6.15 13.75
12/16/2020 6:30:00 AM -0.01 31.982 0.141 7.27 6.15 13.76
12/16/2020 6:45:00 AM -0.02 31.964 0.141 7.31 6.46 13.77
12/16/2020 7:00:00 AM -0.02 31.964 0.141 7.3 6.78 13.77
12/16/2020 7:15:00 AM -0.02 31.964 0.141 7.25 6.73 13.77
12/16/2020 7:30:00 AM -0.02 31.964 0.141 7.25 6.78 13.79
12/16/2020 7:45:00 AM -0.02 31.964 0.142 7.27 6.55 13.8
12/16/2020 8:00:00 AM -0.02 31.964 0.142 7.29 6.57 13.82
12/16/2020 8:15:00 AM -0.01 31.982 0.142 7.29 6.7 13.83
12/16/2020 8:30:00 AM -0.01 31.982 0.142 7.25 6.99 13.9
12/16/2020 8:45:00 AM 0 32 0.142 7.26 6.73 13.95
12/16/2020 9:00:00 AM 0.01 32.018 0.143 7.28 6.39 14.01
12/16/2020 9:15:00 AM 0.02 32.036 0.143 7.33 6.73 14.1
12/16/2020 9:30:00 AM 0.03 32.054 0.143 7.34 6.47 14.19
12/16/2020 9:45:00 AM 0.06 32.108 0.143 7.33 7.04 14.28
12/16/2020 10:00:00 AM 0.11 32.198 0.144 7.35 7.23 14.36
12/16/2020 10:15:00 AM 0.16 32.288 0.144 7.4 6.62 14.45
12/16/2020 10:30:00 AM 0.21 32.378 0.144 7.41 7.14 14.54
12/16/2020 10:45:00 AM 0.24 32.432 0.143 7.39 7.01 14.6
12/16/2020 11:00:00 AM 0.29 32.522 0.143 7.41 6.93 14.68
12/16/2020 11:15:00 AM 0.35 32.63 0.143 7.46 6.68 14.74
12/16/2020 11:30:00 AM 0.39 32.702 0.143 7.47 6.62 14.79
12/16/2020 11:45:00 AM 0.43 32.774 0.143 7.49 6.6 14.83
12/16/2020 12:00:00 PM 0.45 32.81 0.143 7.49 6.76 14.85
12/16/2020 12:15:00 PM 0.45 32.81 0.143 7.51 6.6 14.87
12/16/2020 12:30:00 PM 0.46 32.828 0.143 7.48 6.73 14.85
12/16/2020 12:45:00 PM 0.46 32.828 0.143 7.52 6.64 14.85
12/16/2020 1:00:00 PM 0.46 32.828 0.143 7.51 6.4 14.83
12/16/2020 1:15:00 PM 0.45 32.81 0.142 7.5 7.16 14.84
12/16/2020 1:30:00 PM 0.45 32.81 0.142 7.52 6.56 14.84
12/16/2020 1:45:00 PM 0.44 32.792 0.142 7.5 6.8 14.85
12/16/2020 2:00:00 PM 0.44 32.792 0.142 7.53 6.32 14.85
12/16/2020 2:15:00 PM 0.42 32.756 0.141 7.49 6.78 14.85
12/16/2020 2:30:00 PM 0.39 32.702 0.141 7.53 6.58 14.84
12/16/2020 2:45:00 PM 0.36 32.648 0.141 7.49 6.11 14.83
12/16/2020 3:00:00 PM 0.33 32.594 0.141 7.51 6.55 14.79
12/16/2020 3:15:00 PM 0.3 32.54 0.141 7.52 6.65 14.76
12/16/2020 3:30:00 PM 0.27 32.486 0.142 7.52 6.66 14.72
12/16/2020 3:45:00 PM 0.24 32.432 0.141 7.48 6.51 14.67
12/16/2020 4:00:00 PM 0.22 32.396 0.141 7.51 6.36 14.61
12/16/2020 4:15:00 PM 0.2 32.36 0.142 7.46 6.14 14.57
12/16/2020 4:30:00 PM 0.18 32.324 0.141 7.49 6.26 14.5
12/16/2020 4:45:00 PM 0.17 32.306 0.142 7.48 6.28 14.44
12/16/2020 5:00:00 PM 0.16 32.288 0.142 7.47 5.92 14.37
12/16/2020 5:15:00 PM 0.12 32.216 0.141 7.45 6.17 14.31
12/16/2020 5:30:00 PM 0.06 32.108 0.141 7.44 5.93 14.27
12/16/2020 5:45:00 PM 0.04 32.072 0.142 7.4 6.23 14.24
12/16/2020 6:00:00 PM 0.02 32.036 0.142 7.37 6.15 14.19
12/16/2020 6:15:00 PM 0.01 32.018 0.142 7.33 6.13 14.1
12/16/2020 6:30:00 PM 0.01 32.018 0.142 7.34 6.05 14.05
12/16/2020 6:45:00 PM 0 32 0.142 7.33 6.5 14.03
12/16/2020 7:00:00 PM 0.01 32.018 0.144 7.34 8.65 13.93
12/16/2020 7:15:00 PM 0.01 32.018 0.143 7.29 8.15 13.91
12/16/2020 7:30:00 PM 0.01 32.018 0.144 7.27 13.14 13.85
12/16/2020 7:45:00 PM 0.03 32.054 0.144 7.31 8.64 13.84
12/16/2020 8:00:00 PM 0 32 0.143 7.3 10.21 13.86
12/16/2020 8:15:00 PM 0.01 32.018 0.143 7.32 10.89 13.82
12/16/2020 8:30:00 PM 0.01 32.018 0.143 7.29 11.45 13.8
12/16/2020 8:45:00 PM 0.02 32.036 0.144 7.26 11.39 13.78
12/16/2020 9:00:00 PM 0.05 32.09 0.147 7.25 11.38 13.67
12/16/2020 9:15:00 PM 0.03 32.054 0.147 7.25 13.06 13.69
12/16/2020 9:30:00 PM 0.04 32.072 0.147 7.28 11.28 13.66
12/16/2020 9:45:00 PM 0.01 32.018 0.145 7.29 9.18 13.7
12/16/2020 10:00:00 PM 0 32 0.144 7.25 10.11 13.7
12/16/2020 10:15:00 PM 0.01 32.018 0.144 7.25 9.62 13.66
12/16/2020 10:30:00 PM 0.02 32.036 0.145 7.23 10 13.64
12/16/2020 10:45:00 PM 0.03 32.054 0.146 7.26 11.82 13.6
12/16/2020 11:00:00 PM 0.03 32.054 0.146 7.25 9.85 13.57
12/16/2020 11:15:00 PM 0.03 32.054 0.146 7.22 9.93 13.54
12/16/2020 11:30:00 PM 0.01 32.018 0.145 7.21 9.29 13.57
12/16/2020 11:45:00 PM 0.04 32.072 0.146 7.2 9.41 13.51
12/17/2020 12:00:00 AM 0.11 32.198 0.149 7.14 9.44 13.34
12/17/2020 12:15:00 AM 0.28 32.504 0.154 7.09 7.39 12.96
12/17/2020 12:30:00 AM 0.19 32.342 0.152 7.09 8.03 13.11
12/17/2020 12:45:00 AM 0 32 0.146 7.2 12.48 13.54
12/17/2020 1:00:00 AM 0.03 32.054 0.147 7.21 11.64 13.46
12/17/2020 1:15:00 AM 0.05 32.09 0.148 7.15 12.43 13.35
12/17/2020 1:30:00 AM 0.06 32.108 0.148 7.16 10.38 13.27
12/17/2020 1:45:00 AM 0.12 32.216 0.151 7.07 10.56 13.05
12/17/2020 2:00:00 AM 0.16 32.288 0.157 7.05 9.6 13.05
12/17/2020 2:15:00 AM 0.07 32.126 0.151 7.12 10.42 13.15
12/17/2020 2:30:00 AM 0.07 32.126 0.152 7.1 9.06 13.15
12/17/2020 2:45:00 AM 0.08 32.144 0.153 7.13 9.69 13.09
12/17/2020 3:00:00 AM 0.08 32.144 0.153 7.14 8.64 13.05
12/17/2020 3:15:00 AM 0.08 32.144 0.154 7.12 8.43 13.03
12/17/2020 3:30:00 AM 0.1 32.18 0.155 7.13 8.73 12.98
12/17/2020 3:45:00 AM 0.11 32.198 0.155 7.08 7.71 12.94
12/17/2020 4:00:00 AM 0.13 32.234 0.156 7.12 7.97 12.97
12/17/2020 4:15:00 AM 0.14 32.252 0.156 7.08 7.64 12.87
12/17/2020 4:30:00 AM 0.13 32.234 0.157 7.11 7.36 12.87
12/17/2020 4:45:00 AM 0.14 32.252 0.157 7.06 7.37 12.78
12/17/2020 5:00:00 AM 0.14 32.252 0.156 7.08 7.09 12.74
12/17/2020 5:15:00 AM 0.14 32.252 0.156 7.08 6.72 12.74
12/17/2020 5:30:00 AM 0.15 32.27 0.156 7.11 6.87 12.68
12/17/2020 5:45:00 AM 0.15 32.27 0.156 7.1 6.75 12.66
12/17/2020 6:00:00 AM 0.14 32.252 0.156 7.1 6.71 12.62
12/17/2020 6:15:00 AM 0.14 32.252 0.157 7.1 6.52 12.56
12/17/2020 6:30:00 AM 0.12 32.216 0.157 7.09 6.62 12.54
12/17/2020 6:45:00 AM 0.12 32.216 0.157 7.09 6.61 12.49
12/17/2020 7:00:00 AM 0.13 32.234 0.157 7.07 6.62 12.44
12/17/2020 7:15:00 AM 0.12 32.216 0.157 7.04 6.5 12.4
12/17/2020 7:30:00 AM 0.12 32.216 0.158 7.04 6.35 12.34
12/17/2020 7:45:00 AM 0.13 32.234 0.158 7.07 6.54 12.27
12/17/2020 8:00:00 AM 0.13 32.234 0.158 7.07 6.71 12.19
12/17/2020 8:15:00 AM 0.12 32.216 0.159 7.04 8.1 12.16
12/17/2020 8:30:00 AM 0.12 32.216 0.159 7.01 6.23 12.07
12/17/2020 8:45:00 AM 0.18 32.324 0.162 7.02 7.27 11.94
12/17/2020 9:00:00 AM 0.23 32.414 0.163 6.99 6.72 11.86
12/17/2020 9:15:00 AM 0.24 32.432 0.164 6.95 6.22 11.8
12/17/2020 9:30:00 AM 0.28 32.504 0.164 6.95 6.23 11.77
12/17/2020 9:45:00 AM 0.32 32.576 0.165 6.96 6.96 11.77
12/17/2020 10:00:00 AM 0.33 32.594 0.164 6.93 6.25 11.81
12/17/2020 10:15:00 AM 0.26 32.468 0.162 6.96 6.31 12
12/17/2020 10:30:00 AM 0.3 32.54 0.163 6.96 6.64 12
12/17/2020 10:45:00 AM 0.29 32.522 0.162 6.98 7.21 12.03
12/17/2020 11:00:00 AM 0.32 32.576 0.164 6.96 5.86 11.87
12/17/2020 11:15:00 AM 0.25 32.45 0.159 7 6.6 12.26
12/17/2020 11:30:00 AM 0.18 32.324 0.157 7.04 6.34 12.63
12/17/2020 11:45:00 AM 0.16 32.288 0.157 7.07 6.85 12.72
12/17/2020 12:00:00 PM 0.1 32.18 0.155 7.08 6.54 12.8
12/17/2020 12:15:00 PM 0.06 32.108 0.153 7.12 5.95 12.87
12/17/2020 12:30:00 PM 0.02 32.036 0.154 7.1 6.1 13.16
12/17/2020 12:45:00 PM 0.01 32.018 0.154 7.15 6.14 13.23
12/17/2020 1:00:00 PM 0.48 32.864 0.17 7.04 6.48 12.64
12/17/2020 1:15:00 PM 0.66 33.188 0.178 6.93 6.06 12.21
12/17/2020 1:30:00 PM 0.73 33.314 0.178 6.93 5.95 11.96
12/17/2020 1:45:00 PM 0.79 33.422 0.18 6.86 5.68 11.86
12/17/2020 2:00:00 PM 0.87 33.566 0.182 6.86 5.66 11.81
12/17/2020 2:15:00 PM 0.88 33.584 0.182 6.84 6.42 11.78
12/17/2020 2:30:00 PM 0.91 33.638 0.182 6.9 5.61 11.78
12/17/2020 2:45:00 PM 0.83 33.494 0.181 6.9 5.91 11.95
12/17/2020 3:00:00 PM 0.81 33.458 0.18 6.89 5.62 12.01
12/17/2020 3:15:00 PM 0.72 33.296 0.181 6.93 5.72 12.16
12/17/2020 3:30:00 PM 0.63 33.134 0.175 6.99 5.98 12.37
12/17/2020 3:45:00 PM 0.47 32.846 0.171 6.99 5.94 12.6
12/17/2020 4:00:00 PM 0.46 32.828 0.17 6.98 6 12.61
12/17/2020 4:15:00 PM 0.37 32.666 0.168 7 6.3 12.69
12/17/2020 4:30:00 PM 0.37 32.666 0.168 6.98 6.18 12.7
12/17/2020 4:45:00 PM 0.34 32.612 0.167 7.02 6.02 12.75
12/17/2020 5:00:00 PM 0.35 32.63 0.168 7 6.37 12.69
12/17/2020 5:15:00 PM 0.34 32.612 0.169 7.04 6.25 12.67
12/17/2020 5:30:00 PM 0.37 32.666 0.172 7.03 6.84 12.56
12/17/2020 5:45:00 PM 0.39 32.702 0.172 6.99 6.38 12.5
12/17/2020 6:00:00 PM 0.31 32.558 0.169 7.01 6.62 12.64
12/17/2020 6:15:00 PM 0.48 32.864 0.174 7 6.03 12.36
12/17/2020 6:30:00 PM 0.56 33.008 0.174 6.93 6.05 12.24
12/17/2020 6:45:00 PM 0.62 33.116 0.176 6.95 5.91 12.13
12/17/2020 7:00:00 PM 0.64 33.152 0.18 6.96 6.15 12.05
12/17/2020 7:15:00 PM 0.42 32.756 0.173 7.01 6.8 12.32
12/17/2020 7:30:00 PM 0.3 32.54 0.17 7 6.38 12.47
12/17/2020 7:45:00 PM 0.36 32.648 0.174 7.01 6.4 12.48
12/17/2020 8:00:00 PM 0.37 32.666 0.173 6.99 6.25 12.39
12/17/2020 8:15:00 PM 0.27 32.486 0.17 7.04 6.67 12.56
12/17/2020 8:30:00 PM 0.26 32.468 0.17 7 7.5 12.55
12/17/2020 8:45:00 PM 0.25 32.45 0.171 7.05 6.48 12.52
12/17/2020 9:00:00 PM 0.2 32.36 0.169 7.04 6.37 12.57
12/17/2020 9:15:00 PM 0.2 32.36 0.169 7.06 6.23 12.56
12/17/2020 9:30:00 PM 0.18 32.324 0.167 7.05 6.45 12.59
12/17/2020 9:45:00 PM 0.24 32.432 0.169 7.01 6.31 12.56
12/17/2020 10:00:00 PM 0.2 32.36 0.167 7.04 6.05 12.64
12/17/2020 10:15:00 PM 0.18 32.324 0.164 7.01 6.02 12.7
12/17/2020 10:30:00 PM 0.22 32.396 0.164 7 6.05 12.64
12/17/2020 10:45:00 PM 0.24 32.432 0.163 7.03 5.98 12.63
12/17/2020 11:00:00 PM 0.21 32.378 0.161 7.04 5.82 12.64
12/17/2020 11:15:00 PM 0.2 32.36 0.16 7.04 5.67 12.64
12/17/2020 11:30:00 PM 0.15 32.27 0.157 7.03 6.56 12.67
12/17/2020 11:45:00 PM 0.13 32.234 0.155 7.07 5.83 12.72
12/18/2020 12:00:00 AM 0.14 32.252 0.156 7.04 5.87 12.7
12/18/2020 12:15:00 AM 0.09 32.162 0.153 7 5.7 12.69
12/18/2020 12:30:00 AM 0.1 32.18 0.153 7.01 6 12.74
12/18/2020 12:45:00 AM 0.1 32.18 0.154 7.01 5.61 12.73
12/18/2020 1:00:00 AM 0.07 32.126 0.152 7.03 6.56 12.75
12/18/2020 1:15:00 AM 0.09 32.162 0.151 7.03 6.26 12.77
12/18/2020 1:30:00 AM 0.08 32.144 0.151 7.05 6.52 12.75
12/18/2020 1:45:00 AM 0.09 32.162 0.151 7.05 6.17 12.79
12/18/2020 2:00:00 AM 0.08 32.144 0.151 7.02 6.47 12.8
12/18/2020 2:15:00 AM 0.09 32.162 0.151 7.05 8.09 12.82
12/18/2020 2:30:00 AM 0.09 32.162 0.152 7.05 6.66 12.81
12/18/2020 2:45:00 AM 0.08 32.144 0.151 7.06 5.87 12.83
12/18/2020 3:00:00 AM 0.06 32.108 0.149 7.04 6.23 12.87
12/18/2020 3:15:00 AM 0.07 32.126 0.15 7.02 6.44 12.87
12/18/2020 3:30:00 AM 0.07 32.126 0.15 7.05 6.77 12.88
12/18/2020 3:45:00 AM 0.05 32.09 0.149 7.06 6.33 12.91
12/18/2020 4:00:00 AM 0.06 32.108 0.149 7.03 6.12 12.89
12/18/2020 4:15:00 AM 0.09 32.162 0.15 7 6.04 12.86
12/18/2020 4:30:00 AM 0.09 32.162 0.15 7.03 6.19 12.85
12/18/2020 4:45:00 AM 0.09 32.162 0.151 7.04 6.07 12.84
12/18/2020 5:00:00 AM 0.09 32.162 0.15 7.04 6.02 12.84
12/18/2020 5:15:00 AM 0.12 32.216 0.151 7.02 6.11 12.82
12/18/2020 5:30:00 AM 0.1 32.18 0.151 7.04 6.13 12.81
12/18/2020 5:45:00 AM 0.11 32.198 0.151 7.04 6.1 12.78
12/18/2020 6:00:00 AM 0.09 32.162 0.151 7.02 6.1 12.77
12/18/2020 6:15:00 AM 0.08 32.144 0.151 7.04 6.04 12.81
12/18/2020 6:30:00 AM 0.07 32.126 0.151 7.03 6.1 12.8
12/18/2020 6:45:00 AM 0.07 32.126 0.151 7.01 6.21 12.8
12/18/2020 7:00:00 AM 0.07 32.126 0.151 7.02 6.28 12.8
12/18/2020 7:15:00 AM 0.08 32.144 0.152 7.03 6.54 12.8
12/18/2020 7:30:00 AM 0.07 32.126 0.153 7.03 6.27 12.8
12/18/2020 7:45:00 AM 0.07 32.126 0.153 7.04 6.33 12.8
12/18/2020 8:00:00 AM 0.06 32.108 0.153 7.05 6.07 12.81
12/18/2020 8:15:00 AM 0.07 32.126 0.154 7.05 6.1 12.82
12/18/2020 8:30:00 AM 0.06 32.108 0.155 7.02 6.68 12.84
12/18/2020 8:45:00 AM 0.04 32.072 0.154 7.06 9.95 12.87
12/18/2020 9:00:00 AM 0.04 32.072 0.155 7.06 6.54 12.89
12/18/2020 9:15:00 AM 0.04 32.072 0.156 7.03 6.48 12.92
12/18/2020 9:30:00 AM 0.03 32.054 0.157 7.06 6.91 12.95
12/18/2020 9:45:00 AM 0.03 32.054 0.158 7.07 7.41 13.01
12/18/2020 10:00:00 AM 0.02 32.036 0.159 7.08 10.22 13.06
12/18/2020 10:15:00 AM 0.02 32.036 0.159 7.09 6.75 13.08
12/18/2020 10:30:00 AM 0 32 0.16 7.1 6.48 13.15
12/18/2020 10:45:00 AM 0 32 0.16 7.11 6.83 13.19
12/18/2020 11:00:00 AM 0 32 0.161 7.08 7.19 13.24
12/18/2020 11:15:00 AM 0 32 0.161 7.09 6.49 13.28
12/18/2020 11:30:00 AM 0 32 0.161 7.13 6.94 13.32
12/18/2020 11:45:00 AM 0 32 0.161 7.12 7.28 13.35
12/18/2020 12:00:00 PM 0 32 0.162 7.13 7.21 13.39
12/18/2020 12:15:00 PM 0 32 0.162 7.13 6.87 13.45
12/18/2020 12:30:00 PM 0 32 0.162 7.11 6.64 13.51
12/18/2020 12:45:00 PM -0.01 31.982 0.162 7.11 6.8 13.56
12/18/2020 1:00:00 PM 0 32 0.162 7.12 7.11 13.59
12/18/2020 1:15:00 PM 0 32 0.161 7.13 7.02 13.65
12/18/2020 1:30:00 PM -0.01 31.982 0.161 7.17 6.74 13.71
12/18/2020 1:45:00 PM -0.01 31.982 0.161 7.17 7.08 13.76
12/18/2020 2:00:00 PM 0.02 32.036 0.161 7.15 6.93 13.79
12/18/2020 2:15:00 PM 0.01 32.018 0.16 7.15 7.46 13.86
12/18/2020 2:30:00 PM 0 32 0.16 7.16 9.41 13.89
12/18/2020 2:45:00 PM 0.01 32.018 0.16 7.17 7.15 13.9
12/18/2020 3:00:00 PM 0.01 32.018 0.16 7.16 6.94 13.92
12/18/2020 3:15:00 PM 0.02 32.036 0.16 7.15 7.16 13.91
12/18/2020 3:30:00 PM 0.01 32.018 0.159 7.19 6.9 13.91
12/18/2020 3:45:00 PM 0.01 32.018 0.159 7.16 6.51 13.92
12/18/2020 4:00:00 PM 0.01 32.018 0.158 7.18 6.87 13.93
12/18/2020 4:15:00 PM 0 32 0.158 7.19 7.08 13.94
12/18/2020 4:30:00 PM 0.01 32.018 0.157 7.19 6.9 13.89
12/18/2020 4:45:00 PM 0.01 32.018 0.157 7.19 7.17 13.88
12/18/2020 5:00:00 PM 0.01 32.018 0.156 7.19 8.22 13.88
12/18/2020 5:15:00 PM 0.02 32.036 0.156 7.19 6.6 13.87
12/18/2020 5:30:00 PM 0.02 32.036 0.155 7.14 7.44 13.85
12/18/2020 5:45:00 PM 0.01 32.018 0.154 7.17 6.96 13.86
12/18/2020 6:00:00 PM 0.01 32.018 0.154 7.14 6.64 13.83
12/18/2020 6:15:00 PM 0.01 32.018 0.153 7.14 6.96 13.81
12/18/2020 6:30:00 PM 0.01 32.018 0.153 7.13 6.91 13.8
12/18/2020 6:45:00 PM 0 32 0.152 7.13 6.46 13.79
12/18/2020 7:00:00 PM 0.02 32.036 0.152 7.12 6.65 13.75
12/18/2020 7:15:00 PM 0.02 32.036 0.152 7.15 6.95 13.74
12/18/2020 7:30:00 PM 0.02 32.036 0.151 7.11 6.82 13.72
12/18/2020 7:45:00 PM 0.02 32.036 0.151 7.13 6.57 13.69
12/18/2020 8:00:00 PM 0.03 32.054 0.151 7.12 6.85 13.63
12/18/2020 8:15:00 PM 0.03 32.054 0.15 7.1 6.55 13.65
12/18/2020 8:30:00 PM 0.02 32.036 0.15 7.09 6.52 13.65
12/18/2020 8:45:00 PM 0.02 32.036 0.149 7.13 6.53 13.62
12/18/2020 9:00:00 PM 0.02 32.036 0.149 7.12 6.63 13.59
12/18/2020 9:15:00 PM 0.01 32.018 0.149 7.11 6.57 13.58
12/18/2020 9:30:00 PM 0.02 32.036 0.149 7.06 6.77 13.54
12/18/2020 9:45:00 PM 0.02 32.036 0.148 7.07 6.61 13.54
12/18/2020 10:00:00 PM 0.03 32.054 0.148 7.06 7.53 13.51
12/18/2020 10:15:00 PM 0.02 32.036 0.148 7.06 6.66 13.51
12/18/2020 10:30:00 PM 0.02 32.036 0.148 7.05 6.61 13.49
12/18/2020 10:45:00 PM 0.02 32.036 0.147 7.09 7.88 13.48
12/18/2020 11:00:00 PM 0.01 32.018 0.147 7.06 7.59 13.48
12/18/2020 11:15:00 PM 0.01 32.018 0.147 7.08 7.04 13.46
12/18/2020 11:30:00 PM 0.02 32.036 0.147 7.07 6.87 13.44
12/18/2020 11:45:00 PM 0.02 32.036 0.147 7.04 7 13.42
12/19/2020 12:00:00 AM 0.02 32.036 0.146 7.03 7.2 13.42
12/19/2020 12:15:00 AM 0.02 32.036 0.146 7.08 7.19 13.41
12/19/2020 12:30:00 AM 0.01 32.018 0.146 7.02 7.04 13.4
12/19/2020 12:45:00 AM 0.01 32.018 0.146 7.07 6.8 13.4
12/19/2020 1:00:00 AM 0.01 32.018 0.146 7.06 6.98 13.38
12/19/2020 1:15:00 AM 0.01 32.018 0.146 7.06 6.69 13.37
12/19/2020 1:30:00 AM 0.01 32.018 0.146 7.06 6.98 13.36
12/19/2020 1:45:00 AM 0.01 32.018 0.146 7.04 6.76 13.35
12/19/2020 2:00:00 AM 0.01 32.018 0.146 7 6.67 13.34
12/19/2020 2:15:00 AM 0.01 32.018 0.146 7.05 6.52 13.33
12/19/2020 2:30:00 AM 0.01 32.018 0.146 7.05 6.59 13.32
12/19/2020 2:45:00 AM 0 32 0.146 7.03 6.81 13.31
12/19/2020 3:00:00 AM 0 32 0.146 7.03 6.61 13.3
12/19/2020 3:15:00 AM 0.01 32.018 0.146 6.98 6.67 13.28
12/19/2020 3:30:00 AM 0.01 32.018 0.146 7.01 6.77 13.28
12/19/2020 3:45:00 AM 0.01 32.018 0.146 7.02 6.64 13.27
12/19/2020 4:00:00 AM 0.01 32.018 0.147 7 6.69 13.25
12/19/2020 4:15:00 AM 0 32 0.146 6.99 6.65 13.24
12/19/2020 4:30:00 AM 0.01 32.018 0.147 6.98 6.64 13.23
12/19/2020 4:45:00 AM 0.01 32.018 0.147 6.98 6.69 13.21
12/19/2020 5:00:00 AM 0.01 32.018 0.147 6.98 6.56 13.21
12/19/2020 5:15:00 AM 0 32 0.147 7 6.6 13.2
12/19/2020 5:30:00 AM 0.01 32.018 0.147 7.02 6.55 13.2
12/19/2020 5:45:00 AM 0.01 32.018 0.147 6.98 6.63 13.19
12/19/2020 6:00:00 AM 0.01 32.018 0.147 7.01 6.72 13.18
12/19/2020 6:15:00 AM 0.01 32.018 0.147 6.98 6.76 13.17
12/19/2020 6:30:00 AM 0.01 32.018 0.147 7.01 6.67 13.15
12/19/2020 6:45:00 AM 0.01 32.018 0.147 6.97 6.78 13.14
12/19/2020 7:00:00 AM 0.01 32.018 0.147 6.98 6.65 13.14
12/19/2020 7:15:00 AM 0.01 32.018 0.147 6.96 6.97 13.13
12/19/2020 7:30:00 AM 0.01 32.018 0.147 7 6.9 13.12
12/19/2020 7:45:00 AM 0.01 32.018 0.147 6.98 6.83 13.12
12/19/2020 8:00:00 AM 0.01 32.018 0.147 6.93 6.81 13.12
12/19/2020 8:15:00 AM 0.01 32.018 0.147 7 6.87 13.12
12/19/2020 8:30:00 AM 0.01 32.018 0.147 6.97 6.97 13.12
12/19/2020 8:45:00 AM 0.02 32.036 0.147 6.96 6.91 13.14
12/19/2020 9:00:00 AM 0.02 32.036 0.147 6.98 6.99 13.15
12/19/2020 9:15:00 AM 0.02 32.036 0.147 6.99 7.08 13.18
12/19/2020 9:30:00 AM 0.02 32.036 0.147 6.99 6.8 13.21
12/19/2020 9:45:00 AM 0.02 32.036 0.147 6.99 6.99 13.25
12/19/2020 10:00:00 AM 0.02 32.036 0.147 6.96 6.65 13.28
12/19/2020 10:15:00 AM 0.02 32.036 0.147 6.99 6.96 13.31
12/19/2020 10:30:00 AM 0.02 32.036 0.146 6.98 7.15 13.36
12/19/2020 10:45:00 AM 0.03 32.054 0.146 6.97 6.99 13.4
12/19/2020 11:00:00 AM 0.02 32.036 0.146 6.95 7.8 13.44
12/19/2020 11:15:00 AM 0.02 32.036 0.146 6.95 7.95 13.49
12/19/2020 11:30:00 AM 0.03 32.054 0.146 6.96 8.06 13.53
12/19/2020 11:45:00 AM 0.02 32.036 0.146 7.01 7.77 13.57
12/19/2020 12:00:00 PM 0.03 32.054 0.146 7.01 7.75 13.61
12/19/2020 12:15:00 PM 0.03 32.054 0.146 7.02 7.88 13.64
12/19/2020 12:30:00 PM 0.03 32.054 0.145 7.04 7.81 13.69
12/19/2020 12:45:00 PM 0.02 32.036 0.145 7 8.22 13.72
12/19/2020 1:00:00 PM 0.02 32.036 0.145 7.04 7.95 13.77
12/19/2020 1:15:00 PM 0.03 32.054 0.145 7.05 7.57 13.81
12/19/2020 1:30:00 PM 0.02 32.036 0.144 7.04 7.99 13.86
12/19/2020 1:45:00 PM 0.01 32.018 0.144 7.04 7.85 13.9
12/19/2020 2:00:00 PM 0.01 32.018 0.144 7.09 7.54 13.93
12/19/2020 2:15:00 PM 0 32 0.143 7.08 7.4 13.97
12/19/2020 2:30:00 PM 0 32 0.143 7.08 8.08 13.99
12/19/2020 2:45:00 PM 0 32 0.143 7.08 7.26 14.03
12/19/2020 3:00:00 PM 0 32 0.143 7.08 7.22 14.06
12/19/2020 3:15:00 PM 0 32 0.143 7.04 7.4 14.07
12/19/2020 3:30:00 PM 0 32 0.143 7.1 7.83 14.06
12/19/2020 3:45:00 PM 0 32 0.142 7.1 5.75 14.06
12/19/2020 4:00:00 PM 0 32 0.143 7.1 6.07 14.05
12/19/2020 4:15:00 PM 0 32 0.143 7.11 6.16 14.03
12/19/2020 4:30:00 PM -0.01 31.982 0.143 7.11 6.08 14.02
12/19/2020 4:45:00 PM -0.01 31.982 0.143 7.09 6.14 13.99
12/19/2020 5:00:00 PM -0.01 31.982 0.143 7.1 6.03 13.96
12/19/2020 5:15:00 PM 0 32 0.143 7.12 6.15 13.92
12/19/2020 5:30:00 PM 0 32 0.143 7.12 5.96 13.89
12/19/2020 5:45:00 PM 0 32 0.144 7.12 5.94 13.86
12/19/2020 6:00:00 PM 0 32 0.144 7.06 5.87 13.83
12/19/2020 6:15:00 PM -0.01 31.982 0.144 7.11 5.85 13.8
12/19/2020 6:30:00 PM 0 32 0.144 7.1 6.01 13.76
12/19/2020 6:45:00 PM -0.01 31.982 0.144 7.06 7.33 13.73
12/19/2020 7:00:00 PM -0.01 31.982 0.144 7.1 6.21 13.7
12/19/2020 7:15:00 PM -0.01 31.982 0.144 7.1 6.53 13.66
12/19/2020 7:30:00 PM -0.01 31.982 0.144 7.09 6.12 13.63
12/19/2020 7:45:00 PM -0.01 31.982 0.145 7.08 6.2 13.59
12/19/2020 8:00:00 PM 0 32 0.145 7.09 6.17 13.55
12/19/2020 8:15:00 PM 0 32 0.145 7.08 6.12 13.52
12/19/2020 8:30:00 PM 0 32 0.145 7.09 6.27 13.49
12/19/2020 8:45:00 PM 0 32 0.145 7.1 6.3 13.45
12/19/2020 9:00:00 PM 0 32 0.145 7.05 6.42 13.41
12/19/2020 9:15:00 PM 0 32 0.145 7.05 6.36 13.38
12/19/2020 9:30:00 PM 0 32 0.145 7.04 6.2 13.35
12/19/2020 9:45:00 PM 0.01 32.018 0.146 7.05 6.08 13.31
12/19/2020 10:00:00 PM 0.01 32.018 0.146 7.07 6.27 13.28
12/19/2020 10:15:00 PM 0 32 0.145 7.07 6.45 13.28
12/19/2020 10:30:00 PM 0 32 0.145 7.06 6.44 13.26
12/19/2020 10:45:00 PM 0 32 0.146 7.03 6.36 13.23
12/19/2020 11:00:00 PM 0 32 0.146 7.03 6.35 13.21
12/19/2020 11:15:00 PM 0 32 0.146 7.05 6.4 13.19
12/19/2020 11:30:00 PM 0 32 0.146 7.07 6.18 13.17
12/19/2020 11:45:00 PM 0 32 0.145 7.02 6.22 13.15
12/20/2020 12:00:00 AM 0 32 0.146 7 6.22 13.13
12/20/2020 12:15:00 AM 0 32 0.146 7.01 6.41 13.11
12/20/2020 12:30:00 AM 0 32 0.146 7.02 6.23 13.09
12/20/2020 12:45:00 AM 0 32 0.146 7.02 6.39 13.07
12/20/2020 1:00:00 AM 0 32 0.146 7.02 6.44 13.07
12/20/2020 1:15:00 AM 0 32 0.146 7.02 6.45 13.05
12/20/2020 1:30:00 AM 0 32 0.146 7.04 6.69 13.04
12/20/2020 1:45:00 AM 0 32 0.146 7.03 6.6 13.03
12/20/2020 2:00:00 AM 0 32 0.146 7.01 6.73 13.03
12/20/2020 2:15:00 AM 0 32 0.146 7.01 6.61 13.01
12/20/2020 2:30:00 AM 0 32 0.146 7.01 6.29 13.01
12/20/2020 2:45:00 AM 0 32 0.146 7.03 6.43 12.99
12/20/2020 3:00:00 AM 0 32 0.146 7.03 6.44 12.98
12/20/2020 3:15:00 AM 0 32 0.146 7.02 6.26 12.97
12/20/2020 3:30:00 AM 0.01 32.018 0.146 6.99 6.4 12.93
12/20/2020 3:45:00 AM 0.01 32.018 0.146 7.03 6.23 12.92
12/20/2020 4:00:00 AM 0.01 32.018 0.146 7.03 6.41 12.92
12/20/2020 4:15:00 AM 0 32 0.146 7.01 6.48 12.92
12/20/2020 4:30:00 AM 0 32 0.146 7.03 7.28 12.92
12/20/2020 4:45:00 AM 0 32 0.147 7.03 6.64 12.9
12/20/2020 5:00:00 AM 0 32 0.147 6.98 6.13 12.9
12/20/2020 5:15:00 AM 0 32 0.147 6.94 6.27 12.9
12/20/2020 5:30:00 AM 0 32 0.147 6.93 6.01 12.89
12/20/2020 5:45:00 AM -0.01 31.982 0.147 6.97 5.98 12.89
12/20/2020 6:00:00 AM 0 32 0.147 6.9 6.96 12.88
12/20/2020 6:15:00 AM -0.01 31.982 0.147 6.98 9.76 12.86
12/20/2020 6:30:00 AM -0.01 31.982 0.147 6.97 6.71 12.86
12/20/2020 6:45:00 AM -0.01 31.982 0.147 7.03 6.18 12.87
12/20/2020 7:00:00 AM -0.01 31.982 0.147 7 6.4 12.86
12/20/2020 7:15:00 AM -0.01 31.982 0.147 7.02 6.06 12.86
12/20/2020 7:30:00 AM -0.01 31.982 0.147 7.01 5.92 12.86
12/20/2020 7:45:00 AM -0.01 31.982 0.147 7 6.03 12.86
12/20/2020 8:00:00 AM -0.01 31.982 0.147 6.97 5.97 12.87
12/20/2020 8:15:00 AM -0.01 31.982 0.147 7.03 5.96 12.88
12/20/2020 8:30:00 AM -0.01 31.982 0.147 7.02 6.06 12.89
12/20/2020 8:45:00 AM -0.01 31.982 0.147 7.02 5.94 12.9
12/20/2020 9:00:00 AM -0.01 31.982 0.147 6.99 5.72 12.92
12/20/2020 9:15:00 AM 0 32 0.147 7.02 6 12.95
12/20/2020 9:30:00 AM 0 32 0.147 7 6.2 12.99
12/20/2020 9:45:00 AM 0 32 0.147 6.99 6.05 13.04
12/20/2020 10:00:00 AM -0.01 31.982 0.147 7.05 6.33 13.08
12/20/2020 10:15:00 AM 0 32 0.147 6.97 7.07 13.11
12/20/2020 10:30:00 AM -0.01 31.982 0.147 6.66 6.06 13.16
12/20/2020 10:45:00 AM -0.01 31.982 0.147 6.65 5.99 13.21
12/20/2020 11:00:00 AM -0.01 31.982 0.147 6.72 5.86 13.23
12/20/2020 11:15:00 AM -0.01 31.982 0.147 6.75 6.11 13.24
12/20/2020 11:30:00 AM -0.01 31.982 0.147 6.78 5.98 13.26
12/20/2020 11:45:00 AM 0 32 0.147 6.76 5.94 13.28
12/20/2020 12:00:00 PM 0 32 0.147 6.81 5.97 13.3
12/20/2020 12:15:00 PM 0 32 0.147 6.81 5.91 13.33
12/20/2020 12:30:00 PM 0.01 32.018 0.147 6.85 5.85 13.35
12/20/2020 12:45:00 PM 0.01 32.018 0.147 6.84 5.77 13.38
12/20/2020 1:00:00 PM 0.01 32.018 0.146 6.85 5.95 13.4
12/20/2020 1:15:00 PM 0.01 32.018 0.146 6.96 6.09 13.42
12/20/2020 1:30:00 PM 0.01 32.018 0.146 7.01 52.68 13.44
12/20/2020 1:45:00 PM 0.01 32.018 0.146 6.99 5.65 13.47
12/20/2020 2:00:00 PM 0 32 0.146 6.99 5.52 13.5
12/20/2020 2:15:00 PM 0.02 32.036 0.147 7.03 5.55 13.5
12/20/2020 2:30:00 PM 0.02 32.036 0.147 7.01 5.49 13.51
12/20/2020 2:45:00 PM 0.01 32.018 0.146 7.03 5.76 13.54
12/20/2020 3:00:00 PM 0.02 32.036 0.147 7.04 6.01 13.54
12/20/2020 3:15:00 PM 0.02 32.036 0.146 7.09 5.74 13.55
12/20/2020 3:30:00 PM 0.01 32.018 0.146 7.09 5.6 13.55
12/20/2020 3:45:00 PM 0.02 32.036 0.146 7.12 5.52 13.53
12/20/2020 4:00:00 PM 0.03 32.054 0.146 7.11 5.49 13.51
12/20/2020 4:15:00 PM 0.03 32.054 0.146 7.07 5.37 13.49
12/20/2020 4:30:00 PM 0.01 32.018 0.146 7.11 5.4 13.51
12/20/2020 4:45:00 PM 0.01 32.018 0.146 7.06 5.6 13.49
12/20/2020 5:00:00 PM 0.01 32.018 0.146 7.1 5.49 13.47
12/20/2020 5:15:00 PM 0.01 32.018 0.146 7.11 5.44 13.45
12/20/2020 5:30:00 PM 0.01 32.018 0.146 7.1 5.86 13.43
12/20/2020 5:45:00 PM 0.03 32.054 0.146 7.11 5.81 13.37
12/20/2020 6:00:00 PM 0.03 32.054 0.146 7.06 5.45 13.35
12/20/2020 6:15:00 PM 0.03 32.054 0.146 7.1 5.58 13.31
12/20/2020 6:30:00 PM 0.03 32.054 0.146 7.1 5.59 13.28
12/20/2020 6:45:00 PM 0.02 32.036 0.146 7.1 5.5 13.26
12/20/2020 7:00:00 PM 0.03 32.054 0.146 7.06 5.61 13.24
12/20/2020 7:15:00 PM 0.02 32.036 0.146 7.09 5.43 13.23
12/20/2020 7:30:00 PM 0.03 32.054 0.147 7.09 5.92 13.2
12/20/2020 7:45:00 PM 0.02 32.036 0.146 7.1 5.79 13.19
12/20/2020 8:00:00 PM 0.02 32.036 0.146 7.08 6.51 13.16
12/20/2020 8:15:00 PM 0.02 32.036 0.146 7.09 5.57 13.14
12/20/2020 8:30:00 PM 0.02 32.036 0.146 7.09 5.38 13.11
12/20/2020 8:45:00 PM 0.02 32.036 0.146 7.09 5.44 13.1
12/20/2020 9:00:00 PM 0.02 32.036 0.147 7.1 5.54 13.07
12/20/2020 9:15:00 PM 0.02 32.036 0.147 7.06 5.52 13.06
12/20/2020 9:30:00 PM 0.03 32.054 0.147 7.08 5.53 13.01
12/20/2020 9:45:00 PM 0.01 32.018 0.147 7.03 5.77 13.01
12/20/2020 10:00:00 PM 0.01 32.018 0.147 7.05 5.64 13.01
12/20/2020 10:15:00 PM 0.01 32.018 0.147 7.05 5.62 12.99
12/20/2020 10:30:00 PM 0.02 32.036 0.147 7.03 5.83 12.98
12/20/2020 10:45:00 PM 0.01 32.018 0.147 7.03 5.68 12.96
12/20/2020 11:00:00 PM 0.02 32.036 0.147 7.05 5.76 12.95
12/20/2020 11:15:00 PM 0.01 32.018 0.147 7.01 5.9 12.95
12/20/2020 11:30:00 PM 0.02 32.036 0.147 7.05 14.45 12.95
12/20/2020 11:45:00 PM 0.02 32.036 0.147 7.05 5.8 12.94
12/21/2020 12:00:00 AM 0.02 32.036 0.147 7.04 5.75 12.93
12/21/2020 12:15:00 AM 0.02 32.036 0.147 7.05 5.89 12.93
12/21/2020 12:30:00 AM 0.02 32.036 0.147 7.05 5.78 12.92
12/21/2020 12:45:00 AM 0.01 32.018 0.147 7.05 5.8 12.92
12/21/2020 1:00:00 AM 0.02 32.036 0.147 7.04 5.75 12.92
12/21/2020 1:15:00 AM 0.02 32.036 0.147 7.01 6.01 12.91
12/21/2020 1:30:00 AM 0.02 32.036 0.147 7 5.8 12.91
12/21/2020 1:45:00 AM 0.03 32.054 0.147 6.96 9.2 12.9
12/21/2020 2:00:00 AM 0.02 32.036 0.147 6.97 7.56 12.9
12/21/2020 2:15:00 AM 0.02 32.036 0.147 6.98 5.79 12.9
12/21/2020 2:30:00 AM 0.01 32.018 0.147 6.95 6.2 12.9
12/21/2020 2:45:00 AM 0.02 32.036 0.147 6.98 5.98 12.89
12/21/2020 3:00:00 AM 0.01 32.018 0.147 6.97 6.01 12.9
12/21/2020 3:15:00 AM 0.01 32.018 0.147 6.99 6 12.89
12/21/2020 3:30:00 AM 0.01 32.018 0.147 6.95 5.88 12.89
12/21/2020 3:45:00 AM 0.02 32.036 0.147 6.97 5.78 12.89
12/21/2020 4:00:00 AM 0.02 32.036 0.147 6.97 6 12.88
12/21/2020 4:15:00 AM 0.01 32.018 0.147 6.96 6 12.88
12/21/2020 4:30:00 AM 0.01 32.018 0.147 7.02 6.11 12.89
12/21/2020 4:45:00 AM 0.01 32.018 0.147 7 5.93 12.89
12/21/2020 5:00:00 AM 0.02 32.036 0.147 7.01 6.14 12.88
12/21/2020 5:15:00 AM 0.01 32.018 0.147 7.03 6.04 12.89
12/21/2020 5:30:00 AM 0.01 32.018 0.147 7.04 5.93 12.88
12/21/2020 5:45:00 AM 0.02 32.036 0.147 7.06 6 12.88
12/21/2020 6:00:00 AM 0.01 32.018 0.147 7 5.83 12.88
12/21/2020 6:15:00 AM 0.01 32.018 0.147 7.06 6.02 12.88
12/21/2020 6:30:00 AM 0.01 32.018 0.147 7.03 5.95 12.88
12/21/2020 6:45:00 AM 0.02 32.036 0.147 7.03 5.88 12.88
12/21/2020 7:00:00 AM 0.01 32.018 0.147 7.05 6.07 12.89
12/21/2020 7:15:00 AM 0.01 32.018 0.147 7.07 5.73 12.89
12/21/2020 7:30:00 AM 0.01 32.018 0.147 7.04 5.94 12.89
12/21/2020 7:45:00 AM 0.01 32.018 0.147 7.04 5.8 12.89
12/21/2020 8:00:00 AM 0.01 32.018 0.147 7.09 5.88 12.89
12/21/2020 8:15:00 AM 0.01 32.018 0.147 7.07 5.91 12.91
12/21/2020 8:30:00 AM 0.01 32.018 0.147 7.08 5.97 12.94
12/21/2020 8:45:00 AM 0.02 32.036 0.147 7.08 6.07 12.98
12/21/2020 9:00:00 AM 0.02 32.036 0.147 7.06 5.92 13.01
12/21/2020 9:15:00 AM 0.02 32.036 0.147 7.06 6.13 13.05
12/21/2020 9:30:00 AM 0.02 32.036 0.147 7.09 6.06 13.09
12/21/2020 9:45:00 AM 0.02 32.036 0.147 7.11 6.11 13.13
12/21/2020 10:00:00 AM 0.03 32.054 0.147 7.11 5.99 13.17
12/21/2020 10:15:00 AM 0.03 32.054 0.147 7.09 6 13.23
12/21/2020 10:30:00 AM 0.03 32.054 0.146 7.11 6 13.29
12/21/2020 10:45:00 AM 0.03 32.054 0.147 7.12 6.05 13.33
12/21/2020 11:00:00 AM 0.03 32.054 0.147 7.09 5.9 13.37
12/21/2020 11:15:00 AM 0.04 32.072 0.147 7.1 5.88 13.42
12/21/2020 11:30:00 AM 0.03 32.054 0.148 7.1 5.89 13.47
12/21/2020 11:45:00 AM 0.03 32.054 0.148 7.13 5.97 13.52
12/21/2020 12:00:00 PM 0.03 32.054 0.149 7.14 6 13.56
12/21/2020 12:15:00 PM 0.03 32.054 0.149 7.15 5.89 13.61
12/21/2020 12:30:00 PM 0.03 32.054 0.15 7.16 6.07 13.66
12/21/2020 12:45:00 PM 0.03 32.054 0.15 7.17 5.95 13.71
12/21/2020 1:00:00 PM 0.02 32.036 0.151 7.17 5.87 13.74
12/21/2020 1:15:00 PM 0.04 32.072 0.151 7.17 5.7 13.75
12/21/2020 1:30:00 PM 0.04 32.072 0.15 7.13 5.67 13.79
12/21/2020 1:45:00 PM 0.04 32.072 0.15 7.15 5.71 13.82
12/21/2020 2:00:00 PM 0.04 32.072 0.149 7.16 5.59 13.85
12/21/2020 2:15:00 PM 0.03 32.054 0.149 7.14 5.59 13.89
12/21/2020 2:30:00 PM 0.01 32.018 0.148 7.17 6.45 13.92
12/21/2020 2:45:00 PM 0 32 0.147 7.22 5.61 13.95
12/21/2020 3:00:00 PM 0 32 0.147 7.22 5.6 13.95
12/21/2020 3:15:00 PM 0.01 32.018 0.147 7.21 5.67 13.96
12/21/2020 3:30:00 PM 0 32 0.147 7.21 5.7 13.97
12/21/2020 3:45:00 PM 0 32 0.146 7.22 5.46 13.98
12/21/2020 4:00:00 PM 0 32 0.146 7.2 7.26 13.96
12/21/2020 4:15:00 PM 0 32 0.146 7.22 5.64 13.92
12/21/2020 4:30:00 PM 0 32 0.146 7.23 5.6 13.87
12/21/2020 4:45:00 PM 0 32 0.146 7.22 5.58 13.84
12/21/2020 5:00:00 PM 0 32 0.146 7.2 5.67 13.79
12/21/2020 5:15:00 PM 0.01 32.018 0.145 7.24 5.72 13.76
12/21/2020 5:30:00 PM 0 32 0.146 7.23 5.72 13.72
12/21/2020 5:45:00 PM 0 32 0.145 7.21 5.85 13.69
12/21/2020 6:00:00 PM 0 32 0.145 7.19 5.57 13.64
12/21/2020 6:15:00 PM 0 32 0.145 7.17 5.65 13.6
12/21/2020 6:30:00 PM 0 32 0.145 7.2 5.76 13.57
12/21/2020 6:45:00 PM 0 32 0.145 7.15 5.57 13.53
12/21/2020 7:00:00 PM 0 32 0.145 7.14 5.88 13.5
12/21/2020 7:15:00 PM 0 32 0.145 7.15 5.74 13.47
12/21/2020 7:30:00 PM 0 32 0.144 7.13 6.47 13.44
12/21/2020 7:45:00 PM 0 32 0.144 7.06 13.43 13.41
12/21/2020 8:00:00 PM 0 32 0.145 7.07 5.8 13.37
12/21/2020 8:15:00 PM 0 32 0.145 7.05 5.8 13.36
12/21/2020 8:30:00 PM 0 32 0.145 7.03 5.85 13.33
12/21/2020 8:45:00 PM 0 32 0.145 7.08 5.8 13.3
12/21/2020 9:00:00 PM 0.01 32.018 0.145 7.05 5.52 13.28
12/21/2020 9:15:00 PM 0 32 0.144 7.06 5.68 13.26
12/21/2020 9:30:00 PM 0 32 0.145 7.04 5.63 13.24
12/21/2020 9:45:00 PM 0 32 0.144 6.99 5.98 13.22
12/21/2020 10:00:00 PM 0 32 0.144 7.05 5.81 13.21
12/21/2020 10:15:00 PM 0.01 32.018 0.145 7.05 5.58 13.19
12/21/2020 10:30:00 PM 0 32 0.145 6.99 5.51 13.19
12/21/2020 10:45:00 PM 0 32 0.145 7.02 5.58 13.17
12/21/2020 11:00:00 PM 0 32 0.145 7.01 5.77 13.15
12/21/2020 11:15:00 PM 0 32 0.145 7.03 5.79 13.14
12/21/2020 11:30:00 PM 0.01 32.018 0.145 6.98 5.77 13.14
12/21/2020 11:45:00 PM 0 32 0.145 7.02 5.61 13.13
12/22/2020 12:00:00 AM 0 32 0.145 7 5.97 13.13
12/22/2020 12:15:00 AM 0 32 0.145 7 6.59 13.13
12/22/2020 12:30:00 AM 0 32 0.145 6.97 6.43 13.12
12/22/2020 12:45:00 AM 0 32 0.145 6.99 5.93 13.11
12/22/2020 1:00:00 AM 0 32 0.145 6.96 5.98 13.1
12/22/2020 1:15:00 AM 0 32 0.145 6.96 5.68 13.09
12/22/2020 1:30:00 AM 0 32 0.145 6.95 5.91 13.09
12/22/2020 1:45:00 AM 0 32 0.145 7 5.83 13.08
12/22/2020 2:00:00 AM 0 32 0.145 6.98 5.77 13.09
12/22/2020 2:15:00 AM 0 32 0.145 7 5.83 13.09
12/22/2020 2:30:00 AM 0 32 0.145 6.99 5.99 13.07
12/22/2020 2:45:00 AM 0 32 0.145 6.99 5.67 13.08
12/22/2020 3:00:00 AM 0 32 0.145 6.95 5.95 13.07
12/22/2020 3:15:00 AM 0 32 0.146 6.97 5.65 13.07
12/22/2020 3:30:00 AM 0 32 0.146 6.96 5.7 13.07
12/22/2020 3:45:00 AM 0 32 0.145 6.99 5.53 13.06
12/22/2020 4:00:00 AM 0 32 0.145 6.96 5.74 13.07
12/22/2020 4:15:00 AM 0 32 0.146 6.98 5.81 13.06
12/22/2020 4:30:00 AM 0 32 0.145 6.96 5.71 13.06
12/22/2020 4:45:00 AM 0 32 0.146 6.99 5.63 13.07
12/22/2020 5:00:00 AM 0 32 0.146 7.01 5.7 13.06
12/22/2020 5:15:00 AM 0 32 0.146 7.01 5.58 13.06
12/22/2020 5:30:00 AM 0 32 0.146 7.01 5.51 13.07
12/22/2020 5:45:00 AM 0 32 0.146 7.01 5.58 13.07
12/22/2020 6:00:00 AM 0 32 0.146 6.98 5.57 13.07
12/22/2020 6:15:00 AM 0 32 0.146 7.01 5.62 13.08
12/22/2020 6:30:00 AM 0 32 0.146 7.01 5.62 13.07
12/22/2020 6:45:00 AM 0 32 0.146 7.01 5.68 13.08
12/22/2020 7:00:00 AM 0 32 0.146 7 5.51 13.09
12/22/2020 7:15:00 AM 0 32 0.146 7 5.61 13.08
12/22/2020 7:30:00 AM 0 32 0.146 6.98 5.58 13.08
12/22/2020 7:45:00 AM 0 32 0.146 6.99 5.64 13.08
12/22/2020 8:00:00 AM 0 32 0.146 7.01 5.46 13.1
12/22/2020 8:15:00 AM 0 32 0.146 7 5.49 13.1
12/22/2020 8:30:00 AM 0 32 0.146 6.99 5.45 13.12
12/22/2020 8:45:00 AM 0.01 32.018 0.146 7.02 5.54 13.14
12/22/2020 9:00:00 AM 0.01 32.018 0.146 7.01 5.48 13.17
12/22/2020 9:15:00 AM 0.01 32.018 0.146 7.03 5.54 13.21
12/22/2020 9:30:00 AM 0.01 32.018 0.146 6.99 5.67 13.23
12/22/2020 9:45:00 AM 0.01 32.018 0.146 7 5.59 13.25
12/22/2020 10:00:00 AM 0.01 32.018 0.146 7.04 5.63 13.28
12/22/2020 10:15:00 AM 0.01 32.018 0.147 7.03 5.57 13.33
12/22/2020 10:30:00 AM 0.01 32.018 0.146 7.01 5.6 13.4
12/22/2020 10:45:00 AM 0.01 32.018 0.146 7.01 7.58 13.47
12/22/2020 11:00:00 AM 0.01 32.018 0.146 7.01 7.83 13.52
12/22/2020 11:15:00 AM 0.01 32.018 0.146 7.05 7.2 13.54
12/22/2020 11:30:00 AM 0.02 32.036 0.146 7.03 6.25 13.6
12/22/2020 11:45:00 AM 0.02 32.036 0.146 7.05 6.6 13.68
12/22/2020 12:00:00 PM 0.02 32.036 0.146 7.1 7.1 13.73
12/22/2020 12:15:00 PM 0.01 32.018 0.145 7.09 7.51 13.78
12/22/2020 12:30:00 PM 0.01 32.018 0.145 7.1 7.37 13.81
12/22/2020 12:45:00 PM 0.01 32.018 0.145 7.11 6.25 13.85
12/22/2020 1:00:00 PM 0.02 32.036 0.145 7.11 5.36 13.87
12/22/2020 1:15:00 PM 0.01 32.018 0.145 7.1 6.44 13.92
12/22/2020 1:30:00 PM 0.01 32.018 0.145 7.15 5.53 13.95
12/22/2020 1:45:00 PM 0.01 32.018 0.145 7.16 5.54 13.98
12/22/2020 2:00:00 PM 0.01 32.018 0.144 7.13 5.25 14
12/22/2020 2:15:00 PM 0.01 32.018 0.144 7.13 5.71 14.03
12/22/2020 2:30:00 PM 0.01 32.018 0.145 7.13 5.25 14.05
12/22/2020 2:45:00 PM 0.01 32.018 0.144 7.15 5.19 14.07
12/22/2020 3:00:00 PM 0.01 32.018 0.145 7.15 5.14 14.09
12/22/2020 3:15:00 PM 0.01 32.018 0.144 7.14 5.31 14.1
12/22/2020 3:30:00 PM 0.01 32.018 0.144 7.17 5.23 14.1
12/22/2020 3:45:00 PM 0 32 0.144 7.16 5.11 14.08
12/22/2020 4:00:00 PM 0 32 0.144 7.18 5.18 14.05
12/22/2020 4:15:00 PM 0 32 0.144 7.18 5.2 14.01
12/22/2020 4:30:00 PM 0 32 0.144 7.16 5.28 13.98
12/22/2020 4:45:00 PM 0 32 0.144 7.15 5.17 13.95
12/22/2020 5:00:00 PM 0 32 0.144 7.12 5.37 13.91
12/22/2020 5:15:00 PM 0 32 0.144 7.14 5.37 13.87
12/22/2020 5:30:00 PM 0 32 0.144 7.14 5.25 13.82
12/22/2020 5:45:00 PM 0 32 0.145 7.12 5.18 13.79
12/22/2020 6:00:00 PM 0 32 0.144 7.14 5.18 13.76
12/22/2020 6:15:00 PM 0 32 0.144 7.1 5.32 13.74
12/22/2020 6:30:00 PM 0.01 32.018 0.145 7.11 5.18 13.7
12/22/2020 6:45:00 PM 0 32 0.145 7.13 5.13 13.69
12/22/2020 7:00:00 PM 0 32 0.145 7.09 5.23 13.66
12/22/2020 7:15:00 PM 0 32 0.145 7.1 5.14 13.64
12/22/2020 7:30:00 PM 0 32 0.145 7.11 5.18 13.62
12/22/2020 7:45:00 PM 0 32 0.145 7.12 5.11 13.6
12/22/2020 8:00:00 PM 0 32 0.145 7.11 5.19 13.58
12/22/2020 8:15:00 PM 0 32 0.145 7.08 5.21 13.57
12/22/2020 8:30:00 PM 0 32 0.145 7.06 5.13 13.55
12/22/2020 8:45:00 PM 0 32 0.145 7.08 5.1 13.54
12/22/2020 9:00:00 PM 0 32 0.145 7.12 5.26 13.52
12/22/2020 9:15:00 PM 0.01 32.018 0.145 7.07 5.23 13.51
12/22/2020 9:30:00 PM 0 32 0.145 7.11 5.27 13.5
12/22/2020 9:45:00 PM 0 32 0.145 7.12 5.27 13.5
12/22/2020 10:00:00 PM 0 32 0.145 7.1 5.27 13.5
12/22/2020 10:15:00 PM 0 32 0.145 7.12 5.19 13.49
12/22/2020 10:30:00 PM 0 32 0.145 7.09 5.2 13.49
12/22/2020 10:45:00 PM 0 32 0.145 7.11 5.19 13.49
12/22/2020 11:00:00 PM 0 32 0.145 7.1 5.36 13.49
12/22/2020 11:15:00 PM 0 32 0.145 7.1 5.32 13.47
12/22/2020 11:30:00 PM 0 32 0.146 7.11 5.63 13.48
12/22/2020 11:45:00 PM 0.01 32.018 0.146 7.13 5.34 13.48
12/23/2020 12:00:00 AM 0.01 32.018 0.146 7.11 5.7 13.48
12/23/2020 12:15:00 AM 0.01 32.018 0.146 7.12 5.4 13.48
12/23/2020 12:30:00 AM 0 32 0.146 7.13 5.32 13.47
12/23/2020 12:45:00 AM 0 32 0.146 7.13 5.28 13.47
12/23/2020 1:00:00 AM 0.01 32.018 0.146 7.11 5.36 13.46
12/23/2020 1:15:00 AM 0 32 0.146 7.12 5.32 13.47
12/23/2020 1:30:00 AM 0 32 0.146 7.14 5.33 13.48
12/23/2020 1:45:00 AM 0 32 0.146 7.11 5.43 13.47
12/23/2020 2:00:00 AM 0 32 0.146 7.1 5.89 13.47
12/23/2020 2:15:00 AM 0.01 32.018 0.146 7.1 5.58 13.47
12/23/2020 2:30:00 AM 0.01 32.018 0.147 7.07 5.34 13.47
12/23/2020 2:45:00 AM 0.01 32.018 0.146 7.11 5.68 13.46
12/23/2020 3:00:00 AM 0.01 32.018 0.146 7.08 5.56 13.47
12/23/2020 3:15:00 AM 0 32 0.146 7.07 5.65 13.46
12/23/2020 3:30:00 AM 0.01 32.018 0.146 7.08 5.58 13.46
12/23/2020 3:45:00 AM 0.01 32.018 0.146 7.07 5.55 13.47
12/23/2020 4:00:00 AM 0 32 0.146 7.08 5.64 13.48
12/23/2020 4:15:00 AM 0.01 32.018 0.147 7.09 5.7 13.47
12/23/2020 4:30:00 AM 0.01 32.018 0.147 7.1 5.56 13.48
12/23/2020 4:45:00 AM 0.01 32.018 0.147 7.1 5.62 13.47
12/23/2020 5:00:00 AM 0 32 0.147 7.09 5.64 13.49
12/23/2020 5:15:00 AM 0 32 0.147 7.09 5.48 13.48
12/23/2020 5:30:00 AM 0 32 0.147 7.1 5.62 13.49
12/23/2020 5:45:00 AM 0 32 0.147 7.11 5.57 13.49
12/23/2020 6:00:00 AM 0 32 0.147 7.08 5.6 13.5
12/23/2020 6:15:00 AM 0 32 0.147 7.09 5.54 13.49
12/23/2020 6:30:00 AM 0 32 0.148 7.09 5.51 13.5
12/23/2020 6:45:00 AM 0 32 0.148 7.09 5.55 13.5
12/23/2020 7:00:00 AM 0 32 0.148 7.09 5.56 13.52
12/23/2020 7:15:00 AM 0 32 0.148 7.1 5.46 13.52
12/23/2020 7:30:00 AM 0 32 0.148 7.09 5.5 13.53
12/23/2020 7:45:00 AM 0 32 0.148 7.1 5.46 13.55
12/23/2020 8:00:00 AM 0 32 0.148 7.09 7.21 13.56
12/23/2020 8:15:00 AM 0 32 0.148 7.09 5.46 13.6
12/23/2020 8:30:00 AM 0.01 32.018 0.148 7.1 5.41 13.66
12/23/2020 8:45:00 AM 0.01 32.018 0.148 7.1 5.34 13.71
12/23/2020 9:00:00 AM 0.02 32.036 0.148 7.12 5.35 13.76
12/23/2020 9:15:00 AM 0.02 32.036 0.148 7.12 5.4 13.82
12/23/2020 9:30:00 AM 0.02 32.036 0.148 7.13 5.43 13.87
12/23/2020 9:45:00 AM 0.02 32.036 0.148 7.15 5.44 13.92
12/23/2020 10:00:00 AM 0.02 32.036 0.148 7.13 5.44 13.98
12/23/2020 10:15:00 AM 0.03 32.054 0.148 7.17 5.45 14.04
12/23/2020 10:30:00 AM 0.04 32.072 0.148 7.16 5.56 14.09
12/23/2020 10:45:00 AM 0.04 32.072 0.148 7.17 5.5 14.14
12/23/2020 11:00:00 AM 0.05 32.09 0.148 7.19 5.51 14.2
12/23/2020 11:15:00 AM 0.05 32.09 0.148 7.19 5.41 14.23
12/23/2020 11:30:00 AM 0.05 32.09 0.148 7.2 5.45 14.27
12/23/2020 11:45:00 AM 0.05 32.09 0.147 7.17 5.49 14.31
12/23/2020 12:00:00 PM 0.05 32.09 0.147 7.23 5.53 14.34
12/23/2020 12:15:00 PM 0.06 32.108 0.147 7.24 5.62 14.39
12/23/2020 12:30:00 PM 0.06 32.108 0.147 7.25 5.58 14.42
12/23/2020 12:45:00 PM 0.06 32.108 0.147 7.23 5.44 14.45
12/23/2020 1:00:00 PM 0.06 32.108 0.147 7.22 6.08 14.47
12/23/2020 1:15:00 PM 0.06 32.108 0.147 7.27 5.32 14.5
12/23/2020 1:30:00 PM 0.05 32.09 0.146 7.28 5.17 14.51
12/23/2020 1:45:00 PM 0.05 32.09 0.146 7.27 5.29 14.53
12/23/2020 2:00:00 PM 0.05 32.09 0.146 7.28 5.21 14.54
12/23/2020 2:15:00 PM 0.04 32.072 0.146 7.29 5.3 14.54
12/23/2020 2:30:00 PM 0.04 32.072 0.146 7.29 5.27 14.55
12/23/2020 2:45:00 PM 0.04 32.072 0.146 7.3 5.35 14.55
12/23/2020 3:00:00 PM 0.04 32.072 0.146 7.3 5.18 14.54
12/23/2020 3:15:00 PM 0.03 32.054 0.146 7.29 5.31 14.53
12/23/2020 3:30:00 PM 0.03 32.054 0.146 7.32 5.21 14.52
12/23/2020 3:45:00 PM 0.03 32.054 0.146 7.29 5.29 14.51
12/23/2020 4:00:00 PM 0.02 32.036 0.146 7.28 5.07 14.47
12/23/2020 4:15:00 PM 0.02 32.036 0.146 7.28 5.12 14.43
12/23/2020 4:30:00 PM 0.02 32.036 0.146 7.28 5.09 14.39
12/23/2020 4:45:00 PM 0.01 32.018 0.146 7.28 5.12 14.3
12/23/2020 5:00:00 PM 0.01 32.018 0.146 7.3 5.27 14.27
12/23/2020 5:15:00 PM 0.01 32.018 0.146 7.3 5.03 14.21
12/23/2020 5:30:00 PM 0.01 32.018 0.146 7.29 5.17 14.16
12/23/2020 5:45:00 PM 0.01 32.018 0.146 7.27 5.11 14.11
12/23/2020 6:00:00 PM 0.01 32.018 0.146 7.26 5.58 14.07
12/23/2020 6:15:00 PM 0.01 32.018 0.146 7.28 5.16 14.02
12/23/2020 6:30:00 PM 0.01 32.018 0.146 7.25 5.36 13.98
12/23/2020 6:45:00 PM 0.01 32.018 0.146 7.24 5.3 13.94
12/23/2020 7:00:00 PM 0.01 32.018 0.146 7.24 5.38 13.91
12/23/2020 7:15:00 PM 0.01 32.018 0.146 7.24 5.24 13.88
12/23/2020 7:30:00 PM 0.01 32.018 0.146 7.23 5.23 13.85
12/23/2020 7:45:00 PM 0.01 32.018 0.146 7.22 5.33 13.83
12/23/2020 8:00:00 PM 0.01 32.018 0.146 7.24 5.44 13.81
12/23/2020 8:15:00 PM 0.01 32.018 0.146 7.18 5.32 13.78
12/23/2020 8:30:00 PM 0.01 32.018 0.146 7.18 5.22 13.76
12/23/2020 8:45:00 PM 0.01 32.018 0.146 7.19 5.21 13.74
12/23/2020 9:00:00 PM 0.02 32.036 0.147 7.19 5.27 13.71
12/23/2020 9:15:00 PM 0.01 32.018 0.147 7.19 5.34 13.7
12/23/2020 9:30:00 PM 0.01 32.018 0.147 7.17 5.35 13.69
12/23/2020 9:45:00 PM 0.01 32.018 0.147 7.17 5.29 13.67
12/23/2020 10:00:00 PM 0.01 32.018 0.147 7.18 5.37 13.66
12/23/2020 10:15:00 PM 0.01 32.018 0.147 7.18 5.44 13.66
12/23/2020 10:30:00 PM 0.02 32.036 0.147 7.19 5.51 13.64
12/23/2020 10:45:00 PM 0.01 32.018 0.147 7.19 5.4 13.64
12/23/2020 11:00:00 PM 0.02 32.036 0.147 7.19 5.34 13.62
12/23/2020 11:15:00 PM 0.01 32.018 0.147 7.19 5.57 13.62
12/23/2020 11:30:00 PM 0.02 32.036 0.147 7.18 5.55 13.61
12/23/2020 11:45:00 PM 0.02 32.036 0.147 7.18 5.49 13.61
12/24/2020 12:00:00 AM 0.02 32.036 0.147 7.18 5.52 13.6
12/24/2020 12:15:00 AM 0.02 32.036 0.147 7.21 5.57 13.59
12/24/2020 12:30:00 AM 0.02 32.036 0.147 7.19 5.47 13.59
12/24/2020 12:45:00 AM 0.02 32.036 0.147 7.18 5.59 13.58
12/24/2020 1:00:00 AM 0.02 32.036 0.147 7.17 5.57 13.58
12/24/2020 1:15:00 AM 0.02 32.036 0.147 7.19 5.7 13.57
12/24/2020 1:30:00 AM 0.02 32.036 0.147 7.16 5.78 13.57
12/24/2020 1:45:00 AM 0.02 32.036 0.147 7.16 5.71 13.55
12/24/2020 2:00:00 AM 0.02 32.036 0.147 7.19 6.01 13.55
12/24/2020 2:15:00 AM 0.02 32.036 0.147 7.16 5.71 13.55
12/24/2020 2:30:00 AM 0.02 32.036 0.147 7.17 5.65 13.54
12/24/2020 2:45:00 AM 0.02 32.036 0.148 7.2 5.77 13.54
12/24/2020 3:00:00 AM 0.02 32.036 0.147 7.21 5.67 13.53
12/24/2020 3:15:00 AM 0.02 32.036 0.147 7.18 5.65 13.53
12/24/2020 3:30:00 AM 0.03 32.054 0.148 7.22 5.61 13.53
12/24/2020 3:45:00 AM 0.02 32.036 0.148 7.21 5.71 13.53
12/24/2020 4:00:00 AM 0.03 32.054 0.147 7.22 5.76 13.52
12/24/2020 4:15:00 AM 0.03 32.054 0.147 7.26 5.86 13.52
12/24/2020 4:30:00 AM 0.03 32.054 0.148 7.26 5.66 13.51
12/24/2020 4:45:00 AM 0.03 32.054 0.148 7.24 5.76 13.51
12/24/2020 5:00:00 AM 0.04 32.072 0.147 7.25 5.87 13.5
12/24/2020 5:15:00 AM 0.04 32.072 0.148 7.23 5.85 13.5
12/24/2020 5:30:00 AM 0.04 32.072 0.148 7.26 5.75 13.5
12/24/2020 5:45:00 AM 0.04 32.072 0.148 7.23 5.81 13.49
12/24/2020 6:00:00 AM 0.05 32.09 0.148 7.26 5.88 13.49
12/24/2020 6:15:00 AM 0.05 32.09 0.148 7.23 5.81 13.49
12/24/2020 6:30:00 AM 0.05 32.09 0.148 7.26 5.84 13.49
12/24/2020 6:45:00 AM 0.05 32.09 0.148 7.23 5.78 13.48
12/24/2020 7:00:00 AM 0.06 32.108 0.148 7.22 6.08 13.47
12/24/2020 7:15:00 AM 0.06 32.108 0.148 7.22 5.87 13.47
12/24/2020 7:30:00 AM 0.06 32.108 0.148 7.22 6.3 13.47
12/24/2020 7:45:00 AM 0.07 32.126 0.148 7.21 5.81 13.46
12/24/2020 8:00:00 AM 0.08 32.144 0.148 7.22 5.77 13.47
12/24/2020 8:15:00 AM 0.08 32.144 0.148 7.22 5.67 13.47
12/24/2020 8:30:00 AM 0.09 32.162 0.148 7.22 5.97 13.48
12/24/2020 8:45:00 AM 0.09 32.162 0.147 7.22 5.84 13.49
12/24/2020 9:00:00 AM 0.1 32.18 0.147 7.23 5.78 13.52
12/24/2020 9:15:00 AM 0.11 32.198 0.147 7.23 6.03 13.54
12/24/2020 9:30:00 AM 0.12 32.216 0.147 7.23 5.72 13.58
12/24/2020 9:45:00 AM 0.13 32.234 0.147 7.25 5.68 13.6
12/24/2020 10:00:00 AM 0.14 32.252 0.148 7.25 5.59 13.65
12/24/2020 10:15:00 AM 0.15 32.27 0.148 7.27 5.74 13.68
12/24/2020 10:30:00 AM 0.17 32.306 0.148 7.26 10.3 13.72
12/24/2020 10:45:00 AM 0.19 32.342 0.148 7.29 5.88 13.76
12/24/2020 11:00:00 AM 0.21 32.378 0.148 7.32 7.46 13.8
12/24/2020 11:15:00 AM 0.22 32.396 0.147 7.31 5.84 13.82
12/24/2020 11:30:00 AM 0.24 32.432 0.147 7.33 6.04 13.86
12/24/2020 11:45:00 AM 0.26 32.468 0.146 7.34 6.02 13.88
12/24/2020 12:00:00 PM 0.26 32.468 0.146 7.33 6.06 13.9
12/24/2020 12:15:00 PM 0.27 32.486 0.146 7.34 5.96 13.92
12/24/2020 12:30:00 PM 0.29 32.522 0.145 7.34 6.12 13.92
12/24/2020 12:45:00 PM 0.31 32.558 0.145 7.3 5.98 13.93
12/24/2020 1:00:00 PM 0.33 32.594 0.145 7.35 6.26 13.93
12/24/2020 1:15:00 PM 0.33 32.594 0.145 7.32 6.3 13.92
12/24/2020 1:30:00 PM 0.33 32.594 0.144 7.35 6.64 13.92
12/24/2020 1:45:00 PM 0.34 32.612 0.144 7.3 6.94 13.92
12/24/2020 2:00:00 PM 0.36 32.648 0.145 7.35 7.01 13.91
12/24/2020 2:15:00 PM 0.37 32.666 0.144 7.36 6.96 13.89
12/24/2020 2:30:00 PM 0.37 32.666 0.144 7.33 7.34 13.88
12/24/2020 2:45:00 PM 0.37 32.666 0.143 7.34 8.11 13.86
12/24/2020 3:00:00 PM 0.37 32.666 0.144 7.35 11.88 13.83
12/24/2020 3:15:00 PM 0.36 32.648 0.144 7.34 9.66 13.78
12/24/2020 3:30:00 PM 0.35 32.63 0.143 7.3 11.92 13.75
12/24/2020 3:45:00 PM 0.34 32.612 0.143 7.3 15.39 13.72
12/24/2020 4:00:00 PM 0.31 32.558 0.143 7.29 15.98 13.69
12/24/2020 4:15:00 PM 0.29 32.522 0.143 7.2 29.14 13.67
12/24/2020 4:30:00 PM 0.25 32.45 0.143 7.21 30.97 13.65
12/24/2020 4:45:00 PM 0.21 32.378 0.145 7.2 46.21 13.62
12/24/2020 5:00:00 PM 0.14 32.252 0.15 7.01 72.84 13.59
12/24/2020 5:15:00 PM 0.12 32.216 0.154 6.92 130.95 13.62
12/24/2020 5:30:00 PM 0.08 32.144 0.156 6.76 132.71 13.62
12/24/2020 5:45:00 PM 0.05 32.09 0.156 6.79 166.18 13.62
12/24/2020 6:00:00 PM 0.03 32.054 0.154 6.73 342.37 13.57
12/24/2020 6:15:00 PM 0.02 32.036 0.15 6.66 260.57 13.61
12/24/2020 6:30:00 PM 0.01 32.018 0.143 6.73 359.55 13.59
12/24/2020 6:45:00 PM 0.01 32.018 0.136 6.77 276.89 13.63
12/24/2020 7:00:00 PM -0.02 31.964 0.133 6.79 388.17 13.61
12/24/2020 7:15:00 PM -99999.99 -179968 -99999.99 -99999.99 -99999.99 -99999.99
12/24/2020 7:30:00 PM -99999.99 -179968 -99999.99 -99999.99 -99999.99 -99999.99
12/24/2020 7:45:00 PM -99999.99 -179968 -99999.99 -99999.99 -99999.99 -99999.99
12/24/2020 8:00:00 PM -99999.99 -179968 -99999.99 -99999.99 -99999.99 -99999.99
12/24/2020 8:15:00 PM -99999.99 -179968 -99999.99 -99999.99 -99999.99 -99999.99
12/24/2020 8:30:00 PM -99999.99 -179968 -99999.99 -99999.99 -99999.99 -99999.99
12/24/2020 8:45:00 PM -99999.99 -179968 -99999.99 -99999.99 -99999.99 -99999.99
12/24/2020 9:00:00 PM -99999.99 -179968 -99999.99 -99999.99 -99999.99 -99999.99
12/24/2020 9:15:00 PM -99999.99 -179968 -99999.99 -99999.99 -99999.99 -99999.99
12/24/2020 9:30:00 PM -99999.99 -179968 -99999.99 -99999.99 -99999.99 -99999.99
12/24/2020 9:45:00 PM -99999.99 -179968 -99999.99 -99999.99 -99999.99 -99999.99
12/24/2020 10:00:00 PM -99999.99 -179968 -99999.99 -99999.99 -99999.99 -99999.99
12/24/2020 10:15:00 PM -99999.99 -179968 -99999.99 -99999.99 -99999.99 -99999.99
12/24/2020 10:30:00 PM -99999.99 -179968 -99999.99 -99999.99 -99999.99 -99999.99
12/24/2020 10:45:00 PM -99999.99 -179968 -99999.99 -99999.99 -99999.99 -99999.99
12/24/2020 11:00:00 PM -99999.99 -179968 -99999.99 -99999.99 -99999.99 -99999.99
12/24/2020 11:15:00 PM -99999.99 -179968 -99999.99 -99999.99 -99999.99 -99999.99
12/24/2020 11:30:00 PM -99999.99 -179968 -99999.99 -99999.99 -99999.99 -99999.99
12/24/2020 11:45:00 PM -99999.99 -179968 -99999.99 -99999.99 -99999.99 -99999.99
12/25/2020 12:00:00 AM -99999.99 -179968 -99999.99 -99999.99 -99999.99 -99999.99
12/25/2020 12:15:00 AM -99999.99 -179968 -99999.99 -99999.99 -99999.99 -99999.99
12/25/2020 12:30:00 AM -99999.99 -179968 -99999.99 -99999.99 -99999.99 -99999.99
12/25/2020 12:45:00 AM -99999.99 -179968 -99999.99 -99999.99 -99999.99 -99999.99
12/25/2020 1:00:00 AM -99999.99 -179968 -99999.99 -99999.99 -99999.99 -99999.99
12/25/2020 1:15:00 AM -99999.99 -179968 -99999.99 -99999.99 -99999.99 -99999.99
12/25/2020 1:30:00 AM -99999.99 -179968 -99999.99 -99999.99 -99999.99 -99999.99
12/25/2020 1:45:00 AM -99999.99 -179968 -99999.99 -99999.99 -99999.99 -99999.99
12/25/2020 2:00:00 AM -99999.99 -179968 -99999.99 -99999.99 -99999.99 -99999.99
12/25/2020 2:15:00 AM -99999.99 -179968 -99999.99 -99999.99 -99999.99 -99999.99
12/25/2020 2:30:00 AM -99999.99 -179968 -99999.99 -99999.99 -99999.99 -99999.99
12/25/2020 2:45:00 AM -99999.99 -179968 -99999.99 -99999.99 -99999.99 -99999.99
12/25/2020 3:00:00 AM -99999.99 -179968 -99999.99 -99999.99 -99999.99 -99999.99
12/25/2020 3:15:00 AM -99999.99 -179968 -99999.99 -99999.99 -99999.99 -99999.99
12/25/2020 3:30:00 AM -99999.99 -179968 -99999.99 -99999.99 -99999.99 -99999.99
12/25/2020 3:45:00 AM -99999.99 -179968 -99999.99 -99999.99 -99999.99 -99999.99
12/25/2020 4:00:00 AM -99999.99 -179968 -99999.99 -99999.99 -99999.99 -99999.99
12/25/2020 4:15:00 AM -99999.99 -179968 -99999.99 -99999.99 -99999.99 -99999.99
12/25/2020 4:30:00 AM -99999.99 -179968 -99999.99 -99999.99 -99999.99 -99999.99
12/25/2020 4:45:00 AM -99999.99 -179968 -99999.99 -99999.99 -99999.99 -99999.99
12/25/2020 5:00:00 AM -99999.99 -179968 -99999.99 -99999.99 -99999.99 -99999.99
12/25/2020 5:15:00 AM -99999.99 -179968 -99999.99 -99999.99 -99999.99 -99999.99
12/25/2020 5:30:00 AM -99999.99 -179968 -99999.99 -99999.99 -99999.99 -99999.99
12/25/2020 5:45:00 AM -99999.99 -179968 -99999.99 -99999.99 -99999.99 -99999.99
12/25/2020 6:00:00 AM -99999.99 -179968 -99999.99 -99999.99 -99999.99 -99999.99
12/25/2020 6:15:00 AM -99999.99 -179968 -99999.99 -99999.99 -99999.99 -99999.99
12/25/2020 6:30:00 AM -99999.99 -179968 -99999.99 -99999.99 -99999.99 -99999.99
12/25/2020 6:45:00 AM -99999.99 -179968 -99999.99 -99999.99 -99999.99 -99999.99
12/25/2020 7:00:00 AM -99999.99 -179968 -99999.99 -99999.99 -99999.99 -99999.99
12/25/2020 7:15:00 AM -99999.99 -179968 -99999.99 -99999.99 -99999.99 -99999.99
12/25/2020 7:30:00 AM -99999.99 -179968 -99999.99 -99999.99 -99999.99 -99999.99
12/25/2020 7:45:00 AM -99999.99 -179968 -99999.99 -99999.99 -99999.99 -99999.99
12/25/2020 8:00:00 AM -99999.99 -179968 -99999.99 -99999.99 -99999.99 -99999.99
12/25/2020 8:15:00 AM -99999.99 -179968 -99999.99 -99999.99 -99999.99 -99999.99
12/25/2020 8:30:00 AM -99999.99 -179968 -99999.99 -99999.99 -99999.99 -99999.99
12/25/2020 8:45:00 AM -99999.99 -179968 -99999.99 -99999.99 -99999.99 -99999.99
12/25/2020 9:00:00 AM -99999.99 -179968 -99999.99 -99999.99 -99999.99 -99999.99
12/25/2020 9:15:00 AM -99999.99 -179968 -99999.99 -99999.99 -99999.99 -99999.99
12/25/2020 9:30:00 AM -99999.99 -179968 -99999.99 -99999.99 -99999.99 -99999.99
12/25/2020 9:45:00 AM -99999.99 -179968 -99999.99 -99999.99 -99999.99 -99999.99
12/25/2020 10:00:00 AM -99999.99 -179968 -99999.99 -99999.99 -99999.99 -99999.99
12/25/2020 10:15:00 AM -99999.99 -179968 -99999.99 -99999.99 -99999.99 -99999.99
12/25/2020 10:30:00 AM -99999.99 -179968 -99999.99 -99999.99 -99999.99 -99999.99
12/25/2020 10:45:00 AM -99999.99 -179968 -99999.99 -99999.99 -99999.99 -99999.99
12/25/2020 11:00:00 AM -99999.99 -179968 -99999.99 -99999.99 -99999.99 -99999.99
12/25/2020 11:15:00 AM -99999.99 -179968 -99999.99 -99999.99 -99999.99 -99999.99
12/25/2020 11:30:00 AM -99999.99 -179968 -99999.99 -99999.99 -99999.99 -99999.99
12/25/2020 11:45:00 AM -99999.99 -179968 -99999.99 -99999.99 -99999.99 -99999.99
12/25/2020 12:00:00 PM -99999.99 -179968 -99999.99 -99999.99 -99999.99 -99999.99
12/25/2020 12:15:00 PM -99999.99 -179968 -99999.99 -99999.99 -99999.99 -99999.99
12/25/2020 12:30:00 PM -99999.99 -179968 -99999.99 -99999.99 -99999.99 -99999.99
12/25/2020 12:45:00 PM -99999.99 -179968 -99999.99 -99999.99 -99999.99 -99999.99
12/25/2020 1:00:00 PM -99999.99 -179968 -99999.99 -99999.99 -99999.99 -99999.99
12/25/2020 1:15:00 PM -99999.99 -179968 -99999.99 -99999.99 -99999.99 -99999.99
12/25/2020 1:30:00 PM -99999.99 -179968 -99999.99 -99999.99 -99999.99 -99999.99
12/25/2020 1:45:00 PM -99999.99 -179968 -99999.99 -99999.99 -99999.99 -99999.99
12/25/2020 2:00:00 PM -99999.99 -179968 -99999.99 -99999.99 -99999.99 -99999.99
12/25/2020 2:15:00 PM -99999.99 -179968 -99999.99 -99999.99 -99999.99 -99999.99
12/25/2020 2:30:00 PM -99999.99 -179968 -99999.99 -99999.99 -99999.99 -99999.99
12/25/2020 2:45:00 PM -99999.99 -179968 -99999.99 -99999.99 -99999.99 -99999.99
12/25/2020 3:00:00 PM -99999.99 -179968 -99999.99 -99999.99 -99999.99 -99999.99
12/25/2020 3:15:00 PM -99999.99 -179968 -99999.99 -99999.99 -99999.99 -99999.99
12/25/2020 3:30:00 PM -99999.99 -179968 -99999.99 -99999.99 -99999.99 -99999.99
12/25/2020 3:45:00 PM -99999.99 -179968 -99999.99 -99999.99 -99999.99 -99999.99
12/25/2020 4:00:00 PM -99999.99 -179968 -99999.99 -99999.99 -99999.99 -99999.99
12/25/2020 4:15:00 PM -99999.99 -179968 -99999.99 -99999.99 -99999.99 -99999.99
12/25/2020 4:30:00 PM -99999.99 -179968 -99999.99 -99999.99 -99999.99 -99999.99
12/25/2020 4:45:00 PM -99999.99 -179968 -99999.99 -99999.99 -99999.99 -99999.99
12/25/2020 5:00:00 PM -99999.99 -179968 -99999.99 -99999.99 -99999.99 -99999.99
12/25/2020 5:15:00 PM -99999.99 -179968 -99999.99 -99999.99 -99999.99 -99999.99
12/25/2020 5:30:00 PM -99999.99 -179968 -99999.99 -99999.99 -99999.99 -99999.99
12/25/2020 5:45:00 PM -99999.99 -179968 -99999.99 -99999.99 -99999.99 -99999.99
12/25/2020 6:00:00 PM -99999.99 -179968 -99999.99 -99999.99 -99999.99 -99999.99
12/25/2020 6:15:00 PM -99999.99 -179968 -99999.99 -99999.99 -99999.99 -99999.99
12/25/2020 6:30:00 PM -99999.99 -179968 -99999.99 -99999.99 -99999.99 -99999.99
12/25/2020 6:45:00 PM -99999.99 -179968 -99999.99 -99999.99 -99999.99 -99999.99
12/25/2020 7:00:00 PM -99999.99 -179968 -99999.99 -99999.99 -99999.99 -99999.99
12/25/2020 7:15:00 PM -99999.99 -179968 -99999.99 -99999.99 -99999.99 -99999.99
12/25/2020 7:30:00 PM -99999.99 -179968 -99999.99 -99999.99 -99999.99 -99999.99
12/25/2020 7:45:00 PM -99999.99 -179968 -99999.99 -99999.99 -99999.99 -99999.99
12/25/2020 8:00:00 PM -99999.99 -179968 -99999.99 -99999.99 -99999.99 -99999.99
12/25/2020 8:15:00 PM -99999.99 -179968 -99999.99 -99999.99 -99999.99 -99999.99
12/25/2020 8:30:00 PM -99999.99 -179968 -99999.99 -99999.99 -99999.99 -99999.99
12/25/2020 8:45:00 PM -99999.99 -179968 -99999.99 -99999.99 -99999.99 -99999.99
12/25/2020 9:00:00 PM -99999.99 -179968 -99999.99 -99999.99 -99999.99 -99999.99
12/25/2020 9:15:00 PM -99999.99 -179968 -99999.99 -99999.99 -99999.99 -99999.99
12/25/2020 9:30:00 PM -99999.99 -179968 -99999.99 -99999.99 -99999.99 -99999.99
12/25/2020 9:45:00 PM -99999.99 -179968 -99999.99 -99999.99 -99999.99 -99999.99
12/25/2020 10:00:00 PM -99999.99 -179968 -99999.99 -99999.99 -99999.99 -99999.99
12/25/2020 10:15:00 PM -99999.99 -179968 -99999.99 -99999.99 -99999.99 -99999.99
12/25/2020 10:30:00 PM -99999.99 -179968 -99999.99 -99999.99 -99999.99 -99999.99
12/25/2020 10:45:00 PM -99999.99 -179968 -99999.99 -99999.99 -99999.99 -99999.99
12/25/2020 11:00:00 PM -99999.99 -179968 -99999.99 -99999.99 -99999.99 -99999.99
12/25/2020 11:15:00 PM -99999.99 -179968 -99999.99 -99999.99 -99999.99 -99999.99
12/25/2020 11:30:00 PM -99999.99 -179968 -99999.99 -99999.99 -99999.99 -99999.99
12/25/2020 11:45:00 PM -99999.99 -179968 -99999.99 -99999.99 -99999.99 -99999.99
12/26/2020 12:00:00 AM -99999.99 -179968 -99999.99 -99999.99 -99999.99 -99999.99
12/26/2020 12:15:00 AM -99999.99 -179968 -99999.99 -99999.99 -99999.99 -99999.99
12/26/2020 12:30:00 AM -99999.99 -179968 -99999.99 -99999.99 -99999.99 -99999.99
12/26/2020 12:45:00 AM -99999.99 -179968 -99999.99 -99999.99 -99999.99 -99999.99
12/26/2020 1:00:00 AM -99999.99 -179968 -99999.99 -99999.99 -99999.99 -99999.99
12/26/2020 1:15:00 AM -99999.99 -179968 -99999.99 -99999.99 -99999.99 -99999.99
12/26/2020 1:30:00 AM -99999.99 -179968 -99999.99 -99999.99 -99999.99 -99999.99
12/26/2020 1:45:00 AM -99999.99 -179968 -99999.99 -99999.99 -99999.99 -99999.99
12/26/2020 2:00:00 AM -99999.99 -179968 -99999.99 -99999.99 -99999.99 -99999.99
12/26/2020 2:15:00 AM -99999.99 -179968 -99999.99 -99999.99 -99999.99 -99999.99
12/26/2020 2:30:00 AM -99999.99 -179968 -99999.99 -99999.99 -99999.99 -99999.99
12/26/2020 2:45:00 AM -99999.99 -179968 -99999.99 -99999.99 -99999.99 -99999.99
12/26/2020 3:00:00 AM -99999.99 -179968 -99999.99 -99999.99 -99999.99 -99999.99
12/26/2020 3:15:00 AM -99999.99 -179968 -99999.99 -99999.99 -99999.99 -99999.99
12/26/2020 3:30:00 AM -99999.99 -179968 -99999.99 -99999.99 -99999.99 -99999.99
12/26/2020 3:45:00 AM -99999.99 -179968 -99999.99 -99999.99 -99999.99 -99999.99
12/26/2020 4:00:00 AM -99999.99 -179968 -99999.99 -99999.99 -99999.99 -99999.99
12/26/2020 4:15:00 AM -99999.99 -179968 -99999.99 -99999.99 -99999.99 -99999.99
12/26/2020 4:30:00 AM -99999.99 -179968 -99999.99 -99999.99 -99999.99 -99999.99
12/26/2020 4:45:00 AM -99999.99 -179968 -99999.99 -99999.99 -99999.99 -99999.99
12/26/2020 5:00:00 AM -99999.99 -179968 -99999.99 -99999.99 -99999.99 -99999.99
12/26/2020 5:15:00 AM -99999.99 -179968 -99999.99 -99999.99 -99999.99 -99999.99
12/26/2020 5:30:00 AM -99999.99 -179968 -99999.99 -99999.99 -99999.99 -99999.99
12/26/2020 5:45:00 AM -99999.99 -179968 -99999.99 -99999.99 -99999.99 -99999.99
12/26/2020 6:00:00 AM -99999.99 -179968 -99999.99 -99999.99 -99999.99 -99999.99
12/26/2020 6:15:00 AM -99999.99 -179968 -99999.99 -99999.99 -99999.99 -99999.99
12/26/2020 6:30:00 AM -99999.99 -179968 -99999.99 -99999.99 -99999.99 -99999.99
12/26/2020 6:45:00 AM -99999.99 -179968 -99999.99 -99999.99 -99999.99 -99999.99
12/26/2020 7:00:00 AM -99999.99 -179968 -99999.99 -99999.99 -99999.99 -99999.99
12/26/2020 7:15:00 AM -99999.99 -179968 -99999.99 -99999.99 -99999.99 -99999.99
12/26/2020 7:30:00 AM -99999.99 -179968 -99999.99 -99999.99 -99999.99 -99999.99
12/26/2020 7:45:00 AM -99999.99 -179968 -99999.99 -99999.99 -99999.99 -99999.99
12/26/2020 8:00:00 AM -99999.99 -179968 -99999.99 -99999.99 -99999.99 -99999.99
12/26/2020 8:15:00 AM -99999.99 -179968 -99999.99 -99999.99 -99999.99 -99999.99
12/26/2020 8:30:00 AM -99999.99 -179968 -99999.99 -99999.99 -99999.99 -99999.99
12/26/2020 8:45:00 AM -99999.99 -179968 -99999.99 -99999.99 -99999.99 -99999.99
12/26/2020 9:00:00 AM -99999.99 -179968 -99999.99 -99999.99 -99999.99 -99999.99
12/26/2020 9:15:00 AM -99999.99 -179968 -99999.99 -99999.99 -99999.99 -99999.99
12/26/2020 9:30:00 AM -99999.99 -179968 -99999.99 -99999.99 -99999.99 -99999.99
12/26/2020 9:45:00 AM -99999.99 -179968 -99999.99 -99999.99 -99999.99 -99999.99
12/26/2020 10:00:00 AM -99999.99 -179968 -99999.99 -99999.99 -99999.99 -99999.99
12/26/2020 10:15:00 AM -99999.99 -179968 -99999.99 -99999.99 -99999.99 -99999.99
12/26/2020 10:30:00 AM -99999.99 -179968 -99999.99 -99999.99 -99999.99 -99999.99
12/26/2020 10:45:00 AM -99999.99 -179968 -99999.99 -99999.99 -99999.99 -99999.99
12/26/2020 11:00:00 AM -99999.99 -179968 -99999.99 -99999.99 -99999.99 -99999.99
12/26/2020 11:15:00 AM -99999.99 -179968 -99999.99 -99999.99 -99999.99 -99999.99
12/26/2020 11:30:00 AM -99999.99 -179968 -99999.99 -99999.99 -99999.99 -99999.99
12/26/2020 11:45:00 AM -99999.99 -179968 -99999.99 -99999.99 -99999.99 -99999.99
12/26/2020 12:00:00 PM -99999.99 -179968 -99999.99 -99999.99 -99999.99 -99999.99
12/26/2020 12:15:00 PM -99999.99 -179968 -99999.99 -99999.99 -99999.99 -99999.99
12/26/2020 12:30:00 PM -99999.99 -179968 -99999.99 -99999.99 -99999.99 -99999.99
12/26/2020 12:45:00 PM -99999.99 -179968 -99999.99 -99999.99 -99999.99 -99999.99
12/26/2020 1:00:00 PM -99999.99 -179968 -99999.99 -99999.99 -99999.99 -99999.99
12/26/2020 1:15:00 PM -99999.99 -179968 -99999.99 -99999.99 -99999.99 -99999.99
12/26/2020 1:30:00 PM -99999.99 -179968 -99999.99 -99999.99 -99999.99 -99999.99
12/26/2020 1:45:00 PM -99999.99 -179968 -99999.99 -99999.99 -99999.99 -99999.99
12/26/2020 2:00:00 PM -99999.99 -179968 -99999.99 -99999.99 -99999.99 -99999.99
12/26/2020 2:15:00 PM -99999.99 -179968 -99999.99 -99999.99 -99999.99 -99999.99
12/26/2020 2:30:00 PM -99999.99 -179968 -99999.99 -99999.99 -99999.99 -99999.99
12/26/2020 2:45:00 PM -99999.99 -179968 -99999.99 -99999.99 -99999.99 -99999.99
12/26/2020 3:00:00 PM -99999.99 -179968 -99999.99 -99999.99 -99999.99 -99999.99
12/26/2020 3:15:00 PM -99999.99 -179968 -99999.99 -99999.99 -99999.99 -99999.99
12/26/2020 3:30:00 PM -99999.99 -179968 -99999.99 -99999.99 -99999.99 -99999.99
12/26/2020 3:45:00 PM -99999.99 -179968 -99999.99 -99999.99 -99999.99 -99999.99
12/26/2020 4:00:00 PM -99999.99 -179968 -99999.99 -99999.99 -99999.99 -99999.99
12/26/2020 4:15:00 PM -99999.99 -179968 -99999.99 -99999.99 -99999.99 -99999.99
12/26/2020 4:30:00 PM -99999.99 -179968 -99999.99 -99999.99 -99999.99 -99999.99
12/26/2020 4:45:00 PM -99999.99 -179968 -99999.99 -99999.99 -99999.99 -99999.99
12/26/2020 5:00:00 PM -99999.99 -179968 -99999.99 -99999.99 -99999.99 -99999.99
12/26/2020 5:15:00 PM -99999.99 -179968 -99999.99 -99999.99 -99999.99 -99999.99
12/26/2020 5:30:00 PM -99999.99 -179968 -99999.99 -99999.99 -99999.99 -99999.99
12/26/2020 5:45:00 PM -99999.99 -179968 -99999.99 -99999.99 -99999.99 -99999.99
12/26/2020 6:00:00 PM -99999.99 -179968 -99999.99 -99999.99 -99999.99 -99999.99
12/26/2020 6:15:00 PM -99999.99 -179968 -99999.99 -99999.99 -99999.99 -99999.99
12/26/2020 6:30:00 PM -99999.99 -179968 -99999.99 -99999.99 -99999.99 -99999.99
12/26/2020 6:45:00 PM -99999.99 -179968 -99999.99 -99999.99 -99999.99 -99999.99
12/26/2020 7:00:00 PM -99999.99 -179968 -99999.99 -99999.99 -99999.99 -99999.99
12/26/2020 7:15:00 PM -99999.99 -179968 -99999.99 -99999.99 -99999.99 -99999.99
12/26/2020 7:30:00 PM -99999.99 -179968 -99999.99 -99999.99 -99999.99 -99999.99
12/26/2020 7:45:00 PM -99999.99 -179968 -99999.99 -99999.99 -99999.99 -99999.99
12/26/2020 8:00:00 PM -99999.99 -179968 -99999.99 -99999.99 -99999.99 -99999.99
12/26/2020 8:15:00 PM -99999.99 -179968 -99999.99 -99999.99 -99999.99 -99999.99
12/26/2020 8:30:00 PM -99999.99 -179968 -99999.99 -99999.99 -99999.99 -99999.99
12/26/2020 8:45:00 PM -99999.99 -179968 -99999.99 -99999.99 -99999.99 -99999.99
12/26/2020 9:00:00 PM -99999.99 -179968 -99999.99 -99999.99 -99999.99 -99999.99
12/26/2020 9:15:00 PM -99999.99 -179968 -99999.99 -99999.99 -99999.99 -99999.99
12/26/2020 9:30:00 PM -99999.99 -179968 -99999.99 -99999.99 -99999.99 -99999.99
12/26/2020 9:45:00 PM -99999.99 -179968 -99999.99 -99999.99 -99999.99 -99999.99
12/26/2020 10:00:00 PM -99999.99 -179968 -99999.99 -99999.99 -99999.99 -99999.99
12/26/2020 10:15:00 PM -99999.99 -179968 -99999.99 -99999.99 -99999.99 -99999.99
12/26/2020 10:30:00 PM -99999.99 -179968 -99999.99 -99999.99 -99999.99 -99999.99
12/26/2020 10:45:00 PM -99999.99 -179968 -99999.99 -99999.99 -99999.99 -99999.99
12/26/2020 11:00:00 PM -99999.99 -179968 -99999.99 -99999.99 -99999.99 -99999.99
12/26/2020 11:15:00 PM -99999.99 -179968 -99999.99 -99999.99 -99999.99 -99999.99
12/26/2020 11:30:00 PM -99999.99 -179968 -99999.99 -99999.99 -99999.99 -99999.99
12/26/2020 11:45:00 PM -99999.99 -179968 -99999.99 -99999.99 -99999.99 -99999.99
12/27/2020 12:00:00 AM -99999.99 -179968 -99999.99 -99999.99 -99999.99 -99999.99
12/27/2020 12:15:00 AM -99999.99 -179968 -99999.99 -99999.99 -99999.99 -99999.99
12/27/2020 12:30:00 AM -99999.99 -179968 -99999.99 -99999.99 -99999.99 -99999.99
12/27/2020 12:45:00 AM -99999.99 -179968 -99999.99 -99999.99 -99999.99 -99999.99
12/27/2020 1:00:00 AM -99999.99 -179968 -99999.99 -99999.99 -99999.99 -99999.99
12/27/2020 1:15:00 AM -99999.99 -179968 -99999.99 -99999.99 -99999.99 -99999.99
12/27/2020 1:30:00 AM -99999.99 -179968 -99999.99 -99999.99 -99999.99 -99999.99
12/27/2020 1:45:00 AM -99999.99 -179968 -99999.99 -99999.99 -99999.99 -99999.99
12/27/2020 2:00:00 AM -99999.99 -179968 -99999.99 -99999.99 -99999.99 -99999.99
12/27/2020 2:15:00 AM -99999.99 -179968 -99999.99 -99999.99 -99999.99 -99999.99
12/27/2020 2:30:00 AM -99999.99 -179968 -99999.99 -99999.99 -99999.99 -99999.99
12/27/2020 2:45:00 AM -99999.99 -179968 -99999.99 -99999.99 -99999.99 -99999.99
12/27/2020 3:00:00 AM -99999.99 -179968 -99999.99 -99999.99 -99999.99 -99999.99
12/27/2020 3:15:00 AM -99999.99 -179968 -99999.99 -99999.99 -99999.99 -99999.99
12/27/2020 3:30:00 AM -99999.99 -179968 -99999.99 -99999.99 -99999.99 -99999.99
12/27/2020 3:45:00 AM -99999.99 -179968 -99999.99 -99999.99 -99999.99 -99999.99
12/27/2020 4:00:00 AM -99999.99 -179968 -99999.99 -99999.99 -99999.99 -99999.99
12/27/2020 4:15:00 AM -99999.99 -179968 -99999.99 -99999.99 -99999.99 -99999.99
12/27/2020 4:30:00 AM -99999.99 -179968 -99999.99 -99999.99 -99999.99 -99999.99
12/27/2020 4:45:00 AM -99999.99 -179968 -99999.99 -99999.99 -99999.99 -99999.99
12/27/2020 5:00:00 AM -99999.99 -179968 -99999.99 -99999.99 -99999.99 -99999.99
12/27/2020 5:15:00 AM -99999.99 -179968 -99999.99 -99999.99 -99999.99 -99999.99
12/27/2020 5:30:00 AM -99999.99 -179968 -99999.99 -99999.99 -99999.99 -99999.99
12/27/2020 5:45:00 AM -99999.99 -179968 -99999.99 -99999.99 -99999.99 -99999.99
12/27/2020 6:00:00 AM -99999.99 -179968 -99999.99 -99999.99 -99999.99 -99999.99
12/27/2020 6:15:00 AM -99999.99 -179968 -99999.99 -99999.99 -99999.99 -99999.99
12/27/2020 6:30:00 AM -99999.99 -179968 -99999.99 -99999.99 -99999.99 -99999.99
12/27/2020 6:45:00 AM -99999.99 -179968 -99999.99 -99999.99 -99999.99 -99999.99
12/27/2020 7:00:00 AM -99999.99 -179968 -99999.99 -99999.99 -99999.99 -99999.99
12/27/2020 7:15:00 AM -99999.99 -179968 -99999.99 -99999.99 -99999.99 -99999.99
12/27/2020 7:30:00 AM -99999.99 -179968 -99999.99 -99999.99 -99999.99 -99999.99
12/27/2020 7:45:00 AM -99999.99 -179968 -99999.99 -99999.99 -99999.99 -99999.99
12/27/2020 8:00:00 AM -99999.99 -179968 -99999.99 -99999.99 -99999.99 -99999.99
12/27/2020 8:15:00 AM -99999.99 -179968 -99999.99 -99999.99 -99999.99 -99999.99
12/27/2020 8:30:00 AM -99999.99 -179968 -99999.99 -99999.99 -99999.99 -99999.99
12/27/2020 8:45:00 AM -99999.99 -179968 -99999.99 -99999.99 -99999.99 -99999.99
12/27/2020 9:00:00 AM -99999.99 -179968 -99999.99 -99999.99 -99999.99 -99999.99
12/27/2020 9:15:00 AM -99999.99 -179968 -99999.99 -99999.99 -99999.99 -99999.99
12/27/2020 9:30:00 AM -99999.99 -179968 -99999.99 -99999.99 -99999.99 -99999.99
12/27/2020 9:45:00 AM -99999.99 -179968 -99999.99 -99999.99 -99999.99 -99999.99
12/27/2020 10:00:00 AM -99999.99 -179968 -99999.99 -99999.99 -99999.99 -99999.99
12/27/2020 10:15:00 AM -99999.99 -179968 -99999.99 -99999.99 -99999.99 -99999.99
12/27/2020 10:30:00 AM -99999.99 -179968 -99999.99 -99999.99 -99999.99 -99999.99
12/27/2020 10:45:00 AM -99999.99 -179968 -99999.99 -99999.99 -99999.99 -99999.99
12/27/2020 11:00:00 AM -99999.99 -179968 -99999.99 -99999.99 -99999.99 -99999.99
12/27/2020 11:15:00 AM -99999.99 -179968 -99999.99 -99999.99 -99999.99 -99999.99
12/27/2020 11:30:00 AM -99999.99 -179968 -99999.99 -99999.99 -99999.99 -99999.99
12/27/2020 11:45:00 AM -99999.99 -179968 -99999.99 -99999.99 -99999.99 -99999.99
12/27/2020 12:00:00 PM -99999.99 -179968 -99999.99 -99999.99 -99999.99 -99999.99
12/27/2020 12:15:00 PM -99999.99 -179968 -99999.99 -99999.99 -99999.99 -99999.99
12/27/2020 12:30:00 PM -99999.99 -179968 -99999.99 -99999.99 -99999.99 -99999.99
12/27/2020 12:45:00 PM -99999.99 -179968 -99999.99 -99999.99 -99999.99 -99999.99
12/27/2020 1:00:00 PM -99999.99 -179968 -99999.99 -99999.99 -99999.99 -99999.99
12/27/2020 1:15:00 PM -99999.99 -179968 -99999.99 -99999.99 -99999.99 -99999.99
12/27/2020 1:30:00 PM -99999.99 -179968 -99999.99 -99999.99 -99999.99 -99999.99
12/27/2020 1:45:00 PM -99999.99 -179968 -99999.99 -99999.99 -99999.99 -99999.99
12/27/2020 2:00:00 PM -99999.99 -179968 -99999.99 -99999.99 -99999.99 -99999.99
12/27/2020 2:15:00 PM -99999.99 -179968 -99999.99 -99999.99 -99999.99 -99999.99
12/27/2020 2:30:00 PM -99999.99 -179968 -99999.99 -99999.99 -99999.99 -99999.99
12/27/2020 2:45:00 PM -99999.99 -179968 -99999.99 -99999.99 -99999.99 -99999.99
12/27/2020 3:00:00 PM -99999.99 -179968 -99999.99 -99999.99 -99999.99 -99999.99
12/27/2020 3:15:00 PM -99999.99 -179968 -99999.99 -99999.99 -99999.99 -99999.99
12/27/2020 3:30:00 PM -99999.99 -179968 -99999.99 -99999.99 -99999.99 -99999.99
12/27/2020 3:45:00 PM -99999.99 -179968 -99999.99 -99999.99 -99999.99 -99999.99
12/27/2020 4:00:00 PM -99999.99 -179968 -99999.99 -99999.99 -99999.99 -99999.99
12/27/2020 4:15:00 PM -99999.99 -179968 -99999.99 -99999.99 -99999.99 -99999.99
12/27/2020 4:30:00 PM -99999.99 -179968 -99999.99 -99999.99 -99999.99 -99999.99
12/27/2020 4:45:00 PM -99999.99 -179968 -99999.99 -99999.99 -99999.99 -99999.99
12/27/2020 5:00:00 PM -99999.99 -179968 -99999.99 -99999.99 -99999.99 -99999.99
12/27/2020 5:15:00 PM -99999.99 -179968 -99999.99 -99999.99 -99999.99 -99999.99
12/27/2020 5:30:00 PM -99999.99 -179968 -99999.99 -99999.99 -99999.99 -99999.99
12/27/2020 5:45:00 PM -99999.99 -179968 -99999.99 -99999.99 -99999.99 -99999.99
12/27/2020 6:00:00 PM -99999.99 -179968 -99999.99 -99999.99 -99999.99 -99999.99
12/27/2020 6:15:00 PM -99999.99 -179968 -99999.99 -99999.99 -99999.99 -99999.99
12/27/2020 6:30:00 PM -99999.99 -179968 -99999.99 -99999.99 -99999.99 -99999.99
12/27/2020 6:45:00 PM -99999.99 -179968 -99999.99 -99999.99 -99999.99 -99999.99
12/27/2020 7:00:00 PM -99999.99 -179968 -99999.99 -99999.99 -99999.99 -99999.99
12/27/2020 7:15:00 PM -99999.99 -179968 -99999.99 -99999.99 -99999.99 -99999.99
12/27/2020 7:30:00 PM -99999.99 -179968 -99999.99 -99999.99 -99999.99 -99999.99
12/27/2020 7:45:00 PM -99999.99 -179968 -99999.99 -99999.99 -99999.99 -99999.99
12/27/2020 8:00:00 PM -99999.99 -179968 -99999.99 -99999.99 -99999.99 -99999.99
12/27/2020 8:15:00 PM -99999.99 -179968 -99999.99 -99999.99 -99999.99 -99999.99
12/27/2020 8:30:00 PM -99999.99 -179968 -99999.99 -99999.99 -99999.99 -99999.99
12/27/2020 8:45:00 PM -99999.99 -179968 -99999.99 -99999.99 -99999.99 -99999.99
12/27/2020 9:00:00 PM -99999.99 -179968 -99999.99 -99999.99 -99999.99 -99999.99
12/27/2020 9:15:00 PM -99999.99 -179968 -99999.99 -99999.99 -99999.99 -99999.99
12/27/2020 9:30:00 PM -99999.99 -179968 -99999.99 -99999.99 -99999.99 -99999.99
12/27/2020 9:45:00 PM -99999.99 -179968 -99999.99 -99999.99 -99999.99 -99999.99
12/27/2020 10:00:00 PM -99999.99 -179968 -99999.99 -99999.99 -99999.99 -99999.99
12/27/2020 10:15:00 PM -99999.99 -179968 -99999.99 -99999.99 -99999.99 -99999.99
12/27/2020 10:30:00 PM -99999.99 -179968 -99999.99 -99999.99 -99999.99 -99999.99
12/27/2020 10:45:00 PM -99999.99 -179968 -99999.99 -99999.99 -99999.99 -99999.99
12/27/2020 11:00:00 PM -99999.99 -179968 -99999.99 -99999.99 -99999.99 -99999.99
12/27/2020 11:15:00 PM -99999.99 -179968 -99999.99 -99999.99 -99999.99 -99999.99
12/27/2020 11:30:00 PM -99999.99 -179968 -99999.99 -99999.99 -99999.99 -99999.99
12/27/2020 11:45:00 PM -99999.99 -179968 -99999.99 -99999.99 -99999.99 -99999.99
12/28/2020 12:00:00 AM -99999.99 -179968 -99999.99 -99999.99 -99999.99 -99999.99
12/28/2020 12:15:00 AM -99999.99 -179968 -99999.99 -99999.99 -99999.99 -99999.99
12/28/2020 12:30:00 AM -99999.99 -179968 -99999.99 -99999.99 -99999.99 -99999.99
12/28/2020 12:45:00 AM -99999.99 -179968 -99999.99 -99999.99 -99999.99 -99999.99
12/28/2020 1:00:00 AM -99999.99 -179968 -99999.99 -99999.99 -99999.99 -99999.99
12/28/2020 1:15:00 AM -99999.99 -179968 -99999.99 -99999.99 -99999.99 -99999.99
12/28/2020 1:30:00 AM -99999.99 -179968 -99999.99 -99999.99 -99999.99 -99999.99
12/28/2020 1:45:00 AM -99999.99 -179968 -99999.99 -99999.99 -99999.99 -99999.99
12/28/2020 2:00:00 AM -99999.99 -179968 -99999.99 -99999.99 -99999.99 -99999.99
12/28/2020 2:15:00 AM -99999.99 -179968 -99999.99 -99999.99 -99999.99 -99999.99
12/28/2020 2:30:00 AM -99999.99 -179968 -99999.99 -99999.99 -99999.99 -99999.99
12/28/2020 2:45:00 AM -99999.99 -179968 -99999.99 -99999.99 -99999.99 -99999.99
12/28/2020 3:00:00 AM -99999.99 -179968 -99999.99 -99999.99 -99999.99 -99999.99
12/28/2020 3:15:00 AM -99999.99 -179968 -99999.99 -99999.99 -99999.99 -99999.99
12/28/2020 3:30:00 AM -99999.99 -179968 -99999.99 -99999.99 -99999.99 -99999.99
12/28/2020 3:45:00 AM -99999.99 -179968 -99999.99 -99999.99 -99999.99 -99999.99
12/28/2020 4:00:00 AM -99999.99 -179968 -99999.99 -99999.99 -99999.99 -99999.99
12/28/2020 4:15:00 AM -99999.99 -179968 -99999.99 -99999.99 -99999.99 -99999.99
12/28/2020 4:30:00 AM -99999.99 -179968 -99999.99 -99999.99 -99999.99 -99999.99
12/28/2020 4:45:00 AM -99999.99 -179968 -99999.99 -99999.99 -99999.99 -99999.99
12/28/2020 5:00:00 AM -99999.99 -179968 -99999.99 -99999.99 -99999.99 -99999.99
12/28/2020 5:15:00 AM -99999.99 -179968 -99999.99 -99999.99 -99999.99 -99999.99